<?xml version="1.0" encoding="UTF-8" standalone="no" ?>
<gpx xmlns="http://www.topografix.com/GPX/1/1" xmlns:xsi="http://www.w3.org/2001/XMLSchema-instance" xsi:schemaLocation="http://www.topografix.com/GPX/1/1 http://www.topografix.com/GPX/1/1/gpx.xsd" version="1.1" creator="VisuGPX - https://www.visugpx.com">
  <metadata>
    <name>Radôme de Gourdon</name>
    <desc><![CDATA[Pré du Lac, Radôme et bois de Gourdon, canaux, Bar sur Loup]]></desc>
  </metadata>
  <trk>
    <name><![CDATA[Pré du lac - Radôme]]></name>
    <trkseg>
      <trkpt lat="43.68067" lon="6.97339">
        <ele>431.769165</ele>
        <time>2014-05-01T06:32:53Z</time>
      </trkpt>
      <trkpt lat="43.68071" lon="6.97331">
        <ele>414.4654541</ele>
        <time>2014-05-01T06:33:22Z</time>
      </trkpt>
      <trkpt lat="43.68072" lon="6.97327">
        <ele>413.0235596</ele>
        <time>2014-05-01T06:33:53Z</time>
      </trkpt>
      <trkpt lat="43.68074" lon="6.97336">
        <ele>413.5042725</ele>
        <time>2014-05-01T06:34:07Z</time>
      </trkpt>
      <trkpt lat="43.68074" lon="6.97337">
        <ele>413.9848633</ele>
        <time>2014-05-01T06:34:08Z</time>
      </trkpt>
      <trkpt lat="43.68074" lon="6.97331">
        <ele>413.9848633</ele>
        <time>2014-05-01T06:34:19Z</time>
      </trkpt>
      <trkpt lat="43.68074" lon="6.9733">
        <ele>413.9848633</ele>
        <time>2014-05-01T06:35:05Z</time>
      </trkpt>
      <trkpt lat="43.68071" lon="6.97281">
        <ele>415.4268799</ele>
        <time>2014-05-01T06:35:24Z</time>
      </trkpt>
      <trkpt lat="43.68066" lon="6.97254">
        <ele>414.946167</ele>
        <time>2014-05-01T06:35:33Z</time>
      </trkpt>
      <trkpt lat="43.68061" lon="6.97185">
        <ele>415.4268799</ele>
        <time>2014-05-01T06:35:52Z</time>
      </trkpt>
      <trkpt lat="43.68061" lon="6.97182">
        <ele>415.4268799</ele>
        <time>2014-05-01T06:36:13Z</time>
      </trkpt>
      <trkpt lat="43.68068" lon="6.97147">
        <ele>415.9074707</ele>
        <time>2014-05-01T06:36:22Z</time>
      </trkpt>
      <trkpt lat="43.68074" lon="6.97096">
        <ele>418.7915039</ele>
        <time>2014-05-01T06:36:36Z</time>
      </trkpt>
      <trkpt lat="43.68096" lon="6.97067">
        <ele>422.1560059</ele>
        <time>2014-05-01T06:36:51Z</time>
      </trkpt>
      <trkpt lat="43.68129" lon="6.97027">
        <ele>424.5594482</ele>
        <time>2014-05-01T06:37:11Z</time>
      </trkpt>
      <trkpt lat="43.68148" lon="6.96988">
        <ele>429.3659668</ele>
        <time>2014-05-01T06:37:31Z</time>
      </trkpt>
      <trkpt lat="43.68161" lon="6.96981">
        <ele>432.25</ele>
        <time>2014-05-01T06:37:42Z</time>
      </trkpt>
      <trkpt lat="43.68165" lon="6.96979">
        <ele>433.2113037</ele>
        <time>2014-05-01T06:37:46Z</time>
      </trkpt>
      <trkpt lat="43.68168" lon="6.96979">
        <ele>434.1726074</ele>
        <time>2014-05-01T06:37:48Z</time>
      </trkpt>
      <trkpt lat="43.68191" lon="6.96942">
        <ele>439.9404297</ele>
        <time>2014-05-01T06:38:13Z</time>
      </trkpt>
      <trkpt lat="43.68215" lon="6.96902">
        <ele>443.7857666</ele>
        <time>2014-05-01T06:38:39Z</time>
      </trkpt>
      <trkpt lat="43.68234" lon="6.96864">
        <ele>444.7470703</ele>
        <time>2014-05-01T06:38:57Z</time>
      </trkpt>
      <trkpt lat="43.68249" lon="6.96821">
        <ele>447.1502686</ele>
        <time>2014-05-01T06:39:19Z</time>
      </trkpt>
      <trkpt lat="43.68255" lon="6.9681">
        <ele>449.072998</ele>
        <time>2014-05-01T06:39:27Z</time>
      </trkpt>
      <trkpt lat="43.68274" lon="6.96779">
        <ele>455.8022461</ele>
        <time>2014-05-01T06:39:50Z</time>
      </trkpt>
      <trkpt lat="43.68277" lon="6.96776">
        <ele>455.3215332</ele>
        <time>2014-05-01T06:39:52Z</time>
      </trkpt>
      <trkpt lat="43.68281" lon="6.96772">
        <ele>454.3602295</ele>
        <time>2014-05-01T06:39:56Z</time>
      </trkpt>
      <trkpt lat="43.68299" lon="6.96746">
        <ele>458.6861572</ele>
        <time>2014-05-01T06:40:12Z</time>
      </trkpt>
      <trkpt lat="43.68309" lon="6.96712">
        <ele>463.4927979</ele>
        <time>2014-05-01T06:40:31Z</time>
      </trkpt>
      <trkpt lat="43.68328" lon="6.96679">
        <ele>469.741333</ele>
        <time>2014-05-01T06:40:54Z</time>
      </trkpt>
      <trkpt lat="43.68334" lon="6.96679">
        <ele>470.7026367</ele>
        <time>2014-05-01T06:40:58Z</time>
      </trkpt>
      <trkpt lat="43.68339" lon="6.9669">
        <ele>473.1060791</ele>
        <time>2014-05-01T06:41:05Z</time>
      </trkpt>
      <trkpt lat="43.6836" lon="6.96723">
        <ele>479.835083</ele>
        <time>2014-05-01T06:41:29Z</time>
      </trkpt>
      <trkpt lat="43.68362" lon="6.96723">
        <ele>480.315918</ele>
        <time>2014-05-01T06:41:30Z</time>
      </trkpt>
      <trkpt lat="43.68369" lon="6.96697">
        <ele>486.0837402</ele>
        <time>2014-05-01T06:41:47Z</time>
      </trkpt>
      <trkpt lat="43.68379" lon="6.96674">
        <ele>489.4483643</ele>
        <time>2014-05-01T06:42:02Z</time>
      </trkpt>
      <trkpt lat="43.68388" lon="6.96668">
        <ele>490.8903809</ele>
        <time>2014-05-01T06:42:10Z</time>
      </trkpt>
      <trkpt lat="43.68396" lon="6.96693">
        <ele>494.7355957</ele>
        <time>2014-05-01T06:42:27Z</time>
      </trkpt>
      <trkpt lat="43.68396" lon="6.96697">
        <ele>494.7355957</ele>
        <time>2014-05-01T06:42:29Z</time>
      </trkpt>
      <trkpt lat="43.68403" lon="6.96689">
        <ele>496.1777344</ele>
        <time>2014-05-01T06:42:39Z</time>
      </trkpt>
      <trkpt lat="43.68416" lon="6.96651">
        <ele>500.9841309</ele>
        <time>2014-05-01T06:43:01Z</time>
      </trkpt>
      <trkpt lat="43.68419" lon="6.96646">
        <ele>502.4261475</ele>
        <time>2014-05-01T06:43:05Z</time>
      </trkpt>
      <trkpt lat="43.68421" lon="6.96644">
        <ele>502.4261475</ele>
        <time>2014-05-01T06:43:07Z</time>
      </trkpt>
      <trkpt lat="43.68434" lon="6.96645">
        <ele>506.2714844</ele>
        <time>2014-05-01T06:43:18Z</time>
      </trkpt>
      <trkpt lat="43.68449" lon="6.96631">
        <ele>511.0780029</ele>
        <time>2014-05-01T06:43:33Z</time>
      </trkpt>
      <trkpt lat="43.68451" lon="6.96626">
        <ele>512.0394287</ele>
        <time>2014-05-01T06:43:37Z</time>
      </trkpt>
      <trkpt lat="43.68463" lon="6.96583">
        <ele>515.4040527</ele>
        <time>2014-05-01T06:44:01Z</time>
      </trkpt>
      <trkpt lat="43.68482" lon="6.96543">
        <ele>520.2105713</ele>
        <time>2014-05-01T06:44:28Z</time>
      </trkpt>
      <trkpt lat="43.68484" lon="6.96539">
        <ele>521.1719971</ele>
        <time>2014-05-01T06:44:31Z</time>
      </trkpt>
      <trkpt lat="43.68497" lon="6.96502">
        <ele>528.8625488</ele>
        <time>2014-05-01T06:44:55Z</time>
      </trkpt>
      <trkpt lat="43.68511" lon="6.96474">
        <ele>531.2657471</ele>
        <time>2014-05-01T06:45:16Z</time>
      </trkpt>
      <trkpt lat="43.68534" lon="6.96432">
        <ele>537.9949951</ele>
        <time>2014-05-01T06:45:47Z</time>
      </trkpt>
      <trkpt lat="43.68549" lon="6.96385">
        <ele>544.7242432</ele>
        <time>2014-05-01T06:46:13Z</time>
      </trkpt>
      <trkpt lat="43.6857" lon="6.96341">
        <ele>547.6081543</ele>
        <time>2014-05-01T06:46:34Z</time>
      </trkpt>
      <trkpt lat="43.68579" lon="6.96296">
        <ele>550.0114746</ele>
        <time>2014-05-01T06:46:52Z</time>
      </trkpt>
      <trkpt lat="43.68583" lon="6.9626">
        <ele>555.298584</ele>
        <time>2014-05-01T06:47:10Z</time>
      </trkpt>
      <trkpt lat="43.68593" lon="6.96228">
        <ele>559.6247559</ele>
        <time>2014-05-01T06:47:27Z</time>
      </trkpt>
      <trkpt lat="43.68607" lon="6.96198">
        <ele>563.4699707</ele>
        <time>2014-05-01T06:47:45Z</time>
      </trkpt>
      <trkpt lat="43.68616" lon="6.96164">
        <ele>567.3151855</ele>
        <time>2014-05-01T06:48:03Z</time>
      </trkpt>
      <trkpt lat="43.68625" lon="6.96132">
        <ele>570.1989746</ele>
        <time>2014-05-01T06:48:21Z</time>
      </trkpt>
      <trkpt lat="43.6863" lon="6.9611">
        <ele>571.1604004</ele>
        <time>2014-05-01T06:48:34Z</time>
      </trkpt>
      <trkpt lat="43.68636" lon="6.96078">
        <ele>576.9284668</ele>
        <time>2014-05-01T06:48:53Z</time>
      </trkpt>
      <trkpt lat="43.68637" lon="6.96042">
        <ele>582.2155762</ele>
        <time>2014-05-01T06:49:11Z</time>
      </trkpt>
      <trkpt lat="43.68641" lon="6.95998">
        <ele>587.5026855</ele>
        <time>2014-05-01T06:49:34Z</time>
      </trkpt>
      <trkpt lat="43.68655" lon="6.95986">
        <ele>591.8288574</ele>
        <time>2014-05-01T06:49:48Z</time>
      </trkpt>
      <trkpt lat="43.68681" lon="6.95961">
        <ele>594.7126465</ele>
        <time>2014-05-01T06:50:09Z</time>
      </trkpt>
      <trkpt lat="43.68728" lon="6.95947">
        <ele>598.0773926</ele>
        <time>2014-05-01T06:50:36Z</time>
      </trkpt>
      <trkpt lat="43.6874" lon="6.95945">
        <ele>599.5192871</ele>
        <time>2014-05-01T06:50:45Z</time>
      </trkpt>
      <trkpt lat="43.6874" lon="6.95942">
        <ele>598.5578613</ele>
        <time>2014-05-01T06:50:56Z</time>
      </trkpt>
      <trkpt lat="43.68739" lon="6.95938">
        <ele>599.0385742</ele>
        <time>2014-05-01T06:50:59Z</time>
      </trkpt>
      <trkpt lat="43.68739" lon="6.95934">
        <ele>598.5578613</ele>
        <time>2014-05-01T06:51:01Z</time>
      </trkpt>
      <trkpt lat="43.68737" lon="6.95932">
        <ele>598.5578613</ele>
        <time>2014-05-01T06:51:03Z</time>
      </trkpt>
      <trkpt lat="43.68732" lon="6.95921">
        <ele>598.5578613</ele>
        <time>2014-05-01T06:51:12Z</time>
      </trkpt>
      <trkpt lat="43.68735" lon="6.95928">
        <ele>597.5966797</ele>
        <time>2014-05-01T06:51:22Z</time>
      </trkpt>
      <trkpt lat="43.68735" lon="6.9593">
        <ele>597.5966797</ele>
        <time>2014-05-01T06:51:23Z</time>
      </trkpt>
      <trkpt lat="43.68736" lon="6.95938">
        <ele>597.1159668</ele>
        <time>2014-05-01T06:51:27Z</time>
      </trkpt>
      <trkpt lat="43.6874" lon="6.95929">
        <ele>598.0773926</ele>
        <time>2014-05-01T06:51:35Z</time>
      </trkpt>
      <trkpt lat="43.68752" lon="6.95899">
        <ele>599.5192871</ele>
        <time>2014-05-01T06:51:49Z</time>
      </trkpt>
      <trkpt lat="43.68769" lon="6.95873">
        <ele>601.9226074</ele>
        <time>2014-05-01T06:52:03Z</time>
      </trkpt>
      <trkpt lat="43.68778" lon="6.95831">
        <ele>604.3261719</ele>
        <time>2014-05-01T06:52:20Z</time>
      </trkpt>
      <trkpt lat="43.68791" lon="6.95795">
        <ele>604.8066406</ele>
        <time>2014-05-01T06:52:35Z</time>
      </trkpt>
      <trkpt lat="43.68798" lon="6.9578">
        <ele>605.2873535</ele>
        <time>2014-05-01T06:52:43Z</time>
      </trkpt>
      <trkpt lat="43.68812" lon="6.95734">
        <ele>605.7680664</ele>
        <time>2014-05-01T06:53:03Z</time>
      </trkpt>
      <trkpt lat="43.68819" lon="6.95712">
        <ele>606.2485352</ele>
        <time>2014-05-01T06:53:13Z</time>
      </trkpt>
      <trkpt lat="43.68826" lon="6.95696">
        <ele>606.729248</ele>
        <time>2014-05-01T06:53:21Z</time>
      </trkpt>
      <trkpt lat="43.68835" lon="6.95667">
        <ele>609.6132813</ele>
        <time>2014-05-01T06:53:36Z</time>
      </trkpt>
      <trkpt lat="43.68842" lon="6.95641">
        <ele>612.9777832</ele>
        <time>2014-05-01T06:53:49Z</time>
      </trkpt>
      <trkpt lat="43.68842" lon="6.9564">
        <ele>613.4584961</ele>
        <time>2014-05-01T06:53:56Z</time>
      </trkpt>
      <trkpt lat="43.68847" lon="6.95626">
        <ele>616.3422852</ele>
        <time>2014-05-01T06:54:13Z</time>
      </trkpt>
      <trkpt lat="43.6885" lon="6.95612">
        <ele>617.7841797</ele>
        <time>2014-05-01T06:54:30Z</time>
      </trkpt>
      <trkpt lat="43.68855" lon="6.95597">
        <ele>618.7456055</ele>
        <time>2014-05-01T06:54:45Z</time>
      </trkpt>
      <trkpt lat="43.68861" lon="6.95584">
        <ele>620.1877441</ele>
        <time>2014-05-01T06:54:56Z</time>
      </trkpt>
      <trkpt lat="43.68865" lon="6.95569">
        <ele>621.6296387</ele>
        <time>2014-05-01T06:55:09Z</time>
      </trkpt>
      <trkpt lat="43.68865" lon="6.95568">
        <ele>621.1491699</ele>
        <time>2014-05-01T06:55:10Z</time>
      </trkpt>
      <trkpt lat="43.68871" lon="6.95551">
        <ele>623.5524902</ele>
        <time>2014-05-01T06:55:27Z</time>
      </trkpt>
      <trkpt lat="43.68877" lon="6.95537">
        <ele>624.5136719</ele>
        <time>2014-05-01T06:55:42Z</time>
      </trkpt>
      <trkpt lat="43.68885" lon="6.9551">
        <ele>626.4362793</ele>
        <time>2014-05-01T06:56:02Z</time>
      </trkpt>
      <trkpt lat="43.68893" lon="6.95486">
        <ele>628.8395996</ele>
        <time>2014-05-01T06:56:21Z</time>
      </trkpt>
      <trkpt lat="43.68902" lon="6.95463">
        <ele>630.2814941</ele>
        <time>2014-05-01T06:56:41Z</time>
      </trkpt>
      <trkpt lat="43.68906" lon="6.95438">
        <ele>633.1652832</ele>
        <time>2014-05-01T06:57:04Z</time>
      </trkpt>
      <trkpt lat="43.68911" lon="6.95416">
        <ele>636.0495605</ele>
        <time>2014-05-01T06:57:24Z</time>
      </trkpt>
      <trkpt lat="43.68912" lon="6.95399">
        <ele>638.9335938</ele>
        <time>2014-05-01T06:57:38Z</time>
      </trkpt>
      <trkpt lat="43.68914" lon="6.95381">
        <ele>641.3366699</ele>
        <time>2014-05-01T06:57:55Z</time>
      </trkpt>
      <trkpt lat="43.68915" lon="6.95365">
        <ele>643.7399902</ele>
        <time>2014-05-01T06:58:11Z</time>
      </trkpt>
      <trkpt lat="43.68922" lon="6.95347">
        <ele>646.6240234</ele>
        <time>2014-05-01T06:58:29Z</time>
      </trkpt>
      <trkpt lat="43.68927" lon="6.95333">
        <ele>649.5078125</ele>
        <time>2014-05-01T06:58:46Z</time>
      </trkpt>
      <trkpt lat="43.68932" lon="6.95316">
        <ele>652.8725586</ele>
        <time>2014-05-01T06:59:04Z</time>
      </trkpt>
      <trkpt lat="43.68934" lon="6.95305">
        <ele>654.3146973</ele>
        <time>2014-05-01T06:59:19Z</time>
      </trkpt>
      <trkpt lat="43.68938" lon="6.95295">
        <ele>655.7565918</ele>
        <time>2014-05-01T06:59:33Z</time>
      </trkpt>
      <trkpt lat="43.68939" lon="6.95292">
        <ele>656.2370605</ele>
        <time>2014-05-01T06:59:48Z</time>
      </trkpt>
      <trkpt lat="43.68939" lon="6.95287">
        <ele>657.1984863</ele>
        <time>2014-05-01T07:00:33Z</time>
      </trkpt>
      <trkpt lat="43.68947" lon="6.95274">
        <ele>661.0437012</ele>
        <time>2014-05-01T07:00:50Z</time>
      </trkpt>
      <trkpt lat="43.68944" lon="6.95266">
        <ele>662.9663086</ele>
        <time>2014-05-01T07:01:04Z</time>
      </trkpt>
      <trkpt lat="43.68943" lon="6.95264">
        <ele>664.4082031</ele>
        <time>2014-05-01T07:01:07Z</time>
      </trkpt>
      <trkpt lat="43.68943" lon="6.95242">
        <ele>667.2922363</ele>
        <time>2014-05-01T07:01:24Z</time>
      </trkpt>
      <trkpt lat="43.68943" lon="6.95241">
        <ele>667.2922363</ele>
        <time>2014-05-01T07:01:25Z</time>
      </trkpt>
      <trkpt lat="43.68944" lon="6.95234">
        <ele>667.7727051</ele>
        <time>2014-05-01T07:01:29Z</time>
      </trkpt>
      <trkpt lat="43.6895" lon="6.95213">
        <ele>671.1376953</ele>
        <time>2014-05-01T07:01:47Z</time>
      </trkpt>
      <trkpt lat="43.68951" lon="6.95199">
        <ele>673.5410156</ele>
        <time>2014-05-01T07:02:02Z</time>
      </trkpt>
      <trkpt lat="43.68957" lon="6.95179">
        <ele>675.9440918</ele>
        <time>2014-05-01T07:02:24Z</time>
      </trkpt>
      <trkpt lat="43.68958" lon="6.95164">
        <ele>678.828125</ele>
        <time>2014-05-01T07:02:41Z</time>
      </trkpt>
      <trkpt lat="43.68957" lon="6.95147">
        <ele>681.2314453</ele>
        <time>2014-05-01T07:02:57Z</time>
      </trkpt>
      <trkpt lat="43.6896" lon="6.95131">
        <ele>684.5961914</ele>
        <time>2014-05-01T07:03:13Z</time>
      </trkpt>
      <trkpt lat="43.68961" lon="6.95124">
        <ele>685.0769043</ele>
        <time>2014-05-01T07:03:21Z</time>
      </trkpt>
      <trkpt lat="43.68962" lon="6.95107">
        <ele>685.557373</ele>
        <time>2014-05-01T07:03:38Z</time>
      </trkpt>
      <trkpt lat="43.68964" lon="6.95096">
        <ele>686.5187988</ele>
        <time>2014-05-01T07:03:49Z</time>
      </trkpt>
      <trkpt lat="43.68964" lon="6.95087">
        <ele>686.9992676</ele>
        <time>2014-05-01T07:03:53Z</time>
      </trkpt>
      <trkpt lat="43.68966" lon="6.95052">
        <ele>688.4414063</ele>
        <time>2014-05-01T07:04:09Z</time>
      </trkpt>
      <trkpt lat="43.68965" lon="6.95031">
        <ele>688.9221191</ele>
        <time>2014-05-01T07:04:18Z</time>
      </trkpt>
      <trkpt lat="43.68965" lon="6.95027">
        <ele>688.9221191</ele>
        <time>2014-05-01T07:04:20Z</time>
      </trkpt>
      <trkpt lat="43.68964" lon="6.95022">
        <ele>689.8833008</ele>
        <time>2014-05-01T07:04:22Z</time>
      </trkpt>
      <trkpt lat="43.68961" lon="6.94993">
        <ele>691.8059082</ele>
        <time>2014-05-01T07:04:38Z</time>
      </trkpt>
      <trkpt lat="43.68957" lon="6.9497">
        <ele>693.7285156</ele>
        <time>2014-05-01T07:04:51Z</time>
      </trkpt>
      <trkpt lat="43.68955" lon="6.94959">
        <ele>694.6896973</ele>
        <time>2014-05-01T07:05:07Z</time>
      </trkpt>
      <trkpt lat="43.68955" lon="6.94943">
        <ele>695.651123</ele>
        <time>2014-05-01T07:05:19Z</time>
      </trkpt>
      <trkpt lat="43.68953" lon="6.94929">
        <ele>698.0544434</ele>
        <time>2014-05-01T07:05:28Z</time>
      </trkpt>
      <trkpt lat="43.68951" lon="6.94909">
        <ele>699.015625</ele>
        <time>2014-05-01T07:05:41Z</time>
      </trkpt>
      <trkpt lat="43.68948" lon="6.94888">
        <ele>700.9384766</ele>
        <time>2014-05-01T07:05:52Z</time>
      </trkpt>
      <trkpt lat="43.68945" lon="6.94856">
        <ele>703.3417969</ele>
        <time>2014-05-01T07:06:08Z</time>
      </trkpt>
      <trkpt lat="43.68945" lon="6.94841">
        <ele>706.2255859</ele>
        <time>2014-05-01T07:06:21Z</time>
      </trkpt>
      <trkpt lat="43.68944" lon="6.94822">
        <ele>708.6289063</ele>
        <time>2014-05-01T07:06:39Z</time>
      </trkpt>
      <trkpt lat="43.68947" lon="6.94815">
        <ele>709.590332</ele>
        <time>2014-05-01T07:06:47Z</time>
      </trkpt>
      <trkpt lat="43.68955" lon="6.94799">
        <ele>710.5515137</ele>
        <time>2014-05-01T07:07:04Z</time>
      </trkpt>
      <trkpt lat="43.68961" lon="6.94789">
        <ele>711.0322266</ele>
        <time>2014-05-01T07:07:25Z</time>
      </trkpt>
      <trkpt lat="43.68972" lon="6.94775">
        <ele>713.4355469</ele>
        <time>2014-05-01T07:07:43Z</time>
      </trkpt>
      <trkpt lat="43.68981" lon="6.94767">
        <ele>716.3195801</ele>
        <time>2014-05-01T07:08:01Z</time>
      </trkpt>
      <trkpt lat="43.68992" lon="6.9477">
        <ele>720.1647949</ele>
        <time>2014-05-01T07:08:18Z</time>
      </trkpt>
      <trkpt lat="43.69003" lon="6.9477">
        <ele>723.0488281</ele>
        <time>2014-05-01T07:08:34Z</time>
      </trkpt>
      <trkpt lat="43.69012" lon="6.94769">
        <ele>725.4519043</ele>
        <time>2014-05-01T07:08:50Z</time>
      </trkpt>
      <trkpt lat="43.69022" lon="6.94772">
        <ele>726.894043</ele>
        <time>2014-05-01T07:09:05Z</time>
      </trkpt>
      <trkpt lat="43.6903" lon="6.94774">
        <ele>728.3359375</ele>
        <time>2014-05-01T07:09:20Z</time>
      </trkpt>
      <trkpt lat="43.69032" lon="6.94771">
        <ele>728.3359375</ele>
        <time>2014-05-01T07:09:24Z</time>
      </trkpt>
      <trkpt lat="43.69033" lon="6.94759">
        <ele>729.777832</ele>
        <time>2014-05-01T07:09:34Z</time>
      </trkpt>
      <trkpt lat="43.69036" lon="6.94738">
        <ele>732.6621094</ele>
        <time>2014-05-01T07:09:50Z</time>
      </trkpt>
      <trkpt lat="43.69046" lon="6.94718">
        <ele>734.5847168</ele>
        <time>2014-05-01T07:10:09Z</time>
      </trkpt>
      <trkpt lat="43.6905" lon="6.94708">
        <ele>734.5847168</ele>
        <time>2014-05-01T07:10:26Z</time>
      </trkpt>
      <trkpt lat="43.69054" lon="6.94698">
        <ele>736.0266113</ele>
        <time>2014-05-01T07:11:25Z</time>
      </trkpt>
      <trkpt lat="43.6906" lon="6.94686">
        <ele>737.4685059</ele>
        <time>2014-05-01T07:11:44Z</time>
      </trkpt>
      <trkpt lat="43.69064" lon="6.9469">
        <ele>739.8718262</ele>
        <time>2014-05-01T07:11:53Z</time>
      </trkpt>
      <trkpt lat="43.69065" lon="6.94697">
        <ele>740.8330078</ele>
        <time>2014-05-01T07:11:59Z</time>
      </trkpt>
      <trkpt lat="43.69069" lon="6.94709">
        <ele>740.8330078</ele>
        <time>2014-05-01T07:12:10Z</time>
      </trkpt>
      <trkpt lat="43.6908" lon="6.9473">
        <ele>741.3137207</ele>
        <time>2014-05-01T07:12:29Z</time>
      </trkpt>
      <trkpt lat="43.69095" lon="6.94738">
        <ele>743.717041</ele>
        <time>2014-05-01T07:12:47Z</time>
      </trkpt>
      <trkpt lat="43.69107" lon="6.9475">
        <ele>745.6396484</ele>
        <time>2014-05-01T07:13:04Z</time>
      </trkpt>
      <trkpt lat="43.69124" lon="6.94763">
        <ele>748.5236816</ele>
        <time>2014-05-01T07:13:26Z</time>
      </trkpt>
      <trkpt lat="43.6914" lon="6.94775">
        <ele>750.4465332</ele>
        <time>2014-05-01T07:13:45Z</time>
      </trkpt>
      <trkpt lat="43.69156" lon="6.94787">
        <ele>751.8884277</ele>
        <time>2014-05-01T07:14:04Z</time>
      </trkpt>
      <trkpt lat="43.69157" lon="6.94788">
        <ele>751.8884277</ele>
        <time>2014-05-01T07:14:05Z</time>
      </trkpt>
      <trkpt lat="43.69166" lon="6.94787">
        <ele>752.3688965</ele>
        <time>2014-05-01T07:14:17Z</time>
      </trkpt>
      <trkpt lat="43.69173" lon="6.94786">
        <ele>753.3303223</ele>
        <time>2014-05-01T07:14:35Z</time>
      </trkpt>
      <trkpt lat="43.69185" lon="6.94781">
        <ele>755.2529297</ele>
        <time>2014-05-01T07:14:53Z</time>
      </trkpt>
      <trkpt lat="43.69191" lon="6.94765">
        <ele>757.1755371</ele>
        <time>2014-05-01T07:15:09Z</time>
      </trkpt>
      <trkpt lat="43.69193" lon="6.94753">
        <ele>758.1369629</ele>
        <time>2014-05-01T07:15:20Z</time>
      </trkpt>
      <trkpt lat="43.69205" lon="6.94725">
        <ele>760.0593262</ele>
        <time>2014-05-01T07:15:43Z</time>
      </trkpt>
      <trkpt lat="43.69206" lon="6.94719">
        <ele>761.5014648</ele>
        <time>2014-05-01T07:15:57Z</time>
      </trkpt>
      <trkpt lat="43.69207" lon="6.94718">
        <ele>761.5014648</ele>
        <time>2014-05-01T07:15:58Z</time>
      </trkpt>
      <trkpt lat="43.69213" lon="6.94702">
        <ele>762.4626465</ele>
        <time>2014-05-01T07:16:16Z</time>
      </trkpt>
      <trkpt lat="43.69214" lon="6.94696">
        <ele>764.385498</ele>
        <time>2014-05-01T07:16:30Z</time>
      </trkpt>
      <trkpt lat="43.69216" lon="6.94684">
        <ele>767.2695313</ele>
        <time>2014-05-01T07:16:47Z</time>
      </trkpt>
      <trkpt lat="43.69217" lon="6.94668">
        <ele>771.5952148</ele>
        <time>2014-05-01T07:17:04Z</time>
      </trkpt>
      <trkpt lat="43.69219" lon="6.94664">
        <ele>772.0759277</ele>
        <time>2014-05-01T07:17:07Z</time>
      </trkpt>
      <trkpt lat="43.6922" lon="6.94652">
        <ele>772.0759277</ele>
        <time>2014-05-01T07:17:20Z</time>
      </trkpt>
      <trkpt lat="43.69223" lon="6.94635">
        <ele>773.9985352</ele>
        <time>2014-05-01T07:17:35Z</time>
      </trkpt>
      <trkpt lat="43.69225" lon="6.94619">
        <ele>776.8825684</ele>
        <time>2014-05-01T07:17:51Z</time>
      </trkpt>
      <trkpt lat="43.69227" lon="6.94606">
        <ele>779.2856445</ele>
        <time>2014-05-01T07:18:05Z</time>
      </trkpt>
      <trkpt lat="43.69231" lon="6.94584">
        <ele>781.2087402</ele>
        <time>2014-05-01T07:18:25Z</time>
      </trkpt>
      <trkpt lat="43.69236" lon="6.94567">
        <ele>783.6118164</ele>
        <time>2014-05-01T07:18:42Z</time>
      </trkpt>
      <trkpt lat="43.69241" lon="6.94548">
        <ele>785.5344238</ele>
        <time>2014-05-01T07:19:02Z</time>
      </trkpt>
      <trkpt lat="43.69247" lon="6.9453">
        <ele>787.4570313</ele>
        <time>2014-05-01T07:19:22Z</time>
      </trkpt>
      <trkpt lat="43.69248" lon="6.94526">
        <ele>788.418457</ele>
        <time>2014-05-01T07:19:26Z</time>
      </trkpt>
      <trkpt lat="43.69256" lon="6.94503">
        <ele>788.8991699</ele>
        <time>2014-05-01T07:19:47Z</time>
      </trkpt>
      <trkpt lat="43.69264" lon="6.94483">
        <ele>790.3410645</ele>
        <time>2014-05-01T07:20:07Z</time>
      </trkpt>
      <trkpt lat="43.69269" lon="6.94469">
        <ele>792.2636719</ele>
        <time>2014-05-01T07:20:23Z</time>
      </trkpt>
      <trkpt lat="43.69273" lon="6.94456">
        <ele>793.7055664</ele>
        <time>2014-05-01T07:20:38Z</time>
      </trkpt>
      <trkpt lat="43.69277" lon="6.94442">
        <ele>796.5898438</ele>
        <time>2014-05-01T07:20:56Z</time>
      </trkpt>
      <trkpt lat="43.69278" lon="6.94429">
        <ele>798.512207</ele>
        <time>2014-05-01T07:21:10Z</time>
      </trkpt>
      <trkpt lat="43.69277" lon="6.94417">
        <ele>799.9543457</ele>
        <time>2014-05-01T07:21:23Z</time>
      </trkpt>
      <trkpt lat="43.69279" lon="6.94406">
        <ele>800.4350586</ele>
        <time>2014-05-01T07:21:37Z</time>
      </trkpt>
      <trkpt lat="43.6928" lon="6.94395">
        <ele>802.3574219</ele>
        <time>2014-05-01T07:21:52Z</time>
      </trkpt>
      <trkpt lat="43.69279" lon="6.94383">
        <ele>804.7607422</ele>
        <time>2014-05-01T07:22:08Z</time>
      </trkpt>
      <trkpt lat="43.69279" lon="6.94368">
        <ele>806.6833496</ele>
        <time>2014-05-01T07:22:23Z</time>
      </trkpt>
      <trkpt lat="43.69279" lon="6.94352">
        <ele>808.605957</ele>
        <time>2014-05-01T07:22:40Z</time>
      </trkpt>
      <trkpt lat="43.69279" lon="6.94335">
        <ele>811.4899902</ele>
        <time>2014-05-01T07:22:58Z</time>
      </trkpt>
      <trkpt lat="43.69279" lon="6.94325">
        <ele>812.451416</ele>
        <time>2014-05-01T07:23:10Z</time>
      </trkpt>
      <trkpt lat="43.69279" lon="6.94313">
        <ele>812.451416</ele>
        <time>2014-05-01T07:23:22Z</time>
      </trkpt>
      <trkpt lat="43.69279" lon="6.94302">
        <ele>814.3740234</ele>
        <time>2014-05-01T07:23:37Z</time>
      </trkpt>
      <trkpt lat="43.69279" lon="6.94301">
        <ele>815.3354492</ele>
        <time>2014-05-01T07:24:02Z</time>
      </trkpt>
      <trkpt lat="43.69279" lon="6.94288">
        <ele>817.2580566</ele>
        <time>2014-05-01T07:24:18Z</time>
      </trkpt>
      <trkpt lat="43.6928" lon="6.94275">
        <ele>819.661377</ele>
        <time>2014-05-01T07:24:32Z</time>
      </trkpt>
      <trkpt lat="43.69279" lon="6.94259">
        <ele>822.0644531</ele>
        <time>2014-05-01T07:24:49Z</time>
      </trkpt>
      <trkpt lat="43.69275" lon="6.94248">
        <ele>823.9870605</ele>
        <time>2014-05-01T07:25:05Z</time>
      </trkpt>
      <trkpt lat="43.69272" lon="6.94232">
        <ele>825.4289551</ele>
        <time>2014-05-01T07:25:22Z</time>
      </trkpt>
      <trkpt lat="43.6927" lon="6.94228">
        <ele>825.909668</ele>
        <time>2014-05-01T07:25:26Z</time>
      </trkpt>
      <trkpt lat="43.69263" lon="6.94204">
        <ele>827.8322754</ele>
        <time>2014-05-01T07:25:48Z</time>
      </trkpt>
      <trkpt lat="43.69257" lon="6.94187">
        <ele>829.755127</ele>
        <time>2014-05-01T07:26:05Z</time>
      </trkpt>
      <trkpt lat="43.69254" lon="6.94178">
        <ele>831.1972656</ele>
        <time>2014-05-01T07:26:13Z</time>
      </trkpt>
      <trkpt lat="43.69252" lon="6.94171">
        <ele>832.1584473</ele>
        <time>2014-05-01T07:26:22Z</time>
      </trkpt>
      <trkpt lat="43.69249" lon="6.94159">
        <ele>833.6003418</ele>
        <time>2014-05-01T07:26:33Z</time>
      </trkpt>
      <trkpt lat="43.69247" lon="6.94133">
        <ele>832.6391602</ele>
        <time>2014-05-01T07:26:53Z</time>
      </trkpt>
      <trkpt lat="43.69246" lon="6.94115">
        <ele>835.0424805</ele>
        <time>2014-05-01T07:27:12Z</time>
      </trkpt>
      <trkpt lat="43.69244" lon="6.94105">
        <ele>836.9648438</ele>
        <time>2014-05-01T07:27:30Z</time>
      </trkpt>
      <trkpt lat="43.69244" lon="6.94081">
        <ele>838.4069824</ele>
        <time>2014-05-01T07:27:52Z</time>
      </trkpt>
      <trkpt lat="43.69244" lon="6.94065">
        <ele>840.3295898</ele>
        <time>2014-05-01T07:28:09Z</time>
      </trkpt>
      <trkpt lat="43.69248" lon="6.94056">
        <ele>842.7329102</ele>
        <time>2014-05-01T07:28:22Z</time>
      </trkpt>
      <trkpt lat="43.69258" lon="6.9405">
        <ele>846.5783691</ele>
        <time>2014-05-01T07:28:37Z</time>
      </trkpt>
      <trkpt lat="43.6926" lon="6.94049">
        <ele>848.0202637</ele>
        <time>2014-05-01T07:28:42Z</time>
      </trkpt>
      <trkpt lat="43.69267" lon="6.94051">
        <ele>849.9428711</ele>
        <time>2014-05-01T07:28:51Z</time>
      </trkpt>
      <trkpt lat="43.6928" lon="6.94055">
        <ele>852.3459473</ele>
        <time>2014-05-01T07:29:07Z</time>
      </trkpt>
      <trkpt lat="43.69288" lon="6.94061">
        <ele>852.3459473</ele>
        <time>2014-05-01T07:29:17Z</time>
      </trkpt>
      <trkpt lat="43.69303" lon="6.94052">
        <ele>855.2299805</ele>
        <time>2014-05-01T07:29:35Z</time>
      </trkpt>
      <trkpt lat="43.69314" lon="6.94044">
        <ele>858.1140137</ele>
        <time>2014-05-01T07:29:48Z</time>
      </trkpt>
      <trkpt lat="43.6933" lon="6.94031">
        <ele>860.0366211</ele>
        <time>2014-05-01T07:30:08Z</time>
      </trkpt>
      <trkpt lat="43.6933" lon="6.94021">
        <ele>862.4399414</ele>
        <time>2014-05-01T07:30:24Z</time>
      </trkpt>
      <trkpt lat="43.69327" lon="6.94014">
        <ele>862.4399414</ele>
        <time>2014-05-01T07:30:31Z</time>
      </trkpt>
      <trkpt lat="43.69321" lon="6.9399">
        <ele>863.8818359</ele>
        <time>2014-05-01T07:30:51Z</time>
      </trkpt>
      <trkpt lat="43.69323" lon="6.93963">
        <ele>864.8432617</ele>
        <time>2014-05-01T07:31:11Z</time>
      </trkpt>
      <trkpt lat="43.69325" lon="6.93957">
        <ele>861.9594727</ele>
        <time>2014-05-01T07:31:25Z</time>
      </trkpt>
      <trkpt lat="43.69347" lon="6.93925">
        <ele>862.9206543</ele>
        <time>2014-05-01T07:31:47Z</time>
      </trkpt>
      <trkpt lat="43.69365" lon="6.93895">
        <ele>865.8046875</ele>
        <time>2014-05-01T07:32:06Z</time>
      </trkpt>
      <trkpt lat="43.69373" lon="6.93884">
        <ele>867.7270508</ele>
        <time>2014-05-01T07:32:14Z</time>
      </trkpt>
      <trkpt lat="43.69377" lon="6.93879">
        <ele>868.6884766</ele>
        <time>2014-05-01T07:32:31Z</time>
      </trkpt>
      <trkpt lat="43.69383" lon="6.93872">
        <ele>869.6499023</ele>
        <time>2014-05-01T07:32:37Z</time>
      </trkpt>
      <trkpt lat="43.69396" lon="6.93857">
        <ele>872.0529785</ele>
        <time>2014-05-01T07:32:53Z</time>
      </trkpt>
      <trkpt lat="43.69404" lon="6.93846">
        <ele>873.4951172</ele>
        <time>2014-05-01T07:33:04Z</time>
      </trkpt>
      <trkpt lat="43.69406" lon="6.93844">
        <ele>873.9755859</ele>
        <time>2014-05-01T07:33:07Z</time>
      </trkpt>
      <trkpt lat="43.69413" lon="6.93838">
        <ele>874.4562988</ele>
        <time>2014-05-01T07:33:22Z</time>
      </trkpt>
      <trkpt lat="43.69433" lon="6.93816">
        <ele>875.8981934</ele>
        <time>2014-05-01T07:33:35Z</time>
      </trkpt>
      <trkpt lat="43.6946" lon="6.93782">
        <ele>875.8981934</ele>
        <time>2014-05-01T07:33:51Z</time>
      </trkpt>
      <trkpt lat="43.69476" lon="6.93743">
        <ele>877.3405762</ele>
        <time>2014-05-01T07:34:06Z</time>
      </trkpt>
      <trkpt lat="43.69477" lon="6.9374">
        <ele>877.8210449</ele>
        <time>2014-05-01T07:34:07Z</time>
      </trkpt>
      <trkpt lat="43.69476" lon="6.93727">
        <ele>877.8210449</ele>
        <time>2014-05-01T07:34:11Z</time>
      </trkpt>
      <trkpt lat="43.69473" lon="6.9367">
        <ele>880.7050781</ele>
        <time>2014-05-01T07:34:31Z</time>
      </trkpt>
      <trkpt lat="43.6946" lon="6.93635">
        <ele>883.5888672</ele>
        <time>2014-05-01T07:34:49Z</time>
      </trkpt>
      <trkpt lat="43.69446" lon="6.93627">
        <ele>886.9533691</ele>
        <time>2014-05-01T07:35:01Z</time>
      </trkpt>
      <trkpt lat="43.69438" lon="6.93611">
        <ele>890.3181152</ele>
        <time>2014-05-01T07:35:14Z</time>
      </trkpt>
      <trkpt lat="43.69437" lon="6.93608">
        <ele>889.8374023</ele>
        <time>2014-05-01T07:35:21Z</time>
      </trkpt>
      <trkpt lat="43.69437" lon="6.93581">
        <ele>891.7600098</ele>
        <time>2014-05-01T07:35:37Z</time>
      </trkpt>
      <trkpt lat="43.69439" lon="6.93579">
        <ele>891.7600098</ele>
        <time>2014-05-01T07:35:47Z</time>
      </trkpt>
      <trkpt lat="43.69449" lon="6.93583">
        <ele>894.1635742</ele>
        <time>2014-05-01T07:35:58Z</time>
      </trkpt>
      <trkpt lat="43.69458" lon="6.93583">
        <ele>895.1247559</ele>
        <time>2014-05-01T07:36:05Z</time>
      </trkpt>
      <trkpt lat="43.69471" lon="6.93589">
        <ele>896.0861816</ele>
        <time>2014-05-01T07:36:13Z</time>
      </trkpt>
      <trkpt lat="43.69479" lon="6.93587">
        <ele>897.0473633</ele>
        <time>2014-05-01T07:36:26Z</time>
      </trkpt>
      <trkpt lat="43.69482" lon="6.93585">
        <ele>898.4892578</ele>
        <time>2014-05-01T07:36:39Z</time>
      </trkpt>
      <trkpt lat="43.69485" lon="6.93581">
        <ele>899.9313965</ele>
        <time>2014-05-01T07:36:49Z</time>
      </trkpt>
      <trkpt lat="43.69492" lon="6.93576">
        <ele>902.3344727</ele>
        <time>2014-05-01T07:37:05Z</time>
      </trkpt>
      <trkpt lat="43.69491" lon="6.9357">
        <ele>902.8151855</ele>
        <time>2014-05-01T07:37:10Z</time>
      </trkpt>
      <trkpt lat="43.6949" lon="6.93551">
        <ele>905.2185059</ele>
        <time>2014-05-01T07:37:28Z</time>
      </trkpt>
      <trkpt lat="43.69487" lon="6.93541">
        <ele>906.1796875</ele>
        <time>2014-05-01T07:37:36Z</time>
      </trkpt>
      <trkpt lat="43.69487" lon="6.93537">
        <ele>906.1796875</ele>
        <time>2014-05-01T07:37:39Z</time>
      </trkpt>
      <trkpt lat="43.69488" lon="6.93527">
        <ele>905.2185059</ele>
        <time>2014-05-01T07:37:55Z</time>
      </trkpt>
      <trkpt lat="43.69489" lon="6.93503">
        <ele>907.1411133</ele>
        <time>2014-05-01T07:38:07Z</time>
      </trkpt>
      <trkpt lat="43.69496" lon="6.93467">
        <ele>909.0639648</ele>
        <time>2014-05-01T07:38:24Z</time>
      </trkpt>
      <trkpt lat="43.69505" lon="6.93441">
        <ele>910.5058594</ele>
        <time>2014-05-01T07:38:40Z</time>
      </trkpt>
      <trkpt lat="43.69511" lon="6.9342">
        <ele>912.9091797</ele>
        <time>2014-05-01T07:38:58Z</time>
      </trkpt>
      <trkpt lat="43.69512" lon="6.93419">
        <ele>912.9091797</ele>
        <time>2014-05-01T07:39:05Z</time>
      </trkpt>
      <trkpt lat="43.69514" lon="6.93413">
        <ele>913.8703613</ele>
        <time>2014-05-01T07:39:09Z</time>
      </trkpt>
      <trkpt lat="43.69526" lon="6.93377">
        <ele>917.2351074</ele>
        <time>2014-05-01T07:39:29Z</time>
      </trkpt>
      <trkpt lat="43.69539" lon="6.93342">
        <ele>921.560791</ele>
        <time>2014-05-01T07:39:51Z</time>
      </trkpt>
      <trkpt lat="43.69546" lon="6.93322">
        <ele>923.4836426</ele>
        <time>2014-05-01T07:40:04Z</time>
      </trkpt>
      <trkpt lat="43.69553" lon="6.93307">
        <ele>924.9257813</ele>
        <time>2014-05-01T07:40:20Z</time>
      </trkpt>
      <trkpt lat="43.69555" lon="6.93301">
        <ele>925.40625</ele>
        <time>2014-05-01T07:40:29Z</time>
      </trkpt>
      <trkpt lat="43.69555" lon="6.93289">
        <ele>926.8483887</ele>
        <time>2014-05-01T07:40:35Z</time>
      </trkpt>
      <trkpt lat="43.6957" lon="6.9325">
        <ele>931.1743164</ele>
        <time>2014-05-01T07:40:56Z</time>
      </trkpt>
      <trkpt lat="43.69581" lon="6.93215">
        <ele>933.5773926</ele>
        <time>2014-05-01T07:41:15Z</time>
      </trkpt>
      <trkpt lat="43.69596" lon="6.93174">
        <ele>935.0195313</ele>
        <time>2014-05-01T07:41:33Z</time>
      </trkpt>
      <trkpt lat="43.69597" lon="6.93171">
        <ele>935.0195313</ele>
        <time>2014-05-01T07:41:50Z</time>
      </trkpt>
      <trkpt lat="43.69597" lon="6.93171">
        <ele>935.0195313</ele>
        <time>2014-05-01T07:42:08Z</time>
      </trkpt>
      <trkpt lat="43.69598" lon="6.93168">
        <ele>935.0195313</ele>
        <time>2014-05-01T07:42:10Z</time>
      </trkpt>
      <trkpt lat="43.69607" lon="6.93164">
        <ele>935.5</ele>
        <time>2014-05-01T07:42:15Z</time>
      </trkpt>
      <trkpt lat="43.69634" lon="6.9314">
        <ele>935.9807129</ele>
        <time>2014-05-01T07:42:32Z</time>
      </trkpt>
      <trkpt lat="43.69649" lon="6.9308">
        <ele>934.5388184</ele>
        <time>2014-05-01T07:42:51Z</time>
      </trkpt>
      <trkpt lat="43.69651" lon="6.9302">
        <ele>935.5</ele>
        <time>2014-05-01T07:43:09Z</time>
      </trkpt>
      <trkpt lat="43.69649" lon="6.92969">
        <ele>934.5388184</ele>
        <time>2014-05-01T07:43:22Z</time>
      </trkpt>
      <trkpt lat="43.69642" lon="6.92911">
        <ele>935.0195313</ele>
        <time>2014-05-01T07:43:38Z</time>
      </trkpt>
      <trkpt lat="43.69648" lon="6.92857">
        <ele>932.6162109</ele>
        <time>2014-05-01T07:43:50Z</time>
      </trkpt>
      <trkpt lat="43.69651" lon="6.92763">
        <ele>931.6547852</ele>
        <time>2014-05-01T07:44:02Z</time>
      </trkpt>
      <trkpt lat="43.69652" lon="6.92754">
        <ele>931.6547852</ele>
        <time>2014-05-01T07:44:03Z</time>
      </trkpt>
      <trkpt lat="43.6965" lon="6.92697">
        <ele>931.1743164</ele>
        <time>2014-05-01T07:44:12Z</time>
      </trkpt>
      <trkpt lat="43.69667" lon="6.92648">
        <ele>935.0195313</ele>
        <time>2014-05-01T07:44:27Z</time>
      </trkpt>
      <trkpt lat="43.69675" lon="6.92605">
        <ele>936.9418945</ele>
        <time>2014-05-01T07:44:39Z</time>
      </trkpt>
      <trkpt lat="43.69691" lon="6.92547">
        <ele>937.9033203</ele>
        <time>2014-05-01T07:44:56Z</time>
      </trkpt>
      <trkpt lat="43.69697" lon="6.92492">
        <ele>935.5</ele>
        <time>2014-05-01T07:45:14Z</time>
      </trkpt>
      <trkpt lat="43.69699" lon="6.9246">
        <ele>939.8259277</ele>
        <time>2014-05-01T07:45:24Z</time>
      </trkpt>
      <trkpt lat="43.69694" lon="6.92408">
        <ele>950.4006348</ele>
        <time>2014-05-01T07:45:39Z</time>
      </trkpt>
      <trkpt lat="43.69692" lon="6.92359">
        <ele>949.9199219</ele>
        <time>2014-05-01T07:45:55Z</time>
      </trkpt>
      <trkpt lat="43.69705" lon="6.92314">
        <ele>952.322998</ele>
        <time>2014-05-01T07:46:11Z</time>
      </trkpt>
      <trkpt lat="43.69715" lon="6.92282">
        <ele>948.4777832</ele>
        <time>2014-05-01T07:46:27Z</time>
      </trkpt>
      <trkpt lat="43.69714" lon="6.92239">
        <ele>951.8425293</ele>
        <time>2014-05-01T07:46:44Z</time>
      </trkpt>
      <trkpt lat="43.69712" lon="6.92204">
        <ele>950.4006348</ele>
        <time>2014-05-01T07:46:57Z</time>
      </trkpt>
      <trkpt lat="43.69712" lon="6.92171">
        <ele>952.322998</ele>
        <time>2014-05-01T07:47:12Z</time>
      </trkpt>
      <trkpt lat="43.69721" lon="6.92124">
        <ele>954.2458496</ele>
        <time>2014-05-01T07:47:34Z</time>
      </trkpt>
      <trkpt lat="43.69721" lon="6.92102">
        <ele>955.2070313</ele>
        <time>2014-05-01T07:47:45Z</time>
      </trkpt>
      <trkpt lat="43.69723" lon="6.92077">
        <ele>959.0524902</ele>
        <time>2014-05-01T07:47:59Z</time>
      </trkpt>
      <trkpt lat="43.69725" lon="6.92065">
        <ele>960.4943848</ele>
        <time>2014-05-01T07:48:06Z</time>
      </trkpt>
      <trkpt lat="43.69727" lon="6.92042">
        <ele>965.3010254</ele>
        <time>2014-05-01T07:48:19Z</time>
      </trkpt>
      <trkpt lat="43.69728" lon="6.9203">
        <ele>966.262207</ele>
        <time>2014-05-01T07:48:37Z</time>
      </trkpt>
      <trkpt lat="43.69731" lon="6.92013">
        <ele>968.1848145</ele>
        <time>2014-05-01T07:48:47Z</time>
      </trkpt>
      <trkpt lat="43.69732" lon="6.91995">
        <ele>970.5881348</ele>
        <time>2014-05-01T07:49:02Z</time>
      </trkpt>
      <trkpt lat="43.69732" lon="6.91992">
        <ele>971.0688477</ele>
        <time>2014-05-01T07:49:06Z</time>
      </trkpt>
      <trkpt lat="43.6973" lon="6.91986">
        <ele>972.0302734</ele>
        <time>2014-05-01T07:49:10Z</time>
      </trkpt>
      <trkpt lat="43.69731" lon="6.9197">
        <ele>974.4335938</ele>
        <time>2014-05-01T07:49:20Z</time>
      </trkpt>
      <trkpt lat="43.69725" lon="6.91947">
        <ele>978.2788086</ele>
        <time>2014-05-01T07:49:35Z</time>
      </trkpt>
      <trkpt lat="43.69722" lon="6.9193">
        <ele>979.2399902</ele>
        <time>2014-05-01T07:49:46Z</time>
      </trkpt>
      <trkpt lat="43.6972" lon="6.91922">
        <ele>979.7207031</ele>
        <time>2014-05-01T07:49:50Z</time>
      </trkpt>
      <trkpt lat="43.6972" lon="6.91912">
        <ele>980.201416</ele>
        <time>2014-05-01T07:49:54Z</time>
      </trkpt>
      <trkpt lat="43.69718" lon="6.91896">
        <ele>982.1240234</ele>
        <time>2014-05-01T07:50:03Z</time>
      </trkpt>
      <trkpt lat="43.69716" lon="6.91879">
        <ele>984.0466309</ele>
        <time>2014-05-01T07:50:11Z</time>
      </trkpt>
      <trkpt lat="43.69713" lon="6.91859">
        <ele>985.9692383</ele>
        <time>2014-05-01T07:50:20Z</time>
      </trkpt>
      <trkpt lat="43.69707" lon="6.91838">
        <ele>986.9304199</ele>
        <time>2014-05-01T07:50:30Z</time>
      </trkpt>
      <trkpt lat="43.69703" lon="6.91832">
        <ele>987.4111328</ele>
        <time>2014-05-01T07:50:35Z</time>
      </trkpt>
      <trkpt lat="43.69693" lon="6.9182">
        <ele>988.8535156</ele>
        <time>2014-05-01T07:50:47Z</time>
      </trkpt>
      <trkpt lat="43.69688" lon="6.91811">
        <ele>988.8535156</ele>
        <time>2014-05-01T07:50:52Z</time>
      </trkpt>
      <trkpt lat="43.69685" lon="6.91798">
        <ele>987.8918457</ele>
        <time>2014-05-01T07:50:57Z</time>
      </trkpt>
      <trkpt lat="43.6968" lon="6.91763">
        <ele>985.4885254</ele>
        <time>2014-05-01T07:51:11Z</time>
      </trkpt>
      <trkpt lat="43.69678" lon="6.91754">
        <ele>985.9692383</ele>
        <time>2014-05-01T07:51:16Z</time>
      </trkpt>
      <trkpt lat="43.69669" lon="6.91735">
        <ele>987.4111328</ele>
        <time>2014-05-01T07:51:29Z</time>
      </trkpt>
      <trkpt lat="43.69674" lon="6.91715">
        <ele>988.8535156</ele>
        <time>2014-05-01T07:51:43Z</time>
      </trkpt>
      <trkpt lat="43.69674" lon="6.91706">
        <ele>990.7758789</ele>
        <time>2014-05-01T07:51:55Z</time>
      </trkpt>
      <trkpt lat="43.69675" lon="6.91693">
        <ele>991.7373047</ele>
        <time>2014-05-01T07:52:02Z</time>
      </trkpt>
      <trkpt lat="43.69677" lon="6.91689">
        <ele>992.2180176</ele>
        <time>2014-05-01T07:52:18Z</time>
      </trkpt>
      <trkpt lat="43.69682" lon="6.9169">
        <ele>992.6987305</ele>
        <time>2014-05-01T07:52:34Z</time>
      </trkpt>
      <trkpt lat="43.69697" lon="6.91688">
        <ele>993.6599121</ele>
        <time>2014-05-01T07:52:46Z</time>
      </trkpt>
      <trkpt lat="43.69697" lon="6.91679">
        <ele>994.6210938</ele>
        <time>2014-05-01T07:52:51Z</time>
      </trkpt>
      <trkpt lat="43.69684" lon="6.91652">
        <ele>995.1018066</ele>
        <time>2014-05-01T07:53:06Z</time>
      </trkpt>
      <trkpt lat="43.69679" lon="6.91645">
        <ele>996.0632324</ele>
        <time>2014-05-01T07:53:10Z</time>
      </trkpt>
      <trkpt lat="43.69676" lon="6.91617">
        <ele>996.5439453</ele>
        <time>2014-05-01T07:53:26Z</time>
      </trkpt>
      <trkpt lat="43.69688" lon="6.91626">
        <ele>997.9858398</ele>
        <time>2014-05-01T07:53:38Z</time>
      </trkpt>
      <trkpt lat="43.69691" lon="6.9163">
        <ele>998.4663086</ele>
        <time>2014-05-01T07:53:41Z</time>
      </trkpt>
      <trkpt lat="43.69696" lon="6.91619">
        <ele>999.4277344</ele>
        <time>2014-05-01T07:53:52Z</time>
      </trkpt>
      <trkpt lat="43.69687" lon="6.91599">
        <ele>1000.8696289</ele>
        <time>2014-05-01T07:54:05Z</time>
      </trkpt>
      <trkpt lat="43.69678" lon="6.91568">
        <ele>1002.3115234</ele>
        <time>2014-05-01T07:54:20Z</time>
      </trkpt>
      <trkpt lat="43.69679" lon="6.91563">
        <ele>1002.7922363</ele>
        <time>2014-05-01T07:54:23Z</time>
      </trkpt>
      <trkpt lat="43.69683" lon="6.91543">
        <ele>1004.7150879</ele>
        <time>2014-05-01T07:54:34Z</time>
      </trkpt>
      <trkpt lat="43.69686" lon="6.91535">
        <ele>1006.1569824</ele>
        <time>2014-05-01T07:54:49Z</time>
      </trkpt>
      <trkpt lat="43.69692" lon="6.91533">
        <ele>1007.1184082</ele>
        <time>2014-05-01T07:54:54Z</time>
      </trkpt>
      <trkpt lat="43.69695" lon="6.91526">
        <ele>1007.1184082</ele>
        <time>2014-05-01T07:54:59Z</time>
      </trkpt>
      <trkpt lat="43.69695" lon="6.9152">
        <ele>1006.6376953</ele>
        <time>2014-05-01T07:55:04Z</time>
      </trkpt>
      <trkpt lat="43.69708" lon="6.91513">
        <ele>1009.5217285</ele>
        <time>2014-05-01T07:55:17Z</time>
      </trkpt>
      <trkpt lat="43.6971" lon="6.91515">
        <ele>1009.5217285</ele>
        <time>2014-05-01T07:55:19Z</time>
      </trkpt>
      <trkpt lat="43.69714" lon="6.91505">
        <ele>1010.4829102</ele>
        <time>2014-05-01T07:55:27Z</time>
      </trkpt>
      <trkpt lat="43.69713" lon="6.91502">
        <ele>1010.963623</ele>
        <time>2014-05-01T07:55:52Z</time>
      </trkpt>
      <trkpt lat="43.69704" lon="6.91483">
        <ele>1013.3669434</ele>
        <time>2014-05-01T07:56:07Z</time>
      </trkpt>
      <trkpt lat="43.69694" lon="6.91461">
        <ele>1016.7314453</ele>
        <time>2014-05-01T07:56:26Z</time>
      </trkpt>
      <trkpt lat="43.69687" lon="6.91449">
        <ele>1019.1347656</ele>
        <time>2014-05-01T07:56:39Z</time>
      </trkpt>
      <trkpt lat="43.69679" lon="6.91429">
        <ele>1022.0187988</ele>
        <time>2014-05-01T07:56:51Z</time>
      </trkpt>
      <trkpt lat="43.69678" lon="6.914">
        <ele>1024.902832</ele>
        <time>2014-05-01T07:57:08Z</time>
      </trkpt>
      <trkpt lat="43.69679" lon="6.91399">
        <ele>1025.3833008</ele>
        <time>2014-05-01T07:57:23Z</time>
      </trkpt>
      <trkpt lat="43.6968" lon="6.91399">
        <ele>1025.3833008</ele>
        <time>2014-05-01T07:57:28Z</time>
      </trkpt>
      <trkpt lat="43.69687" lon="6.91403">
        <ele>1026.3447266</ele>
        <time>2014-05-01T07:57:35Z</time>
      </trkpt>
      <trkpt lat="43.69706" lon="6.91398">
        <ele>1028.267334</ele>
        <time>2014-05-01T07:57:51Z</time>
      </trkpt>
      <trkpt lat="43.69729" lon="6.91373">
        <ele>1033.0737305</ele>
        <time>2014-05-01T07:58:09Z</time>
      </trkpt>
      <trkpt lat="43.6974" lon="6.9136">
        <ele>1034.0351563</ele>
        <time>2014-05-01T07:58:23Z</time>
      </trkpt>
      <trkpt lat="43.69739" lon="6.91358">
        <ele>1034.0351563</ele>
        <time>2014-05-01T07:58:28Z</time>
      </trkpt>
      <trkpt lat="43.69732" lon="6.91364">
        <ele>1033.5544434</ele>
        <time>2014-05-01T07:58:34Z</time>
      </trkpt>
      <trkpt lat="43.69726" lon="6.91368">
        <ele>1033.0737305</ele>
        <time>2014-05-01T07:58:42Z</time>
      </trkpt>
      <trkpt lat="43.69728" lon="6.91366">
        <ele>1033.0737305</ele>
        <time>2014-05-01T07:58:44Z</time>
      </trkpt>
      <trkpt lat="43.69732" lon="6.91363">
        <ele>1033.0737305</ele>
        <time>2014-05-01T07:59:08Z</time>
      </trkpt>
      <trkpt lat="43.69736" lon="6.91363">
        <ele>1033.5544434</ele>
        <time>2014-05-01T07:59:52Z</time>
      </trkpt>
      <trkpt lat="43.69739" lon="6.91361">
        <ele>1033.5544434</ele>
        <time>2014-05-01T07:59:57Z</time>
      </trkpt>
      <trkpt lat="43.69738" lon="6.9136">
        <ele>1033.5544434</ele>
        <time>2014-05-01T07:59:59Z</time>
      </trkpt>
      <trkpt lat="43.69728" lon="6.91365">
        <ele>1033.0737305</ele>
        <time>2014-05-01T08:00:07Z</time>
      </trkpt>
      <trkpt lat="43.69729" lon="6.91369">
        <ele>1033.0737305</ele>
        <time>2014-05-01T08:00:12Z</time>
      </trkpt>
      <trkpt lat="43.69733" lon="6.91365">
        <ele>1033.0737305</ele>
        <time>2014-05-01T08:00:31Z</time>
      </trkpt>
      <trkpt lat="43.69738" lon="6.91363">
        <ele>1033.0737305</ele>
        <time>2014-05-01T08:01:13Z</time>
      </trkpt>
      <trkpt lat="43.6974" lon="6.91359">
        <ele>1033.0737305</ele>
        <time>2014-05-01T08:01:16Z</time>
      </trkpt>
      <trkpt lat="43.69741" lon="6.91356">
        <ele>1033.0737305</ele>
        <time>2014-05-01T08:01:21Z</time>
      </trkpt>
      <trkpt lat="43.69738" lon="6.91362">
        <ele>1033.5544434</ele>
        <time>2014-05-01T08:01:36Z</time>
      </trkpt>
      <trkpt lat="43.6973" lon="6.91365">
        <ele>1033.5544434</ele>
        <time>2014-05-01T08:02:43Z</time>
      </trkpt>
      <trkpt lat="43.69729" lon="6.91368">
        <ele>1033.5544434</ele>
        <time>2014-05-01T08:02:46Z</time>
      </trkpt>
      <trkpt lat="43.6973" lon="6.91367">
        <ele>1033.0737305</ele>
        <time>2014-05-01T08:02:48Z</time>
      </trkpt>
      <trkpt lat="43.69736" lon="6.91364">
        <ele>1033.5544434</ele>
        <time>2014-05-01T08:03:16Z</time>
      </trkpt>
      <trkpt lat="43.69741" lon="6.9136">
        <ele>1033.5544434</ele>
        <time>2014-05-01T08:04:08Z</time>
      </trkpt>
      <trkpt lat="43.69742" lon="6.91359">
        <ele>1033.5544434</ele>
        <time>2014-05-01T08:04:13Z</time>
      </trkpt>
      <trkpt lat="43.69762" lon="6.91329">
        <ele>1035.4770508</ele>
        <time>2014-05-01T08:04:32Z</time>
      </trkpt>
      <trkpt lat="43.69776" lon="6.91294">
        <ele>1039.3225098</ele>
        <time>2014-05-01T08:04:51Z</time>
      </trkpt>
      <trkpt lat="43.69771" lon="6.91241">
        <ele>1043.1677246</ele>
        <time>2014-05-01T08:05:15Z</time>
      </trkpt>
      <trkpt lat="43.69762" lon="6.91203">
        <ele>1045.090332</ele>
        <time>2014-05-01T08:05:33Z</time>
      </trkpt>
      <trkpt lat="43.69755" lon="6.9116">
        <ele>1046.5324707</ele>
        <time>2014-05-01T08:05:54Z</time>
      </trkpt>
      <trkpt lat="43.69758" lon="6.91104">
        <ele>1050.3776855</ele>
        <time>2014-05-01T08:06:17Z</time>
      </trkpt>
      <trkpt lat="43.69764" lon="6.91037">
        <ele>1052.7810059</ele>
        <time>2014-05-01T08:06:39Z</time>
      </trkpt>
      <trkpt lat="43.69773" lon="6.90981">
        <ele>1054.2231445</ele>
        <time>2014-05-01T08:06:56Z</time>
      </trkpt>
      <trkpt lat="43.69819" lon="6.90934">
        <ele>1057.1069336</ele>
        <time>2014-05-01T08:07:18Z</time>
      </trkpt>
      <trkpt lat="43.69845" lon="6.90884">
        <ele>1058.5488281</ele>
        <time>2014-05-01T08:07:36Z</time>
      </trkpt>
      <trkpt lat="43.69865" lon="6.90816">
        <ele>1061.4328613</ele>
        <time>2014-05-01T08:07:57Z</time>
      </trkpt>
      <trkpt lat="43.69887" lon="6.90732">
        <ele>1065.2780762</ele>
        <time>2014-05-01T08:08:23Z</time>
      </trkpt>
      <trkpt lat="43.69922" lon="6.9066">
        <ele>1069.1235352</ele>
        <time>2014-05-01T08:08:47Z</time>
      </trkpt>
      <trkpt lat="43.69966" lon="6.90583">
        <ele>1072.0073242</ele>
        <time>2014-05-01T08:09:14Z</time>
      </trkpt>
      <trkpt lat="43.70027" lon="6.90563">
        <ele>1074.4106445</ele>
        <time>2014-05-01T08:09:36Z</time>
      </trkpt>
      <trkpt lat="43.70086" lon="6.90557">
        <ele>1074.4106445</ele>
        <time>2014-05-01T08:09:56Z</time>
      </trkpt>
      <trkpt lat="43.70152" lon="6.90543">
        <ele>1076.8139648</ele>
        <time>2014-05-01T08:10:19Z</time>
      </trkpt>
      <trkpt lat="43.70214" lon="6.90521">
        <ele>1079.6977539</ele>
        <time>2014-05-01T08:10:41Z</time>
      </trkpt>
      <trkpt lat="43.70256" lon="6.90517">
        <ele>1080.6591797</ele>
        <time>2014-05-01T08:10:57Z</time>
      </trkpt>
      <trkpt lat="43.70257" lon="6.90517">
        <ele>1081.1398926</ele>
        <time>2014-05-01T08:10:58Z</time>
      </trkpt>
      <trkpt lat="43.7026" lon="6.90519">
        <ele>1081.1398926</ele>
        <time>2014-05-01T08:11:01Z</time>
      </trkpt>
      <trkpt lat="43.70275" lon="6.90502">
        <ele>1083.5429688</ele>
        <time>2014-05-01T08:11:12Z</time>
      </trkpt>
      <trkpt lat="43.70289" lon="6.90502">
        <ele>1084.0239258</ele>
        <time>2014-05-01T08:11:24Z</time>
      </trkpt>
      <trkpt lat="43.70291" lon="6.90503">
        <ele>1084.5046387</ele>
        <time>2014-05-01T08:11:28Z</time>
      </trkpt>
      <trkpt lat="43.70301" lon="6.90494">
        <ele>1084.9853516</ele>
        <time>2014-05-01T08:11:36Z</time>
      </trkpt>
      <trkpt lat="43.70318" lon="6.90488">
        <ele>1086.4272461</ele>
        <time>2014-05-01T08:11:47Z</time>
      </trkpt>
      <trkpt lat="43.7033" lon="6.90486">
        <ele>1086.9077148</ele>
        <time>2014-05-01T08:12:01Z</time>
      </trkpt>
      <trkpt lat="43.70342" lon="6.90479">
        <ele>1089.791748</ele>
        <time>2014-05-01T08:12:17Z</time>
      </trkpt>
      <trkpt lat="43.70346" lon="6.9048">
        <ele>1089.791748</ele>
        <time>2014-05-01T08:12:21Z</time>
      </trkpt>
      <trkpt lat="43.70353" lon="6.90484">
        <ele>1090.2724609</ele>
        <time>2014-05-01T08:12:28Z</time>
      </trkpt>
      <trkpt lat="43.70357" lon="6.90484">
        <ele>1090.7529297</ele>
        <time>2014-05-01T08:12:32Z</time>
      </trkpt>
      <trkpt lat="43.70367" lon="6.90486">
        <ele>1091.7143555</ele>
        <time>2014-05-01T08:12:43Z</time>
      </trkpt>
      <trkpt lat="43.70377" lon="6.90492">
        <ele>1093.6369629</ele>
        <time>2014-05-01T08:12:55Z</time>
      </trkpt>
      <trkpt lat="43.70379" lon="6.90493">
        <ele>1093.6369629</ele>
        <time>2014-05-01T08:12:57Z</time>
      </trkpt>
      <trkpt lat="43.70384" lon="6.90498">
        <ele>1094.1176758</ele>
        <time>2014-05-01T08:13:03Z</time>
      </trkpt>
      <trkpt lat="43.70419" lon="6.90503">
        <ele>1092.6757813</ele>
        <time>2014-05-01T08:13:21Z</time>
      </trkpt>
      <trkpt lat="43.70444" lon="6.90492">
        <ele>1093.15625</ele>
        <time>2014-05-01T08:13:34Z</time>
      </trkpt>
      <trkpt lat="43.70487" lon="6.90489">
        <ele>1093.15625</ele>
        <time>2014-05-01T08:13:52Z</time>
      </trkpt>
      <trkpt lat="43.70532" lon="6.90485">
        <ele>1095.5595703</ele>
        <time>2014-05-01T08:14:10Z</time>
      </trkpt>
      <trkpt lat="43.70558" lon="6.90471">
        <ele>1097.9628906</ele>
        <time>2014-05-01T08:14:26Z</time>
      </trkpt>
      <trkpt lat="43.70565" lon="6.90468">
        <ele>1098.9240723</ele>
        <time>2014-05-01T08:14:32Z</time>
      </trkpt>
      <trkpt lat="43.70574" lon="6.90462">
        <ele>1101.3276367</ele>
        <time>2014-05-01T08:14:45Z</time>
      </trkpt>
      <trkpt lat="43.70588" lon="6.90446">
        <ele>1104.2116699</ele>
        <time>2014-05-01T08:15:03Z</time>
      </trkpt>
      <trkpt lat="43.7059" lon="6.90445">
        <ele>1104.2116699</ele>
        <time>2014-05-01T08:15:10Z</time>
      </trkpt>
      <trkpt lat="43.70604" lon="6.90433">
        <ele>1105.6535645</ele>
        <time>2014-05-01T08:15:21Z</time>
      </trkpt>
      <trkpt lat="43.70609" lon="6.90427">
        <ele>1106.1340332</ele>
        <time>2014-05-01T08:15:25Z</time>
      </trkpt>
      <trkpt lat="43.70618" lon="6.90421">
        <ele>1107.095459</ele>
        <time>2014-05-01T08:15:36Z</time>
      </trkpt>
      <trkpt lat="43.70635" lon="6.9041">
        <ele>1109.979248</ele>
        <time>2014-05-01T08:15:55Z</time>
      </trkpt>
      <trkpt lat="43.70645" lon="6.904">
        <ele>1112.8632813</ele>
        <time>2014-05-01T08:16:10Z</time>
      </trkpt>
      <trkpt lat="43.70649" lon="6.90396">
        <ele>1113.8244629</ele>
        <time>2014-05-01T08:16:17Z</time>
      </trkpt>
      <trkpt lat="43.70661" lon="6.90379">
        <ele>1115.2666016</ele>
        <time>2014-05-01T08:16:34Z</time>
      </trkpt>
      <trkpt lat="43.70672" lon="6.90368">
        <ele>1116.7087402</ele>
        <time>2014-05-01T08:16:50Z</time>
      </trkpt>
      <trkpt lat="43.70679" lon="6.90361">
        <ele>1117.6699219</ele>
        <time>2014-05-01T08:17:03Z</time>
      </trkpt>
      <trkpt lat="43.70682" lon="6.90359">
        <ele>1119.5927734</ele>
        <time>2014-05-01T08:17:11Z</time>
      </trkpt>
      <trkpt lat="43.70695" lon="6.90344">
        <ele>1121.9958496</ele>
        <time>2014-05-01T08:17:29Z</time>
      </trkpt>
      <trkpt lat="43.70699" lon="6.90343">
        <ele>1122.4765625</ele>
        <time>2014-05-01T08:17:34Z</time>
      </trkpt>
      <trkpt lat="43.707" lon="6.90342">
        <ele>1122.9572754</ele>
        <time>2014-05-01T08:17:36Z</time>
      </trkpt>
      <trkpt lat="43.7071" lon="6.90334">
        <ele>1124.3991699</ele>
        <time>2014-05-01T08:17:52Z</time>
      </trkpt>
      <trkpt lat="43.7071" lon="6.90341">
        <ele>1126.3217773</ele>
        <time>2014-05-01T08:18:05Z</time>
      </trkpt>
      <trkpt lat="43.70719" lon="6.90342">
        <ele>1127.7636719</ele>
        <time>2014-05-01T08:18:19Z</time>
      </trkpt>
      <trkpt lat="43.70726" lon="6.90335">
        <ele>1130.1669922</ele>
        <time>2014-05-01T08:18:36Z</time>
      </trkpt>
      <trkpt lat="43.70738" lon="6.90325">
        <ele>1134.0124512</ele>
        <time>2014-05-01T08:18:57Z</time>
      </trkpt>
      <trkpt lat="43.70752" lon="6.90328">
        <ele>1134.973877</ele>
        <time>2014-05-01T08:19:19Z</time>
      </trkpt>
      <trkpt lat="43.70749" lon="6.90335">
        <ele>1134.4931641</ele>
        <time>2014-05-01T08:19:35Z</time>
      </trkpt>
      <trkpt lat="43.70748" lon="6.90336">
        <ele>1134.4931641</ele>
        <time>2014-05-01T08:19:37Z</time>
      </trkpt>
      <trkpt lat="43.7074" lon="6.90352">
        <ele>1142.1835938</ele>
        <time>2014-05-01T08:19:58Z</time>
      </trkpt>
      <trkpt lat="43.70731" lon="6.90364">
        <ele>1147.4707031</ele>
        <time>2014-05-01T08:20:16Z</time>
      </trkpt>
      <trkpt lat="43.70726" lon="6.90376">
        <ele>1151.3161621</ele>
        <time>2014-05-01T08:20:30Z</time>
      </trkpt>
      <trkpt lat="43.70726" lon="6.90384">
        <ele>1153.7194824</ele>
        <time>2014-05-01T08:20:37Z</time>
      </trkpt>
      <trkpt lat="43.70729" lon="6.90404">
        <ele>1153.7194824</ele>
        <time>2014-05-01T08:20:51Z</time>
      </trkpt>
      <trkpt lat="43.70731" lon="6.90404">
        <ele>1151.796875</ele>
        <time>2014-05-01T08:20:56Z</time>
      </trkpt>
      <trkpt lat="43.70734" lon="6.90398">
        <ele>1150.3549805</ele>
        <time>2014-05-01T08:21:04Z</time>
      </trkpt>
      <trkpt lat="43.70736" lon="6.90396">
        <ele>1150.8354492</ele>
        <time>2014-05-01T08:21:08Z</time>
      </trkpt>
      <trkpt lat="43.7074" lon="6.90389">
        <ele>1151.796875</ele>
        <time>2014-05-01T08:21:19Z</time>
      </trkpt>
      <trkpt lat="43.70749" lon="6.90376">
        <ele>1154.2001953</ele>
        <time>2014-05-01T08:21:35Z</time>
      </trkpt>
      <trkpt lat="43.70759" lon="6.90366">
        <ele>1156.1225586</ele>
        <time>2014-05-01T08:21:50Z</time>
      </trkpt>
      <trkpt lat="43.70765" lon="6.9036">
        <ele>1156.6032715</ele>
        <time>2014-05-01T08:22:05Z</time>
      </trkpt>
      <trkpt lat="43.70771" lon="6.90357">
        <ele>1158.0454102</ele>
        <time>2014-05-01T08:22:14Z</time>
      </trkpt>
      <trkpt lat="43.70776" lon="6.90351">
        <ele>1158.5258789</ele>
        <time>2014-05-01T08:22:24Z</time>
      </trkpt>
      <trkpt lat="43.70785" lon="6.90341">
        <ele>1158.0454102</ele>
        <time>2014-05-01T08:22:38Z</time>
      </trkpt>
      <trkpt lat="43.70788" lon="6.90338">
        <ele>1158.0454102</ele>
        <time>2014-05-01T08:22:42Z</time>
      </trkpt>
      <trkpt lat="43.70804" lon="6.90324">
        <ele>1159.9677734</ele>
        <time>2014-05-01T08:23:03Z</time>
      </trkpt>
      <trkpt lat="43.70817" lon="6.90313">
        <ele>1161.4099121</ele>
        <time>2014-05-01T08:23:20Z</time>
      </trkpt>
      <trkpt lat="43.7082" lon="6.90312">
        <ele>1161.890625</ele>
        <time>2014-05-01T08:23:23Z</time>
      </trkpt>
      <trkpt lat="43.70822" lon="6.9031">
        <ele>1161.4099121</ele>
        <time>2014-05-01T08:23:26Z</time>
      </trkpt>
      <trkpt lat="43.70834" lon="6.90295">
        <ele>1164.7746582</ele>
        <time>2014-05-01T08:23:44Z</time>
      </trkpt>
      <trkpt lat="43.70852" lon="6.90281">
        <ele>1168.619873</ele>
        <time>2014-05-01T08:24:07Z</time>
      </trkpt>
      <trkpt lat="43.70863" lon="6.90272">
        <ele>1171.984375</ele>
        <time>2014-05-01T08:24:22Z</time>
      </trkpt>
      <trkpt lat="43.70865" lon="6.90271">
        <ele>1172.4650879</ele>
        <time>2014-05-01T08:24:34Z</time>
      </trkpt>
      <trkpt lat="43.70871" lon="6.90264">
        <ele>1171.984375</ele>
        <time>2014-05-01T08:24:46Z</time>
      </trkpt>
      <trkpt lat="43.70879" lon="6.90254">
        <ele>1174.3876953</ele>
        <time>2014-05-01T08:24:58Z</time>
      </trkpt>
      <trkpt lat="43.70894" lon="6.90239">
        <ele>1175.8295898</ele>
        <time>2014-05-01T08:25:15Z</time>
      </trkpt>
      <trkpt lat="43.70905" lon="6.90225">
        <ele>1178.713623</ele>
        <time>2014-05-01T08:25:31Z</time>
      </trkpt>
      <trkpt lat="43.7092" lon="6.90213">
        <ele>1178.713623</ele>
        <time>2014-05-01T08:25:49Z</time>
      </trkpt>
      <trkpt lat="43.70933" lon="6.902">
        <ele>1180.1557617</ele>
        <time>2014-05-01T08:26:06Z</time>
      </trkpt>
      <trkpt lat="43.70942" lon="6.9019">
        <ele>1181.1171875</ele>
        <time>2014-05-01T08:26:21Z</time>
      </trkpt>
      <trkpt lat="43.7095" lon="6.90182">
        <ele>1181.5976563</ele>
        <time>2014-05-01T08:26:34Z</time>
      </trkpt>
      <trkpt lat="43.70963" lon="6.90171">
        <ele>1184.4816895</ele>
        <time>2014-05-01T08:26:54Z</time>
      </trkpt>
      <trkpt lat="43.70971" lon="6.90161">
        <ele>1187.3654785</ele>
        <time>2014-05-01T08:27:10Z</time>
      </trkpt>
      <trkpt lat="43.70982" lon="6.9015">
        <ele>1188.8076172</ele>
        <time>2014-05-01T08:27:28Z</time>
      </trkpt>
      <trkpt lat="43.70989" lon="6.90142">
        <ele>1190.2495117</ele>
        <time>2014-05-01T08:27:43Z</time>
      </trkpt>
      <trkpt lat="43.70996" lon="6.90129">
        <ele>1192.652832</ele>
        <time>2014-05-01T08:28:01Z</time>
      </trkpt>
      <trkpt lat="43.71" lon="6.90115">
        <ele>1191.6914063</ele>
        <time>2014-05-01T08:28:18Z</time>
      </trkpt>
      <trkpt lat="43.71001" lon="6.90114">
        <ele>1191.2106934</ele>
        <time>2014-05-01T08:28:19Z</time>
      </trkpt>
      <trkpt lat="43.70999" lon="6.90107">
        <ele>1194.5751953</ele>
        <time>2014-05-01T08:28:27Z</time>
      </trkpt>
      <trkpt lat="43.70993" lon="6.90086">
        <ele>1194.0947266</ele>
        <time>2014-05-01T08:28:40Z</time>
      </trkpt>
      <trkpt lat="43.70994" lon="6.90071">
        <ele>1194.0947266</ele>
        <time>2014-05-01T08:28:45Z</time>
      </trkpt>
      <trkpt lat="43.71004" lon="6.90056">
        <ele>1195.5366211</ele>
        <time>2014-05-01T08:28:57Z</time>
      </trkpt>
      <trkpt lat="43.71009" lon="6.90046">
        <ele>1196.0175781</ele>
        <time>2014-05-01T08:29:11Z</time>
      </trkpt>
      <trkpt lat="43.7101" lon="6.90042">
        <ele>1196.0175781</ele>
        <time>2014-05-01T08:29:13Z</time>
      </trkpt>
      <trkpt lat="43.71026" lon="6.90026">
        <ele>1196.498291</ele>
        <time>2014-05-01T08:29:23Z</time>
      </trkpt>
      <trkpt lat="43.7105" lon="6.90011">
        <ele>1196.9787598</ele>
        <time>2014-05-01T08:29:36Z</time>
      </trkpt>
      <trkpt lat="43.71068" lon="6.8999">
        <ele>1199.3820801</ele>
        <time>2014-05-01T08:29:51Z</time>
      </trkpt>
      <trkpt lat="43.71069" lon="6.89986">
        <ele>1199.3820801</ele>
        <time>2014-05-01T08:29:54Z</time>
      </trkpt>
      <trkpt lat="43.71079" lon="6.89967">
        <ele>1202.2658691</ele>
        <time>2014-05-01T08:30:10Z</time>
      </trkpt>
      <trkpt lat="43.71085" lon="6.89949">
        <ele>1205.1499023</ele>
        <time>2014-05-01T08:30:27Z</time>
      </trkpt>
      <trkpt lat="43.71086" lon="6.89945">
        <ele>1206.111084</ele>
        <time>2014-05-01T08:30:40Z</time>
      </trkpt>
      <trkpt lat="43.71093" lon="6.89936">
        <ele>1208.5144043</ele>
        <time>2014-05-01T08:30:57Z</time>
      </trkpt>
      <trkpt lat="43.71094" lon="6.89934">
        <ele>1208.9951172</ele>
        <time>2014-05-01T08:30:59Z</time>
      </trkpt>
      <trkpt lat="43.71101" lon="6.8993">
        <ele>1211.3984375</ele>
        <time>2014-05-01T08:31:15Z</time>
      </trkpt>
      <trkpt lat="43.7111" lon="6.89925">
        <ele>1214.2824707</ele>
        <time>2014-05-01T08:31:32Z</time>
      </trkpt>
      <trkpt lat="43.71118" lon="6.89916">
        <ele>1218.1276855</ele>
        <time>2014-05-01T08:31:49Z</time>
      </trkpt>
      <trkpt lat="43.71124" lon="6.89913">
        <ele>1219.5698242</ele>
        <time>2014-05-01T08:32:04Z</time>
      </trkpt>
      <trkpt lat="43.71137" lon="6.89905">
        <ele>1222.4536133</ele>
        <time>2014-05-01T08:32:21Z</time>
      </trkpt>
      <trkpt lat="43.71141" lon="6.89898">
        <ele>1223.8955078</ele>
        <time>2014-05-01T08:32:30Z</time>
      </trkpt>
      <trkpt lat="43.71143" lon="6.89903">
        <ele>1225.8181152</ele>
        <time>2014-05-01T08:32:45Z</time>
      </trkpt>
      <trkpt lat="43.71139" lon="6.89916">
        <ele>1229.1828613</ele>
        <time>2014-05-01T08:33:02Z</time>
      </trkpt>
      <trkpt lat="43.71134" lon="6.89928">
        <ele>1232.0668945</ele>
        <time>2014-05-01T08:33:18Z</time>
      </trkpt>
      <trkpt lat="43.71132" lon="6.89938">
        <ele>1234.4702148</ele>
        <time>2014-05-01T08:33:32Z</time>
      </trkpt>
      <trkpt lat="43.71131" lon="6.89941">
        <ele>1234.4702148</ele>
        <time>2014-05-01T08:33:34Z</time>
      </trkpt>
      <trkpt lat="43.71129" lon="6.89953">
        <ele>1236.3928223</ele>
        <time>2014-05-01T08:33:49Z</time>
      </trkpt>
      <trkpt lat="43.7113" lon="6.89961">
        <ele>1239.2766113</ele>
        <time>2014-05-01T08:34:04Z</time>
      </trkpt>
      <trkpt lat="43.71137" lon="6.89955">
        <ele>1241.6799316</ele>
        <time>2014-05-01T08:34:21Z</time>
      </trkpt>
      <trkpt lat="43.71142" lon="6.89947">
        <ele>1243.6025391</ele>
        <time>2014-05-01T08:34:31Z</time>
      </trkpt>
      <trkpt lat="43.7115" lon="6.89934">
        <ele>1246.0061035</ele>
        <time>2014-05-01T08:34:48Z</time>
      </trkpt>
      <trkpt lat="43.7116" lon="6.89924">
        <ele>1246.4868164</ele>
        <time>2014-05-01T08:35:05Z</time>
      </trkpt>
      <trkpt lat="43.71164" lon="6.89921">
        <ele>1246.9672852</ele>
        <time>2014-05-01T08:35:09Z</time>
      </trkpt>
      <trkpt lat="43.71164" lon="6.89918">
        <ele>1247.447998</ele>
        <time>2014-05-01T08:35:11Z</time>
      </trkpt>
      <trkpt lat="43.71174" lon="6.89911">
        <ele>1246.0061035</ele>
        <time>2014-05-01T08:35:26Z</time>
      </trkpt>
      <trkpt lat="43.71178" lon="6.89909">
        <ele>1244.5639648</ele>
        <time>2014-05-01T08:35:40Z</time>
      </trkpt>
      <trkpt lat="43.71183" lon="6.8991">
        <ele>1245.0446777</ele>
        <time>2014-05-01T08:35:44Z</time>
      </trkpt>
      <trkpt lat="43.71192" lon="6.89908">
        <ele>1245.0446777</ele>
        <time>2014-05-01T08:35:49Z</time>
      </trkpt>
      <trkpt lat="43.7121" lon="6.89912">
        <ele>1246.4868164</ele>
        <time>2014-05-01T08:36:02Z</time>
      </trkpt>
      <trkpt lat="43.71231" lon="6.89915">
        <ele>1248.4091797</ele>
        <time>2014-05-01T08:36:17Z</time>
      </trkpt>
      <trkpt lat="43.71235" lon="6.89916">
        <ele>1248.8898926</ele>
        <time>2014-05-01T08:36:25Z</time>
      </trkpt>
      <trkpt lat="43.71237" lon="6.89915">
        <ele>1248.8898926</ele>
        <time>2014-05-01T08:36:27Z</time>
      </trkpt>
      <trkpt lat="43.7125" lon="6.89917">
        <ele>1250.3320313</ele>
        <time>2014-05-01T08:36:41Z</time>
      </trkpt>
      <trkpt lat="43.71261" lon="6.89916">
        <ele>1251.2932129</ele>
        <time>2014-05-01T08:36:57Z</time>
      </trkpt>
      <trkpt lat="43.7127" lon="6.89918">
        <ele>1252.7351074</ele>
        <time>2014-05-01T08:37:04Z</time>
      </trkpt>
      <trkpt lat="43.7128" lon="6.89924">
        <ele>1253.2158203</ele>
        <time>2014-05-01T08:37:11Z</time>
      </trkpt>
      <trkpt lat="43.71285" lon="6.89925">
        <ele>1254.1772461</ele>
        <time>2014-05-01T08:37:16Z</time>
      </trkpt>
      <trkpt lat="43.71293" lon="6.89934">
        <ele>1255.6191406</ele>
        <time>2014-05-01T08:37:24Z</time>
      </trkpt>
      <trkpt lat="43.71314" lon="6.89935">
        <ele>1257.541748</ele>
        <time>2014-05-01T08:37:41Z</time>
      </trkpt>
      <trkpt lat="43.71315" lon="6.89935">
        <ele>1257.541748</ele>
        <time>2014-05-01T08:37:42Z</time>
      </trkpt>
      <trkpt lat="43.71324" lon="6.89942">
        <ele>1257.541748</ele>
        <time>2014-05-01T08:37:57Z</time>
      </trkpt>
      <trkpt lat="43.7133" lon="6.8995">
        <ele>1258.0224609</ele>
        <time>2014-05-01T08:41:31Z</time>
      </trkpt>
      <trkpt lat="43.71336" lon="6.89965">
        <ele>1261.387207</ele>
        <time>2014-05-01T08:41:49Z</time>
      </trkpt>
      <trkpt lat="43.71335" lon="6.89968">
        <ele>1261.8679199</ele>
        <time>2014-05-01T08:41:52Z</time>
      </trkpt>
      <trkpt lat="43.71323" lon="6.89991">
        <ele>1259.9448242</ele>
        <time>2014-05-01T08:42:07Z</time>
      </trkpt>
      <trkpt lat="43.71305" lon="6.90028">
        <ele>1260.9064941</ele>
        <time>2014-05-01T08:42:23Z</time>
      </trkpt>
      <trkpt lat="43.71302" lon="6.9004">
        <ele>1262.8291016</ele>
        <time>2014-05-01T08:42:37Z</time>
      </trkpt>
      <trkpt lat="43.71297" lon="6.90056">
        <ele>1264.2709961</ele>
        <time>2014-05-01T08:42:52Z</time>
      </trkpt>
      <trkpt lat="43.71289" lon="6.90061">
        <ele>1265.7131348</ele>
        <time>2014-05-01T08:43:06Z</time>
      </trkpt>
      <trkpt lat="43.71285" lon="6.90065">
        <ele>1265.7131348</ele>
        <time>2014-05-01T08:43:10Z</time>
      </trkpt>
      <trkpt lat="43.71273" lon="6.9008">
        <ele>1268.5969238</ele>
        <time>2014-05-01T08:43:28Z</time>
      </trkpt>
      <trkpt lat="43.71253" lon="6.90089">
        <ele>1270.5195313</ele>
        <time>2014-05-01T08:43:40Z</time>
      </trkpt>
      <trkpt lat="43.7125" lon="6.90096">
        <ele>1271.0002441</ele>
        <time>2014-05-01T08:43:45Z</time>
      </trkpt>
      <trkpt lat="43.71246" lon="6.90113">
        <ele>1273.8840332</ele>
        <time>2014-05-01T08:44:01Z</time>
      </trkpt>
      <trkpt lat="43.71242" lon="6.90126">
        <ele>1275.8066406</ele>
        <time>2014-05-01T08:44:16Z</time>
      </trkpt>
      <trkpt lat="43.7123" lon="6.90134">
        <ele>1276.7683105</ele>
        <time>2014-05-01T08:44:28Z</time>
      </trkpt>
      <trkpt lat="43.71224" lon="6.9015">
        <ele>1278.690918</ele>
        <time>2014-05-01T08:44:45Z</time>
      </trkpt>
      <trkpt lat="43.7122" lon="6.90169">
        <ele>1282.0554199</ele>
        <time>2014-05-01T08:45:05Z</time>
      </trkpt>
      <trkpt lat="43.7122" lon="6.90174">
        <ele>1283.0166016</ele>
        <time>2014-05-01T08:45:10Z</time>
      </trkpt>
      <trkpt lat="43.71234" lon="6.90186">
        <ele>1284.9394531</ele>
        <time>2014-05-01T08:45:30Z</time>
      </trkpt>
      <trkpt lat="43.71236" lon="6.9019">
        <ele>1287.3425293</ele>
        <time>2014-05-01T08:45:42Z</time>
      </trkpt>
      <trkpt lat="43.71244" lon="6.90201">
        <ele>1290.2265625</ele>
        <time>2014-05-01T08:46:01Z</time>
      </trkpt>
      <trkpt lat="43.71248" lon="6.90217">
        <ele>1294.0720215</ele>
        <time>2014-05-01T08:46:18Z</time>
      </trkpt>
      <trkpt lat="43.71251" lon="6.90227">
        <ele>1297.4365234</ele>
        <time>2014-05-01T08:46:31Z</time>
      </trkpt>
      <trkpt lat="43.7126" lon="6.90231">
        <ele>1299.3591309</ele>
        <time>2014-05-01T08:46:45Z</time>
      </trkpt>
      <trkpt lat="43.71261" lon="6.90244">
        <ele>1304.1657715</ele>
        <time>2014-05-01T08:47:00Z</time>
      </trkpt>
      <trkpt lat="43.71265" lon="6.90251">
        <ele>1307.5302734</ele>
        <time>2014-05-01T08:47:14Z</time>
      </trkpt>
      <trkpt lat="43.71266" lon="6.90265">
        <ele>1309.9335938</ele>
        <time>2014-05-01T08:47:28Z</time>
      </trkpt>
      <trkpt lat="43.71265" lon="6.90283">
        <ele>1311.8564453</ele>
        <time>2014-05-01T08:47:43Z</time>
      </trkpt>
      <trkpt lat="43.71272" lon="6.90293">
        <ele>1313.7788086</ele>
        <time>2014-05-01T08:47:58Z</time>
      </trkpt>
      <trkpt lat="43.71272" lon="6.90293">
        <ele>1313.7788086</ele>
        <time>2014-05-01T08:47:59Z</time>
      </trkpt>
      <trkpt lat="43.71276" lon="6.90294">
        <ele>1314.7402344</ele>
        <time>2014-05-01T08:48:03Z</time>
      </trkpt>
      <trkpt lat="43.71289" lon="6.90308">
        <ele>1317.1435547</ele>
        <time>2014-05-01T08:48:21Z</time>
      </trkpt>
      <trkpt lat="43.7129" lon="6.90311">
        <ele>1318.5854492</ele>
        <time>2014-05-01T08:48:24Z</time>
      </trkpt>
      <trkpt lat="43.7129" lon="6.90317">
        <ele>1317.6240234</ele>
        <time>2014-05-01T08:48:34Z</time>
      </trkpt>
      <trkpt lat="43.7129" lon="6.90321">
        <ele>1316.1821289</ele>
        <time>2014-05-01T08:48:45Z</time>
      </trkpt>
      <trkpt lat="43.71292" lon="6.90322">
        <ele>1314.2595215</ele>
        <time>2014-05-01T08:49:42Z</time>
      </trkpt>
      <trkpt lat="43.71292" lon="6.90322">
        <ele>1313.2983398</ele>
        <time>2014-05-01T08:50:39Z</time>
      </trkpt>
      <trkpt lat="43.71291" lon="6.90324">
        <ele>1312.817627</ele>
        <time>2014-05-01T08:51:04Z</time>
      </trkpt>
      <trkpt lat="43.71283" lon="6.90372">
        <ele>1309.453125</ele>
        <time>2014-05-01T08:51:19Z</time>
      </trkpt>
      <trkpt lat="43.71283" lon="6.90377">
        <ele>1308.9724121</ele>
        <time>2014-05-01T08:51:20Z</time>
      </trkpt>
      <trkpt lat="43.71276" lon="6.90401">
        <ele>1308.0112305</ele>
        <time>2014-05-01T08:51:25Z</time>
      </trkpt>
      <trkpt lat="43.71265" lon="6.9044">
        <ele>1304.1657715</ele>
        <time>2014-05-01T08:51:33Z</time>
      </trkpt>
      <trkpt lat="43.7126" lon="6.90461">
        <ele>1302.7236328</ele>
        <time>2014-05-01T08:51:36Z</time>
      </trkpt>
      <trkpt lat="43.7126" lon="6.90493">
        <ele>1299.3591309</ele>
        <time>2014-05-01T08:51:40Z</time>
      </trkpt>
      <trkpt lat="43.71264" lon="6.90522">
        <ele>1294.5524902</ele>
        <time>2014-05-01T08:51:43Z</time>
      </trkpt>
      <trkpt lat="43.71264" lon="6.90572">
        <ele>1289.2651367</ele>
        <time>2014-05-01T08:51:48Z</time>
      </trkpt>
      <trkpt lat="43.71263" lon="6.90617">
        <ele>1285.4199219</ele>
        <time>2014-05-01T08:51:52Z</time>
      </trkpt>
      <trkpt lat="43.71272" lon="6.90664">
        <ele>1280.6135254</ele>
        <time>2014-05-01T08:51:58Z</time>
      </trkpt>
      <trkpt lat="43.71278" lon="6.90687">
        <ele>1277.2490234</ele>
        <time>2014-05-01T08:52:01Z</time>
      </trkpt>
      <trkpt lat="43.71279" lon="6.90717">
        <ele>1274.3647461</ele>
        <time>2014-05-01T08:52:04Z</time>
      </trkpt>
      <trkpt lat="43.71276" lon="6.90757">
        <ele>1272.4421387</ele>
        <time>2014-05-01T08:52:08Z</time>
      </trkpt>
      <trkpt lat="43.71275" lon="6.90783">
        <ele>1271.9614258</ele>
        <time>2014-05-01T08:52:11Z</time>
      </trkpt>
      <trkpt lat="43.71266" lon="6.90836">
        <ele>1271.9614258</ele>
        <time>2014-05-01T08:52:19Z</time>
      </trkpt>
      <trkpt lat="43.71266" lon="6.90858">
        <ele>1269.5583496</ele>
        <time>2014-05-01T08:52:23Z</time>
      </trkpt>
      <trkpt lat="43.7127" lon="6.90887">
        <ele>1264.751709</ele>
        <time>2014-05-01T08:52:27Z</time>
      </trkpt>
      <trkpt lat="43.71265" lon="6.90915">
        <ele>1264.2709961</ele>
        <time>2014-05-01T08:52:31Z</time>
      </trkpt>
      <trkpt lat="43.71262" lon="6.90927">
        <ele>1263.7902832</ele>
        <time>2014-05-01T08:52:33Z</time>
      </trkpt>
      <trkpt lat="43.71243" lon="6.90958">
        <ele>1268.1162109</ele>
        <time>2014-05-01T08:52:45Z</time>
      </trkpt>
      <trkpt lat="43.7123" lon="6.90993">
        <ele>1270.5195313</ele>
        <time>2014-05-01T08:53:03Z</time>
      </trkpt>
      <trkpt lat="43.71222" lon="6.91029">
        <ele>1270.0388184</ele>
        <time>2014-05-01T08:53:21Z</time>
      </trkpt>
      <trkpt lat="43.7122" lon="6.91076">
        <ele>1269.5583496</ele>
        <time>2014-05-01T08:53:36Z</time>
      </trkpt>
      <trkpt lat="43.71218" lon="6.91107">
        <ele>1268.1162109</ele>
        <time>2014-05-01T08:53:44Z</time>
      </trkpt>
      <trkpt lat="43.71218" lon="6.91112">
        <ele>1268.1162109</ele>
        <time>2014-05-01T08:53:45Z</time>
      </trkpt>
      <trkpt lat="43.71212" lon="6.9116">
        <ele>1265.2324219</ele>
        <time>2014-05-01T08:53:53Z</time>
      </trkpt>
      <trkpt lat="43.7122" lon="6.91249">
        <ele>1262.8291016</ele>
        <time>2014-05-01T08:54:09Z</time>
      </trkpt>
      <trkpt lat="43.71221" lon="6.91255">
        <ele>1262.3483887</ele>
        <time>2014-05-01T08:54:10Z</time>
      </trkpt>
      <trkpt lat="43.71217" lon="6.91307">
        <ele>1261.387207</ele>
        <time>2014-05-01T08:54:18Z</time>
      </trkpt>
      <trkpt lat="43.71211" lon="6.91338">
        <ele>1261.387207</ele>
        <time>2014-05-01T08:54:23Z</time>
      </trkpt>
      <trkpt lat="43.71211" lon="6.91389">
        <ele>1261.387207</ele>
        <time>2014-05-01T08:54:31Z</time>
      </trkpt>
      <trkpt lat="43.71207" lon="6.91412">
        <ele>1261.387207</ele>
        <time>2014-05-01T08:54:35Z</time>
      </trkpt>
      <trkpt lat="43.71206" lon="6.91436">
        <ele>1260.4257813</ele>
        <time>2014-05-01T08:54:39Z</time>
      </trkpt>
      <trkpt lat="43.71208" lon="6.91462">
        <ele>1259.9448242</ele>
        <time>2014-05-01T08:54:43Z</time>
      </trkpt>
      <trkpt lat="43.71206" lon="6.91482">
        <ele>1259.4643555</ele>
        <time>2014-05-01T08:54:46Z</time>
      </trkpt>
      <trkpt lat="43.71206" lon="6.91497">
        <ele>1259.4643555</ele>
        <time>2014-05-01T08:54:48Z</time>
      </trkpt>
      <trkpt lat="43.71214" lon="6.91563">
        <ele>1255.6191406</ele>
        <time>2014-05-01T08:54:57Z</time>
      </trkpt>
      <trkpt lat="43.7121" lon="6.91596">
        <ele>1256.0996094</ele>
        <time>2014-05-01T08:55:02Z</time>
      </trkpt>
      <trkpt lat="43.71207" lon="6.9163">
        <ele>1254.6577148</ele>
        <time>2014-05-01T08:55:08Z</time>
      </trkpt>
      <trkpt lat="43.71197" lon="6.91695">
        <ele>1254.6577148</ele>
        <time>2014-05-01T08:55:21Z</time>
      </trkpt>
      <trkpt lat="43.71197" lon="6.91711">
        <ele>1254.1772461</ele>
        <time>2014-05-01T08:55:24Z</time>
      </trkpt>
      <trkpt lat="43.71197" lon="6.91727">
        <ele>1253.6965332</ele>
        <time>2014-05-01T08:55:27Z</time>
      </trkpt>
      <trkpt lat="43.71195" lon="6.91788">
        <ele>1254.1772461</ele>
        <time>2014-05-01T08:55:40Z</time>
      </trkpt>
      <trkpt lat="43.71207" lon="6.91814">
        <ele>1256.0996094</ele>
        <time>2014-05-01T08:55:52Z</time>
      </trkpt>
      <trkpt lat="43.71208" lon="6.91817">
        <ele>1256.5803223</ele>
        <time>2014-05-01T08:55:55Z</time>
      </trkpt>
      <trkpt lat="43.71211" lon="6.91829">
        <ele>1257.541748</ele>
        <time>2014-05-01T08:56:10Z</time>
      </trkpt>
      <trkpt lat="43.71209" lon="6.91833">
        <ele>1258.5029297</ele>
        <time>2014-05-01T08:56:18Z</time>
      </trkpt>
      <trkpt lat="43.71206" lon="6.91839">
        <ele>1258.9836426</ele>
        <time>2014-05-01T08:56:22Z</time>
      </trkpt>
      <trkpt lat="43.71198" lon="6.91859">
        <ele>1259.9448242</ele>
        <time>2014-05-01T08:56:31Z</time>
      </trkpt>
      <trkpt lat="43.71196" lon="6.91894">
        <ele>1259.9448242</ele>
        <time>2014-05-01T08:56:44Z</time>
      </trkpt>
      <trkpt lat="43.7122" lon="6.91955">
        <ele>1258.5029297</ele>
        <time>2014-05-01T08:57:01Z</time>
      </trkpt>
      <trkpt lat="43.7122" lon="6.92005">
        <ele>1257.541748</ele>
        <time>2014-05-01T08:57:14Z</time>
      </trkpt>
      <trkpt lat="43.71235" lon="6.92066">
        <ele>1258.5029297</ele>
        <time>2014-05-01T08:57:28Z</time>
      </trkpt>
      <trkpt lat="43.7123" lon="6.92083">
        <ele>1258.5029297</ele>
        <time>2014-05-01T08:57:32Z</time>
      </trkpt>
      <trkpt lat="43.71229" lon="6.92099">
        <ele>1257.541748</ele>
        <time>2014-05-01T08:57:36Z</time>
      </trkpt>
      <trkpt lat="43.71246" lon="6.92154">
        <ele>1258.5029297</ele>
        <time>2014-05-01T08:57:52Z</time>
      </trkpt>
      <trkpt lat="43.71259" lon="6.92186">
        <ele>1261.387207</ele>
        <time>2014-05-01T08:58:09Z</time>
      </trkpt>
      <trkpt lat="43.71276" lon="6.92225">
        <ele>1267.635498</ele>
        <time>2014-05-01T08:58:31Z</time>
      </trkpt>
      <trkpt lat="43.71286" lon="6.92249">
        <ele>1271.0002441</ele>
        <time>2014-05-01T08:58:46Z</time>
      </trkpt>
      <trkpt lat="43.71294" lon="6.92273">
        <ele>1273.4035645</ele>
        <time>2014-05-01T08:59:04Z</time>
      </trkpt>
      <trkpt lat="43.71306" lon="6.92302">
        <ele>1276.2875977</ele>
        <time>2014-05-01T08:59:26Z</time>
      </trkpt>
      <trkpt lat="43.71307" lon="6.92307">
        <ele>1276.2875977</ele>
        <time>2014-05-01T08:59:29Z</time>
      </trkpt>
      <trkpt lat="43.71322" lon="6.9234">
        <ele>1280.1328125</ele>
        <time>2014-05-01T08:59:52Z</time>
      </trkpt>
      <trkpt lat="43.71327" lon="6.92355">
        <ele>1281.574707</ele>
        <time>2014-05-01T09:00:02Z</time>
      </trkpt>
      <trkpt lat="43.71345" lon="6.92399">
        <ele>1284.4587402</ele>
        <time>2014-05-01T09:00:28Z</time>
      </trkpt>
      <trkpt lat="43.71362" lon="6.92441">
        <ele>1288.784668</ele>
        <time>2014-05-01T09:00:53Z</time>
      </trkpt>
      <trkpt lat="43.71377" lon="6.92477">
        <ele>1290.7070313</ele>
        <time>2014-05-01T09:01:12Z</time>
      </trkpt>
      <trkpt lat="43.71394" lon="6.9252">
        <ele>1293.1105957</ele>
        <time>2014-05-01T09:01:30Z</time>
      </trkpt>
      <trkpt lat="43.71407" lon="6.92553">
        <ele>1296.9558105</ele>
        <time>2014-05-01T09:01:47Z</time>
      </trkpt>
      <trkpt lat="43.71426" lon="6.92595">
        <ele>1298.3977051</ele>
        <time>2014-05-01T09:02:09Z</time>
      </trkpt>
      <trkpt lat="43.71449" lon="6.9265">
        <ele>1295.513916</ele>
        <time>2014-05-01T09:02:21Z</time>
      </trkpt>
      <trkpt lat="43.71473" lon="6.92717">
        <ele>1295.513916</ele>
        <time>2014-05-01T09:02:37Z</time>
      </trkpt>
      <trkpt lat="43.71492" lon="6.92763">
        <ele>1298.878418</ele>
        <time>2014-05-01T09:02:57Z</time>
      </trkpt>
      <trkpt lat="43.71507" lon="6.92794">
        <ele>1301.7624512</ele>
        <time>2014-05-01T09:03:14Z</time>
      </trkpt>
      <trkpt lat="43.71512" lon="6.92804">
        <ele>1303.6850586</ele>
        <time>2014-05-01T09:03:20Z</time>
      </trkpt>
      <trkpt lat="43.71525" lon="6.92838">
        <ele>1307.5302734</ele>
        <time>2014-05-01T09:03:42Z</time>
      </trkpt>
      <trkpt lat="43.71535" lon="6.92867">
        <ele>1310.4143066</ele>
        <time>2014-05-01T09:04:02Z</time>
      </trkpt>
      <trkpt lat="43.71549" lon="6.92895">
        <ele>1313.7788086</ele>
        <time>2014-05-01T09:04:25Z</time>
      </trkpt>
      <trkpt lat="43.71564" lon="6.92936">
        <ele>1320.5080566</ele>
        <time>2014-05-01T09:04:51Z</time>
      </trkpt>
      <trkpt lat="43.71567" lon="6.92944">
        <ele>1322.4306641</ele>
        <time>2014-05-01T09:04:56Z</time>
      </trkpt>
      <trkpt lat="43.7157" lon="6.92949">
        <ele>1322.911377</ele>
        <time>2014-05-01T09:05:00Z</time>
      </trkpt>
      <trkpt lat="43.71579" lon="6.92967">
        <ele>1326.276123</ele>
        <time>2014-05-01T09:05:14Z</time>
      </trkpt>
      <trkpt lat="43.71596" lon="6.93017">
        <ele>1328.1987305</ele>
        <time>2014-05-01T09:05:44Z</time>
      </trkpt>
      <trkpt lat="43.7158" lon="6.93042">
        <ele>1331.0827637</ele>
        <time>2014-05-01T09:06:01Z</time>
      </trkpt>
      <trkpt lat="43.71548" lon="6.9305">
        <ele>1332.0439453</ele>
        <time>2014-05-01T09:06:18Z</time>
      </trkpt>
      <trkpt lat="43.71539" lon="6.93056">
        <ele>1331.5632324</ele>
        <time>2014-05-01T09:06:22Z</time>
      </trkpt>
      <trkpt lat="43.71535" lon="6.93067">
        <ele>1331.5632324</ele>
        <time>2014-05-01T09:06:27Z</time>
      </trkpt>
      <trkpt lat="43.71535" lon="6.93072">
        <ele>1331.5632324</ele>
        <time>2014-05-01T09:06:47Z</time>
      </trkpt>
      <trkpt lat="43.71535" lon="6.9307">
        <ele>1331.0827637</ele>
        <time>2014-05-01T09:08:59Z</time>
      </trkpt>
      <trkpt lat="43.71554" lon="6.93046">
        <ele>1332.0439453</ele>
        <time>2014-05-01T09:09:13Z</time>
      </trkpt>
      <trkpt lat="43.71561" lon="6.93029">
        <ele>1331.0827637</ele>
        <time>2014-05-01T09:09:18Z</time>
      </trkpt>
      <trkpt lat="43.71561" lon="6.93003">
        <ele>1329.1599121</ele>
        <time>2014-05-01T09:09:22Z</time>
      </trkpt>
      <trkpt lat="43.71544" lon="6.93003">
        <ele>1327.2375488</ele>
        <time>2014-05-01T09:09:28Z</time>
      </trkpt>
      <trkpt lat="43.71542" lon="6.93007">
        <ele>1327.2375488</ele>
        <time>2014-05-01T09:09:29Z</time>
      </trkpt>
      <trkpt lat="43.71537" lon="6.93017">
        <ele>1327.2375488</ele>
        <time>2014-05-01T09:09:31Z</time>
      </trkpt>
      <trkpt lat="43.71526" lon="6.93033">
        <ele>1326.7568359</ele>
        <time>2014-05-01T09:09:35Z</time>
      </trkpt>
      <trkpt lat="43.71503" lon="6.93045">
        <ele>1320.0273438</ele>
        <time>2014-05-01T09:09:40Z</time>
      </trkpt>
      <trkpt lat="43.71487" lon="6.9307">
        <ele>1318.5854492</ele>
        <time>2014-05-01T09:09:45Z</time>
      </trkpt>
      <trkpt lat="43.71464" lon="6.93089">
        <ele>1312.3369141</ele>
        <time>2014-05-01T09:09:51Z</time>
      </trkpt>
      <trkpt lat="43.71437" lon="6.93094">
        <ele>1305.607666</ele>
        <time>2014-05-01T09:09:56Z</time>
      </trkpt>
      <trkpt lat="43.71413" lon="6.93118">
        <ele>1299.3591309</ele>
        <time>2014-05-01T09:10:02Z</time>
      </trkpt>
      <trkpt lat="43.71415" lon="6.93147">
        <ele>1296.9558105</ele>
        <time>2014-05-01T09:10:08Z</time>
      </trkpt>
      <trkpt lat="43.71447" lon="6.93204">
        <ele>1295.0332031</ele>
        <time>2014-05-01T09:10:22Z</time>
      </trkpt>
      <trkpt lat="43.71461" lon="6.93229">
        <ele>1292.630127</ele>
        <time>2014-05-01T09:10:28Z</time>
      </trkpt>
      <trkpt lat="43.71475" lon="6.93248">
        <ele>1292.1494141</ele>
        <time>2014-05-01T09:10:32Z</time>
      </trkpt>
      <trkpt lat="43.7149" lon="6.93264">
        <ele>1292.1494141</ele>
        <time>2014-05-01T09:10:36Z</time>
      </trkpt>
      <trkpt lat="43.71502" lon="6.93265">
        <ele>1292.630127</ele>
        <time>2014-05-01T09:10:40Z</time>
      </trkpt>
      <trkpt lat="43.71523" lon="6.93279">
        <ele>1290.7070313</ele>
        <time>2014-05-01T09:10:47Z</time>
      </trkpt>
      <trkpt lat="43.71536" lon="6.93302">
        <ele>1286.8618164</ele>
        <time>2014-05-01T09:10:52Z</time>
      </trkpt>
      <trkpt lat="43.71547" lon="6.9331">
        <ele>1287.3425293</ele>
        <time>2014-05-01T09:10:57Z</time>
      </trkpt>
      <trkpt lat="43.71578" lon="6.93337">
        <ele>1286.3813477</ele>
        <time>2014-05-01T09:11:08Z</time>
      </trkpt>
      <trkpt lat="43.71583" lon="6.93347">
        <ele>1285.9006348</ele>
        <time>2014-05-01T09:11:10Z</time>
      </trkpt>
      <trkpt lat="43.71598" lon="6.93371">
        <ele>1285.9006348</ele>
        <time>2014-05-01T09:11:15Z</time>
      </trkpt>
      <trkpt lat="43.71627" lon="6.93384">
        <ele>1287.3425293</ele>
        <time>2014-05-01T09:11:24Z</time>
      </trkpt>
      <trkpt lat="43.71636" lon="6.93389">
        <ele>1286.8618164</ele>
        <time>2014-05-01T09:11:28Z</time>
      </trkpt>
      <trkpt lat="43.71657" lon="6.93409">
        <ele>1283.0166016</ele>
        <time>2014-05-01T09:11:37Z</time>
      </trkpt>
      <trkpt lat="43.71656" lon="6.93409">
        <ele>1283.4973145</ele>
        <time>2014-05-01T09:11:39Z</time>
      </trkpt>
      <trkpt lat="43.71658" lon="6.93411">
        <ele>1283.0166016</ele>
        <time>2014-05-01T09:11:41Z</time>
      </trkpt>
      <trkpt lat="43.71666" lon="6.93424">
        <ele>1282.0554199</ele>
        <time>2014-05-01T09:11:48Z</time>
      </trkpt>
      <trkpt lat="43.71671" lon="6.93427">
        <ele>1281.0942383</ele>
        <time>2014-05-01T09:11:50Z</time>
      </trkpt>
      <trkpt lat="43.71698" lon="6.93416">
        <ele>1279.6520996</ele>
        <time>2014-05-01T09:11:59Z</time>
      </trkpt>
      <trkpt lat="43.71701" lon="6.93415">
        <ele>1279.1713867</ele>
        <time>2014-05-01T09:12:00Z</time>
      </trkpt>
      <trkpt lat="43.71722" lon="6.93406">
        <ele>1277.2490234</ele>
        <time>2014-05-01T09:12:05Z</time>
      </trkpt>
      <trkpt lat="43.71729" lon="6.934">
        <ele>1276.2875977</ele>
        <time>2014-05-01T09:12:07Z</time>
      </trkpt>
      <trkpt lat="43.71744" lon="6.93391">
        <ele>1274.3647461</ele>
        <time>2014-05-01T09:12:11Z</time>
      </trkpt>
      <trkpt lat="43.71758" lon="6.93388">
        <ele>1271.0002441</ele>
        <time>2014-05-01T09:12:20Z</time>
      </trkpt>
      <trkpt lat="43.71759" lon="6.93387">
        <ele>1270.5195313</ele>
        <time>2014-05-01T09:13:23Z</time>
      </trkpt>
      <trkpt lat="43.71759" lon="6.93387">
        <ele>1270.0388184</ele>
        <time>2014-05-01T09:15:28Z</time>
      </trkpt>
      <trkpt lat="43.7176" lon="6.93387">
        <ele>1269.5583496</ele>
        <time>2014-05-01T09:16:49Z</time>
      </trkpt>
      <trkpt lat="43.7176" lon="6.93387">
        <ele>1269.5583496</ele>
        <time>2014-05-01T09:18:44Z</time>
      </trkpt>
      <trkpt lat="43.71778" lon="6.9341">
        <ele>1262.8291016</ele>
        <time>2014-05-01T09:18:53Z</time>
      </trkpt>
      <trkpt lat="43.71776" lon="6.93459">
        <ele>1262.3483887</ele>
        <time>2014-05-01T09:19:02Z</time>
      </trkpt>
      <trkpt lat="43.71767" lon="6.93486">
        <ele>1261.387207</ele>
        <time>2014-05-01T09:19:09Z</time>
      </trkpt>
      <trkpt lat="43.71755" lon="6.93492">
        <ele>1260.9064941</ele>
        <time>2014-05-01T09:19:13Z</time>
      </trkpt>
      <trkpt lat="43.71745" lon="6.93502">
        <ele>1260.4257813</ele>
        <time>2014-05-01T09:19:19Z</time>
      </trkpt>
      <trkpt lat="43.71739" lon="6.93519">
        <ele>1258.9836426</ele>
        <time>2014-05-01T09:19:23Z</time>
      </trkpt>
      <trkpt lat="43.71734" lon="6.93544">
        <ele>1257.541748</ele>
        <time>2014-05-01T09:19:28Z</time>
      </trkpt>
      <trkpt lat="43.71734" lon="6.93551">
        <ele>1257.541748</ele>
        <time>2014-05-01T09:19:31Z</time>
      </trkpt>
      <trkpt lat="43.71727" lon="6.93581">
        <ele>1256.5803223</ele>
        <time>2014-05-01T09:19:39Z</time>
      </trkpt>
      <trkpt lat="43.71733" lon="6.93598">
        <ele>1254.1772461</ele>
        <time>2014-05-01T09:19:43Z</time>
      </trkpt>
      <trkpt lat="43.71739" lon="6.93606">
        <ele>1254.1772461</ele>
        <time>2014-05-01T09:19:45Z</time>
      </trkpt>
      <trkpt lat="43.71754" lon="6.9361">
        <ele>1253.6965332</ele>
        <time>2014-05-01T09:19:49Z</time>
      </trkpt>
      <trkpt lat="43.71772" lon="6.93604">
        <ele>1250.3320313</ele>
        <time>2014-05-01T09:19:55Z</time>
      </trkpt>
      <trkpt lat="43.71779" lon="6.93602">
        <ele>1249.3706055</ele>
        <time>2014-05-01T09:19:57Z</time>
      </trkpt>
      <trkpt lat="43.71801" lon="6.93614">
        <ele>1248.8898926</ele>
        <time>2014-05-01T09:20:03Z</time>
      </trkpt>
      <trkpt lat="43.71806" lon="6.93623">
        <ele>1248.8898926</ele>
        <time>2014-05-01T09:20:05Z</time>
      </trkpt>
      <trkpt lat="43.71822" lon="6.93638">
        <ele>1247.9287109</ele>
        <time>2014-05-01T09:20:09Z</time>
      </trkpt>
      <trkpt lat="43.7184" lon="6.9366">
        <ele>1246.9672852</ele>
        <time>2014-05-01T09:20:16Z</time>
      </trkpt>
      <trkpt lat="43.7184" lon="6.93664">
        <ele>1246.0061035</ele>
        <time>2014-05-01T09:20:18Z</time>
      </trkpt>
      <trkpt lat="43.71847" lon="6.93672">
        <ele>1243.6025391</ele>
        <time>2014-05-01T09:20:22Z</time>
      </trkpt>
      <trkpt lat="43.71856" lon="6.9369">
        <ele>1245.5253906</ele>
        <time>2014-05-01T09:20:27Z</time>
      </trkpt>
      <trkpt lat="43.71863" lon="6.937">
        <ele>1245.5253906</ele>
        <time>2014-05-01T09:20:32Z</time>
      </trkpt>
      <trkpt lat="43.7188" lon="6.93721">
        <ele>1244.5639648</ele>
        <time>2014-05-01T09:20:40Z</time>
      </trkpt>
      <trkpt lat="43.71895" lon="6.93754">
        <ele>1240.2380371</ele>
        <time>2014-05-01T09:20:45Z</time>
      </trkpt>
      <trkpt lat="43.71915" lon="6.93775">
        <ele>1238.3154297</ele>
        <time>2014-05-01T09:20:49Z</time>
      </trkpt>
      <trkpt lat="43.71932" lon="6.93786">
        <ele>1236.3928223</ele>
        <time>2014-05-01T09:20:52Z</time>
      </trkpt>
      <trkpt lat="43.71975" lon="6.93822">
        <ele>1229.1828613</ele>
        <time>2014-05-01T09:21:00Z</time>
      </trkpt>
      <trkpt lat="43.71986" lon="6.93841">
        <ele>1225.8181152</ele>
        <time>2014-05-01T09:21:04Z</time>
      </trkpt>
      <trkpt lat="43.72001" lon="6.93853">
        <ele>1222.4536133</ele>
        <time>2014-05-01T09:21:08Z</time>
      </trkpt>
      <trkpt lat="43.72022" lon="6.93872">
        <ele>1218.1276855</ele>
        <time>2014-05-01T09:21:12Z</time>
      </trkpt>
      <trkpt lat="43.72032" lon="6.93885">
        <ele>1216.2050781</ele>
        <time>2014-05-01T09:21:14Z</time>
      </trkpt>
      <trkpt lat="43.72053" lon="6.93905">
        <ele>1212.8405762</ele>
        <time>2014-05-01T09:21:18Z</time>
      </trkpt>
      <trkpt lat="43.72081" lon="6.93925">
        <ele>1207.5532227</ele>
        <time>2014-05-01T09:21:22Z</time>
      </trkpt>
      <trkpt lat="43.72097" lon="6.93942">
        <ele>1205.1499023</ele>
        <time>2014-05-01T09:21:25Z</time>
      </trkpt>
      <trkpt lat="43.72136" lon="6.93976">
        <ele>1199.862793</ele>
        <time>2014-05-01T09:21:31Z</time>
      </trkpt>
      <trkpt lat="43.72157" lon="6.94005">
        <ele>1197.9401855</ele>
        <time>2014-05-01T09:21:35Z</time>
      </trkpt>
      <trkpt lat="43.72163" lon="6.94035">
        <ele>1192.652832</ele>
        <time>2014-05-01T09:21:39Z</time>
      </trkpt>
      <trkpt lat="43.72166" lon="6.94079">
        <ele>1187.8461914</ele>
        <time>2014-05-01T09:21:43Z</time>
      </trkpt>
      <trkpt lat="43.72176" lon="6.94118">
        <ele>1184.9624023</ele>
        <time>2014-05-01T09:21:47Z</time>
      </trkpt>
      <trkpt lat="43.72194" lon="6.94149">
        <ele>1181.5976563</ele>
        <time>2014-05-01T09:21:51Z</time>
      </trkpt>
      <trkpt lat="43.72213" lon="6.94185">
        <ele>1177.7521973</ele>
        <time>2014-05-01T09:21:56Z</time>
      </trkpt>
      <trkpt lat="43.72225" lon="6.94205">
        <ele>1177.2717285</ele>
        <time>2014-05-01T09:21:59Z</time>
      </trkpt>
      <trkpt lat="43.72233" lon="6.94212">
        <ele>1175.8295898</ele>
        <time>2014-05-01T09:22:01Z</time>
      </trkpt>
      <trkpt lat="43.72239" lon="6.94227">
        <ele>1173.9069824</ele>
        <time>2014-05-01T09:22:04Z</time>
      </trkpt>
      <trkpt lat="43.72251" lon="6.94263">
        <ele>1169.1005859</ele>
        <time>2014-05-01T09:22:11Z</time>
      </trkpt>
      <trkpt lat="43.72269" lon="6.94287">
        <ele>1168.619873</ele>
        <time>2014-05-01T09:22:16Z</time>
      </trkpt>
      <trkpt lat="43.72294" lon="6.94311">
        <ele>1171.0231934</ele>
        <time>2014-05-01T09:22:25Z</time>
      </trkpt>
      <trkpt lat="43.72299" lon="6.94338">
        <ele>1169.1005859</ele>
        <time>2014-05-01T09:22:29Z</time>
      </trkpt>
      <trkpt lat="43.72312" lon="6.94365">
        <ele>1168.619873</ele>
        <time>2014-05-01T09:22:33Z</time>
      </trkpt>
      <trkpt lat="43.72322" lon="6.94398">
        <ele>1166.6972656</ele>
        <time>2014-05-01T09:22:41Z</time>
      </trkpt>
      <trkpt lat="43.72324" lon="6.94411">
        <ele>1165.2553711</ele>
        <time>2014-05-01T09:23:35Z</time>
      </trkpt>
      <trkpt lat="43.72319" lon="6.94436">
        <ele>1163.3325195</ele>
        <time>2014-05-01T09:23:39Z</time>
      </trkpt>
      <trkpt lat="43.72329" lon="6.94457">
        <ele>1161.890625</ele>
        <time>2014-05-01T09:23:43Z</time>
      </trkpt>
      <trkpt lat="43.72375" lon="6.94488">
        <ele>1151.3161621</ele>
        <time>2014-05-01T09:23:51Z</time>
      </trkpt>
      <trkpt lat="43.72428" lon="6.94547">
        <ele>1136.4157715</ele>
        <time>2014-05-01T09:24:02Z</time>
      </trkpt>
      <trkpt lat="43.72444" lon="6.94563">
        <ele>1134.973877</ele>
        <time>2014-05-01T09:24:05Z</time>
      </trkpt>
      <trkpt lat="43.7245" lon="6.94571">
        <ele>1134.4931641</ele>
        <time>2014-05-01T09:24:07Z</time>
      </trkpt>
      <trkpt lat="43.72453" lon="6.94573">
        <ele>1134.4931641</ele>
        <time>2014-05-01T09:24:09Z</time>
      </trkpt>
      <trkpt lat="43.72457" lon="6.94589">
        <ele>1130.6477051</ele>
        <time>2014-05-01T09:24:20Z</time>
      </trkpt>
      <trkpt lat="43.72458" lon="6.94594">
        <ele>1129.6862793</ele>
        <time>2014-05-01T09:24:22Z</time>
      </trkpt>
      <trkpt lat="43.72477" lon="6.94623">
        <ele>1124.3991699</ele>
        <time>2014-05-01T09:24:32Z</time>
      </trkpt>
      <trkpt lat="43.72487" lon="6.9463">
        <ele>1122.4765625</ele>
        <time>2014-05-01T09:24:35Z</time>
      </trkpt>
      <trkpt lat="43.72502" lon="6.94644">
        <ele>1119.5927734</ele>
        <time>2014-05-01T09:24:39Z</time>
      </trkpt>
      <trkpt lat="43.72511" lon="6.94653">
        <ele>1117.1894531</ele>
        <time>2014-05-01T09:24:42Z</time>
      </trkpt>
      <trkpt lat="43.72516" lon="6.94653">
        <ele>1116.2280273</ele>
        <time>2014-05-01T09:24:44Z</time>
      </trkpt>
      <trkpt lat="43.72531" lon="6.94669">
        <ele>1110.9406738</ele>
        <time>2014-05-01T09:24:49Z</time>
      </trkpt>
      <trkpt lat="43.72545" lon="6.94689">
        <ele>1106.1340332</ele>
        <time>2014-05-01T09:24:53Z</time>
      </trkpt>
      <trkpt lat="43.72561" lon="6.94703">
        <ele>1104.6921387</ele>
        <time>2014-05-01T09:25:02Z</time>
      </trkpt>
      <trkpt lat="43.72561" lon="6.94702">
        <ele>1103.730957</ele>
        <time>2014-05-01T09:26:10Z</time>
      </trkpt>
      <trkpt lat="43.72562" lon="6.94705">
        <ele>1104.6921387</ele>
        <time>2014-05-01T09:27:00Z</time>
      </trkpt>
      <trkpt lat="43.72565" lon="6.94717">
        <ele>1103.2502441</ele>
        <time>2014-05-01T09:27:04Z</time>
      </trkpt>
      <trkpt lat="43.7257" lon="6.94713">
        <ele>1103.730957</ele>
        <time>2014-05-01T09:27:12Z</time>
      </trkpt>
      <trkpt lat="43.72559" lon="6.947">
        <ele>1103.2502441</ele>
        <time>2014-05-01T09:27:30Z</time>
      </trkpt>
      <trkpt lat="43.72561" lon="6.94702">
        <ele>1103.2502441</ele>
        <time>2014-05-01T09:35:21Z</time>
      </trkpt>
      <trkpt lat="43.72561" lon="6.94703">
        <ele>1103.2502441</ele>
        <time>2014-05-01T09:35:22Z</time>
      </trkpt>
      <trkpt lat="43.72568" lon="6.94726">
        <ele>1101.3276367</ele>
        <time>2014-05-01T09:35:29Z</time>
      </trkpt>
      <trkpt lat="43.72567" lon="6.94739">
        <ele>1100.8469238</ele>
        <time>2014-05-01T09:35:32Z</time>
      </trkpt>
      <trkpt lat="43.72586" lon="6.94768">
        <ele>1096.0402832</ele>
        <time>2014-05-01T09:35:40Z</time>
      </trkpt>
      <trkpt lat="43.72587" lon="6.94781">
        <ele>1095.0788574</ele>
        <time>2014-05-01T09:35:42Z</time>
      </trkpt>
      <trkpt lat="43.72581" lon="6.94833">
        <ele>1092.6757813</ele>
        <time>2014-05-01T09:35:54Z</time>
      </trkpt>
      <trkpt lat="43.72579" lon="6.94843">
        <ele>1092.6757813</ele>
        <time>2014-05-01T09:35:57Z</time>
      </trkpt>
      <trkpt lat="43.7256" lon="6.94852">
        <ele>1093.15625</ele>
        <time>2014-05-01T09:36:07Z</time>
      </trkpt>
      <trkpt lat="43.72557" lon="6.94829">
        <ele>1085.9465332</ele>
        <time>2014-05-01T09:36:15Z</time>
      </trkpt>
      <trkpt lat="43.72546" lon="6.94801">
        <ele>1082.1010742</ele>
        <time>2014-05-01T09:36:21Z</time>
      </trkpt>
      <trkpt lat="43.72527" lon="6.94784">
        <ele>1076.8139648</ele>
        <time>2014-05-01T09:36:27Z</time>
      </trkpt>
      <trkpt lat="43.72522" lon="6.94794">
        <ele>1074.4106445</ele>
        <time>2014-05-01T09:36:35Z</time>
      </trkpt>
      <trkpt lat="43.72522" lon="6.94798">
        <ele>1073.9299316</ele>
        <time>2014-05-01T09:36:36Z</time>
      </trkpt>
      <trkpt lat="43.72521" lon="6.94825">
        <ele>1069.1235352</ele>
        <time>2014-05-01T09:36:45Z</time>
      </trkpt>
      <trkpt lat="43.72519" lon="6.94839">
        <ele>1067.2006836</ele>
        <time>2014-05-01T09:36:48Z</time>
      </trkpt>
      <trkpt lat="43.72508" lon="6.94821">
        <ele>1063.3554688</ele>
        <time>2014-05-01T09:36:54Z</time>
      </trkpt>
      <trkpt lat="43.72489" lon="6.94793">
        <ele>1059.5102539</ele>
        <time>2014-05-01T09:36:59Z</time>
      </trkpt>
      <trkpt lat="43.72473" lon="6.9478">
        <ele>1054.7036133</ele>
        <time>2014-05-01T09:37:03Z</time>
      </trkpt>
      <trkpt lat="43.72446" lon="6.94773">
        <ele>1050.8581543</ele>
        <time>2014-05-01T09:37:10Z</time>
      </trkpt>
      <trkpt lat="43.724" lon="6.94765">
        <ele>1047.4936523</ele>
        <time>2014-05-01T09:37:20Z</time>
      </trkpt>
      <trkpt lat="43.72381" lon="6.94768">
        <ele>1045.090332</ele>
        <time>2014-05-01T09:37:24Z</time>
      </trkpt>
      <trkpt lat="43.72373" lon="6.94769">
        <ele>1044.6096191</ele>
        <time>2014-05-01T09:37:26Z</time>
      </trkpt>
      <trkpt lat="43.72359" lon="6.94763">
        <ele>1044.6096191</ele>
        <time>2014-05-01T09:37:34Z</time>
      </trkpt>
      <trkpt lat="43.72358" lon="6.94763">
        <ele>1043.6484375</ele>
        <time>2014-05-01T09:38:01Z</time>
      </trkpt>
      <trkpt lat="43.72358" lon="6.94763">
        <ele>1043.6484375</ele>
        <time>2014-05-01T09:38:26Z</time>
      </trkpt>
      <trkpt lat="43.72325" lon="6.94769">
        <ele>1038.3613281</ele>
        <time>2014-05-01T09:38:34Z</time>
      </trkpt>
      <trkpt lat="43.72289" lon="6.94751">
        <ele>1032.1125488</ele>
        <time>2014-05-01T09:38:39Z</time>
      </trkpt>
      <trkpt lat="43.72268" lon="6.94726">
        <ele>1031.1513672</ele>
        <time>2014-05-01T09:38:42Z</time>
      </trkpt>
      <trkpt lat="43.7217" lon="6.94626">
        <ele>1025.8640137</ele>
        <time>2014-05-01T09:38:58Z</time>
      </trkpt>
      <trkpt lat="43.72162" lon="6.94613">
        <ele>1024.902832</ele>
        <time>2014-05-01T09:39:00Z</time>
      </trkpt>
      <trkpt lat="43.72136" lon="6.946">
        <ele>1024.4221191</ele>
        <time>2014-05-01T09:39:07Z</time>
      </trkpt>
      <trkpt lat="43.72114" lon="6.94596">
        <ele>1022.9802246</ele>
        <time>2014-05-01T09:39:12Z</time>
      </trkpt>
      <trkpt lat="43.72093" lon="6.94583">
        <ele>1022.9802246</ele>
        <time>2014-05-01T09:39:16Z</time>
      </trkpt>
      <trkpt lat="43.72077" lon="6.94581">
        <ele>1022.4995117</ele>
        <time>2014-05-01T09:39:20Z</time>
      </trkpt>
      <trkpt lat="43.72047" lon="6.94573">
        <ele>1023.4609375</ele>
        <time>2014-05-01T09:39:28Z</time>
      </trkpt>
      <trkpt lat="43.72033" lon="6.9457">
        <ele>1024.4221191</ele>
        <time>2014-05-01T09:39:34Z</time>
      </trkpt>
      <trkpt lat="43.72018" lon="6.94574">
        <ele>1023.4609375</ele>
        <time>2014-05-01T09:39:39Z</time>
      </trkpt>
      <trkpt lat="43.72008" lon="6.94578">
        <ele>1021.5380859</ele>
        <time>2014-05-01T09:39:43Z</time>
      </trkpt>
      <trkpt lat="43.71994" lon="6.94594">
        <ele>1018.6540527</ele>
        <time>2014-05-01T09:39:49Z</time>
      </trkpt>
      <trkpt lat="43.7197" lon="6.94578">
        <ele>1014.328125</ele>
        <time>2014-05-01T09:39:58Z</time>
      </trkpt>
      <trkpt lat="43.71959" lon="6.94565">
        <ele>1012.4055176</ele>
        <time>2014-05-01T09:40:02Z</time>
      </trkpt>
      <trkpt lat="43.71946" lon="6.9456">
        <ele>1011.9250488</ele>
        <time>2014-05-01T09:40:05Z</time>
      </trkpt>
      <trkpt lat="43.71923" lon="6.94545">
        <ele>1010.4829102</ele>
        <time>2014-05-01T09:40:12Z</time>
      </trkpt>
      <trkpt lat="43.7191" lon="6.94557">
        <ele>1009.0410156</ele>
        <time>2014-05-01T09:40:16Z</time>
      </trkpt>
      <trkpt lat="43.71891" lon="6.94583">
        <ele>1008.079834</ele>
        <time>2014-05-01T09:40:21Z</time>
      </trkpt>
      <trkpt lat="43.71872" lon="6.94595">
        <ele>1006.6376953</ele>
        <time>2014-05-01T09:40:25Z</time>
      </trkpt>
      <trkpt lat="43.71838" lon="6.94625">
        <ele>1000.8696289</ele>
        <time>2014-05-01T09:40:33Z</time>
      </trkpt>
      <trkpt lat="43.71838" lon="6.94641">
        <ele>997.9858398</ele>
        <time>2014-05-01T09:40:36Z</time>
      </trkpt>
      <trkpt lat="43.71829" lon="6.94653">
        <ele>995.1018066</ele>
        <time>2014-05-01T09:40:40Z</time>
      </trkpt>
      <trkpt lat="43.71813" lon="6.94665">
        <ele>992.2180176</ele>
        <time>2014-05-01T09:40:43Z</time>
      </trkpt>
      <trkpt lat="43.71774" lon="6.94684">
        <ele>989.8146973</ele>
        <time>2014-05-01T09:40:49Z</time>
      </trkpt>
      <trkpt lat="43.71747" lon="6.94704">
        <ele>985.4885254</ele>
        <time>2014-05-01T09:40:53Z</time>
      </trkpt>
      <trkpt lat="43.71727" lon="6.94725">
        <ele>984.0466309</ele>
        <time>2014-05-01T09:40:56Z</time>
      </trkpt>
      <trkpt lat="43.71723" lon="6.94749">
        <ele>983.565918</ele>
        <time>2014-05-01T09:41:00Z</time>
      </trkpt>
      <trkpt lat="43.71728" lon="6.94781">
        <ele>982.1240234</ele>
        <time>2014-05-01T09:41:06Z</time>
      </trkpt>
      <trkpt lat="43.71728" lon="6.94793">
        <ele>981.6433105</ele>
        <time>2014-05-01T09:41:09Z</time>
      </trkpt>
      <trkpt lat="43.71719" lon="6.94835">
        <ele>980.6821289</ele>
        <time>2014-05-01T09:41:18Z</time>
      </trkpt>
      <trkpt lat="43.71711" lon="6.94853">
        <ele>980.201416</ele>
        <time>2014-05-01T09:41:22Z</time>
      </trkpt>
      <trkpt lat="43.71687" lon="6.9492">
        <ele>978.2788086</ele>
        <time>2014-05-01T09:41:37Z</time>
      </trkpt>
      <trkpt lat="43.71684" lon="6.94934">
        <ele>977.7980957</ele>
        <time>2014-05-01T09:41:40Z</time>
      </trkpt>
      <trkpt lat="43.71655" lon="6.94969">
        <ele>974.9143066</ele>
        <time>2014-05-01T09:41:50Z</time>
      </trkpt>
      <trkpt lat="43.71653" lon="6.94972">
        <ele>974.9143066</ele>
        <time>2014-05-01T09:41:51Z</time>
      </trkpt>
      <trkpt lat="43.7165" lon="6.94985">
        <ele>974.9143066</ele>
        <time>2014-05-01T09:41:54Z</time>
      </trkpt>
      <trkpt lat="43.71646" lon="6.95001">
        <ele>975.3947754</ele>
        <time>2014-05-01T09:42:00Z</time>
      </trkpt>
      <trkpt lat="43.71654" lon="6.95025">
        <ele>976.3562012</ele>
        <time>2014-05-01T09:42:11Z</time>
      </trkpt>
      <trkpt lat="43.71641" lon="6.95072">
        <ele>976.3562012</ele>
        <time>2014-05-01T09:42:27Z</time>
      </trkpt>
      <trkpt lat="43.71625" lon="6.95111">
        <ele>975.3947754</ele>
        <time>2014-05-01T09:42:40Z</time>
      </trkpt>
      <trkpt lat="43.71623" lon="6.95114">
        <ele>975.3947754</ele>
        <time>2014-05-01T09:42:41Z</time>
      </trkpt>
      <trkpt lat="43.71589" lon="6.9515">
        <ele>974.9143066</ele>
        <time>2014-05-01T09:42:52Z</time>
      </trkpt>
      <trkpt lat="43.71578" lon="6.95163">
        <ele>974.9143066</ele>
        <time>2014-05-01T09:43:04Z</time>
      </trkpt>
      <trkpt lat="43.71569" lon="6.9517">
        <ele>973.4724121</ele>
        <time>2014-05-01T09:44:24Z</time>
      </trkpt>
      <trkpt lat="43.71545" lon="6.95186">
        <ele>969.1462402</ele>
        <time>2014-05-01T09:44:32Z</time>
      </trkpt>
      <trkpt lat="43.71528" lon="6.95185">
        <ele>967.2236328</ele>
        <time>2014-05-01T09:44:36Z</time>
      </trkpt>
      <trkpt lat="43.71514" lon="6.95186">
        <ele>966.262207</ele>
        <time>2014-05-01T09:44:39Z</time>
      </trkpt>
      <trkpt lat="43.71462" lon="6.95173">
        <ele>958.5717773</ele>
        <time>2014-05-01T09:44:50Z</time>
      </trkpt>
      <trkpt lat="43.71418" lon="6.95177">
        <ele>951.8425293</ele>
        <time>2014-05-01T09:45:01Z</time>
      </trkpt>
      <trkpt lat="43.71375" lon="6.95199">
        <ele>945.5939941</ele>
        <time>2014-05-01T09:45:10Z</time>
      </trkpt>
      <trkpt lat="43.71349" lon="6.95217">
        <ele>940.7873535</ele>
        <time>2014-05-01T09:45:17Z</time>
      </trkpt>
      <trkpt lat="43.7134" lon="6.95229">
        <ele>937.9033203</ele>
        <time>2014-05-01T09:45:20Z</time>
      </trkpt>
      <trkpt lat="43.71332" lon="6.95237">
        <ele>936.4614258</ele>
        <time>2014-05-01T09:45:22Z</time>
      </trkpt>
      <trkpt lat="43.71307" lon="6.95252">
        <ele>932.6162109</ele>
        <time>2014-05-01T09:45:29Z</time>
      </trkpt>
      <trkpt lat="43.71285" lon="6.9527">
        <ele>928.7709961</ele>
        <time>2014-05-01T09:45:35Z</time>
      </trkpt>
      <trkpt lat="43.71277" lon="6.95274">
        <ele>928.2902832</ele>
        <time>2014-05-01T09:45:37Z</time>
      </trkpt>
      <trkpt lat="43.71253" lon="6.95294">
        <ele>923.4836426</ele>
        <time>2014-05-01T09:45:44Z</time>
      </trkpt>
      <trkpt lat="43.71244" lon="6.95304">
        <ele>922.0415039</ele>
        <time>2014-05-01T09:45:47Z</time>
      </trkpt>
      <trkpt lat="43.71228" lon="6.95302">
        <ele>920.1188965</ele>
        <time>2014-05-01T09:45:51Z</time>
      </trkpt>
      <trkpt lat="43.71203" lon="6.95314">
        <ele>916.7543945</ele>
        <time>2014-05-01T09:45:58Z</time>
      </trkpt>
      <trkpt lat="43.7119" lon="6.95316">
        <ele>915.7932129</ele>
        <time>2014-05-01T09:46:01Z</time>
      </trkpt>
      <trkpt lat="43.71155" lon="6.9534">
        <ele>912.4284668</ele>
        <time>2014-05-01T09:46:11Z</time>
      </trkpt>
      <trkpt lat="43.71143" lon="6.95346">
        <ele>910.0251465</ele>
        <time>2014-05-01T09:46:14Z</time>
      </trkpt>
      <trkpt lat="43.71131" lon="6.95352">
        <ele>907.1411133</ele>
        <time>2014-05-01T09:46:17Z</time>
      </trkpt>
      <trkpt lat="43.71119" lon="6.95372">
        <ele>902.3344727</ele>
        <time>2014-05-01T09:46:21Z</time>
      </trkpt>
      <trkpt lat="43.71107" lon="6.95382">
        <ele>898.9699707</ele>
        <time>2014-05-01T09:46:24Z</time>
      </trkpt>
      <trkpt lat="43.71091" lon="6.95387">
        <ele>895.1247559</ele>
        <time>2014-05-01T09:46:28Z</time>
      </trkpt>
      <trkpt lat="43.71081" lon="6.95395">
        <ele>890.798584</ele>
        <time>2014-05-01T09:46:31Z</time>
      </trkpt>
      <trkpt lat="43.71078" lon="6.95397">
        <ele>889.8374023</ele>
        <time>2014-05-01T09:46:42Z</time>
      </trkpt>
      <trkpt lat="43.71076" lon="6.95397">
        <ele>889.3566895</ele>
        <time>2014-05-01T09:47:36Z</time>
      </trkpt>
      <trkpt lat="43.71069" lon="6.95392">
        <ele>887.9147949</ele>
        <time>2014-05-01T09:47:40Z</time>
      </trkpt>
      <trkpt lat="43.71052" lon="6.95385">
        <ele>885.9921875</ele>
        <time>2014-05-01T09:47:45Z</time>
      </trkpt>
      <trkpt lat="43.71004" lon="6.95409">
        <ele>878.3017578</ele>
        <time>2014-05-01T09:47:57Z</time>
      </trkpt>
      <trkpt lat="43.7099" lon="6.95412">
        <ele>876.3791504</ele>
        <time>2014-05-01T09:48:00Z</time>
      </trkpt>
      <trkpt lat="43.7097" lon="6.95428">
        <ele>872.5336914</ele>
        <time>2014-05-01T09:48:05Z</time>
      </trkpt>
      <trkpt lat="43.70962" lon="6.95431">
        <ele>871.0917969</ele>
        <time>2014-05-01T09:48:07Z</time>
      </trkpt>
      <trkpt lat="43.70959" lon="6.95437">
        <ele>869.1691895</ele>
        <time>2014-05-01T09:48:09Z</time>
      </trkpt>
      <trkpt lat="43.70946" lon="6.95446">
        <ele>865.8046875</ele>
        <time>2014-05-01T09:48:13Z</time>
      </trkpt>
      <trkpt lat="43.70929" lon="6.95457">
        <ele>862.4399414</ele>
        <time>2014-05-01T09:48:18Z</time>
      </trkpt>
      <trkpt lat="43.70922" lon="6.95465">
        <ele>860.9980469</ele>
        <time>2014-05-01T09:48:20Z</time>
      </trkpt>
      <trkpt lat="43.70911" lon="6.95472">
        <ele>859.0751953</ele>
        <time>2014-05-01T09:48:23Z</time>
      </trkpt>
      <trkpt lat="43.70904" lon="6.95471">
        <ele>857.6333008</ele>
        <time>2014-05-01T09:48:25Z</time>
      </trkpt>
      <trkpt lat="43.70886" lon="6.95507">
        <ele>853.307373</ele>
        <time>2014-05-01T09:48:34Z</time>
      </trkpt>
      <trkpt lat="43.70878" lon="6.95514">
        <ele>851.3847656</ele>
        <time>2014-05-01T09:48:38Z</time>
      </trkpt>
      <trkpt lat="43.70856" lon="6.95507">
        <ele>847.0588379</ele>
        <time>2014-05-01T09:48:44Z</time>
      </trkpt>
      <trkpt lat="43.70856" lon="6.9551">
        <ele>847.0588379</ele>
        <time>2014-05-01T09:49:04Z</time>
      </trkpt>
      <trkpt lat="43.70856" lon="6.95518">
        <ele>846.5783691</ele>
        <time>2014-05-01T09:50:03Z</time>
      </trkpt>
      <trkpt lat="43.70843" lon="6.95542">
        <ele>843.6940918</ele>
        <time>2014-05-01T09:50:07Z</time>
      </trkpt>
      <trkpt lat="43.70829" lon="6.95633">
        <ele>836.0036621</ele>
        <time>2014-05-01T09:50:16Z</time>
      </trkpt>
      <trkpt lat="43.70818" lon="6.95674">
        <ele>832.1584473</ele>
        <time>2014-05-01T09:50:21Z</time>
      </trkpt>
      <trkpt lat="43.70799" lon="6.95702">
        <ele>824.9484863</ele>
        <time>2014-05-01T09:50:28Z</time>
      </trkpt>
      <trkpt lat="43.70795" lon="6.95719">
        <ele>822.0644531</ele>
        <time>2014-05-01T09:50:31Z</time>
      </trkpt>
      <trkpt lat="43.70785" lon="6.95738">
        <ele>816.7773438</ele>
        <time>2014-05-01T09:50:35Z</time>
      </trkpt>
      <trkpt lat="43.70788" lon="6.95767">
        <ele>812.9321289</ele>
        <time>2014-05-01T09:50:41Z</time>
      </trkpt>
      <trkpt lat="43.70784" lon="6.95779">
        <ele>811.0092773</ele>
        <time>2014-05-01T09:50:43Z</time>
      </trkpt>
      <trkpt lat="43.70785" lon="6.95811">
        <ele>810.5285645</ele>
        <time>2014-05-01T09:50:47Z</time>
      </trkpt>
      <trkpt lat="43.70773" lon="6.95841">
        <ele>807.6447754</ele>
        <time>2014-05-01T09:50:53Z</time>
      </trkpt>
      <trkpt lat="43.70771" lon="6.95847">
        <ele>807.6447754</ele>
        <time>2014-05-01T09:50:54Z</time>
      </trkpt>
      <trkpt lat="43.70751" lon="6.95862">
        <ele>804.2802734</ele>
        <time>2014-05-01T09:50:59Z</time>
      </trkpt>
      <trkpt lat="43.70741" lon="6.95865">
        <ele>802.8381348</ele>
        <time>2014-05-01T09:51:01Z</time>
      </trkpt>
      <trkpt lat="43.70728" lon="6.95883">
        <ele>800.4350586</ele>
        <time>2014-05-01T09:51:05Z</time>
      </trkpt>
      <trkpt lat="43.70697" lon="6.959">
        <ele>795.1474609</ele>
        <time>2014-05-01T09:51:12Z</time>
      </trkpt>
      <trkpt lat="43.70691" lon="6.95908">
        <ele>794.666748</ele>
        <time>2014-05-01T09:51:14Z</time>
      </trkpt>
      <trkpt lat="43.70686" lon="6.95912">
        <ele>791.782959</ele>
        <time>2014-05-01T09:51:16Z</time>
      </trkpt>
      <trkpt lat="43.70675" lon="6.95926">
        <ele>790.8215332</ele>
        <time>2014-05-01T09:51:20Z</time>
      </trkpt>
      <trkpt lat="43.70651" lon="6.95939">
        <ele>788.418457</ele>
        <time>2014-05-01T09:51:25Z</time>
      </trkpt>
      <trkpt lat="43.70632" lon="6.95962">
        <ele>786.9763184</ele>
        <time>2014-05-01T09:51:30Z</time>
      </trkpt>
      <trkpt lat="43.70639" lon="6.95994">
        <ele>787.4570313</ele>
        <time>2014-05-01T09:51:35Z</time>
      </trkpt>
      <trkpt lat="43.70646" lon="6.96028">
        <ele>787.9377441</ele>
        <time>2014-05-01T09:51:45Z</time>
      </trkpt>
      <trkpt lat="43.70648" lon="6.96042">
        <ele>788.418457</ele>
        <time>2014-05-01T09:52:08Z</time>
      </trkpt>
      <trkpt lat="43.70661" lon="6.96088">
        <ele>787.9377441</ele>
        <time>2014-05-01T09:52:20Z</time>
      </trkpt>
      <trkpt lat="43.70664" lon="6.96095">
        <ele>788.418457</ele>
        <time>2014-05-01T09:52:34Z</time>
      </trkpt>
      <trkpt lat="43.70676" lon="6.96105">
        <ele>788.8991699</ele>
        <time>2014-05-01T09:52:38Z</time>
      </trkpt>
      <trkpt lat="43.70684" lon="6.9613">
        <ele>789.3796387</ele>
        <time>2014-05-01T09:52:43Z</time>
      </trkpt>
      <trkpt lat="43.70695" lon="6.96151">
        <ele>788.8991699</ele>
        <time>2014-05-01T09:52:47Z</time>
      </trkpt>
      <trkpt lat="43.70699" lon="6.9617">
        <ele>788.8991699</ele>
        <time>2014-05-01T09:52:50Z</time>
      </trkpt>
      <trkpt lat="43.70707" lon="6.96199">
        <ele>787.4570313</ele>
        <time>2014-05-01T09:52:55Z</time>
      </trkpt>
      <trkpt lat="43.70703" lon="6.96213">
        <ele>786.4958496</ele>
        <time>2014-05-01T09:52:57Z</time>
      </trkpt>
      <trkpt lat="43.70723" lon="6.96269">
        <ele>785.5344238</ele>
        <time>2014-05-01T09:53:05Z</time>
      </trkpt>
      <trkpt lat="43.70733" lon="6.96312">
        <ele>784.0925293</ele>
        <time>2014-05-01T09:53:11Z</time>
      </trkpt>
      <trkpt lat="43.70733" lon="6.96328">
        <ele>782.6506348</ele>
        <time>2014-05-01T09:53:13Z</time>
      </trkpt>
      <trkpt lat="43.70726" lon="6.96345">
        <ele>782.1699219</ele>
        <time>2014-05-01T09:53:15Z</time>
      </trkpt>
      <trkpt lat="43.70711" lon="6.96368">
        <ele>778.3244629</ele>
        <time>2014-05-01T09:53:19Z</time>
      </trkpt>
      <trkpt lat="43.70693" lon="6.96416">
        <ele>778.3244629</ele>
        <time>2014-05-01T09:53:28Z</time>
      </trkpt>
      <trkpt lat="43.70686" lon="6.96432">
        <ele>777.3632813</ele>
        <time>2014-05-01T09:53:31Z</time>
      </trkpt>
      <trkpt lat="43.70688" lon="6.9645">
        <ele>775.9211426</ele>
        <time>2014-05-01T09:53:34Z</time>
      </trkpt>
      <trkpt lat="43.70689" lon="6.96464">
        <ele>774.9599609</ele>
        <time>2014-05-01T09:53:36Z</time>
      </trkpt>
      <trkpt lat="43.70693" lon="6.96493">
        <ele>772.5566406</ele>
        <time>2014-05-01T09:53:42Z</time>
      </trkpt>
      <trkpt lat="43.70688" lon="6.96503">
        <ele>771.1147461</ele>
        <time>2014-05-01T09:53:44Z</time>
      </trkpt>
      <trkpt lat="43.70673" lon="6.96524">
        <ele>768.2307129</ele>
        <time>2014-05-01T09:53:48Z</time>
      </trkpt>
      <trkpt lat="43.70662" lon="6.96549">
        <ele>764.385498</ele>
        <time>2014-05-01T09:53:52Z</time>
      </trkpt>
      <trkpt lat="43.70649" lon="6.96559">
        <ele>761.9821777</ele>
        <time>2014-05-01T09:53:56Z</time>
      </trkpt>
      <trkpt lat="43.70634" lon="6.96568">
        <ele>759.0981445</ele>
        <time>2014-05-01T09:53:59Z</time>
      </trkpt>
      <trkpt lat="43.70624" lon="6.96578">
        <ele>757.1755371</ele>
        <time>2014-05-01T09:54:01Z</time>
      </trkpt>
      <trkpt lat="43.70602" lon="6.96583">
        <ele>753.8110352</ele>
        <time>2014-05-01T09:54:06Z</time>
      </trkpt>
      <trkpt lat="43.70591" lon="6.9659">
        <ele>749.4851074</ele>
        <time>2014-05-01T09:54:09Z</time>
      </trkpt>
      <trkpt lat="43.7058" lon="6.96605">
        <ele>745.1589355</ele>
        <time>2014-05-01T09:54:14Z</time>
      </trkpt>
      <trkpt lat="43.70562" lon="6.96615">
        <ele>739.8718262</ele>
        <time>2014-05-01T09:54:19Z</time>
      </trkpt>
      <trkpt lat="43.70543" lon="6.96627">
        <ele>732.6621094</ele>
        <time>2014-05-01T09:54:25Z</time>
      </trkpt>
      <trkpt lat="43.70545" lon="6.96644">
        <ele>732.6621094</ele>
        <time>2014-05-01T09:54:29Z</time>
      </trkpt>
      <trkpt lat="43.70542" lon="6.96656">
        <ele>732.1813965</ele>
        <time>2014-05-01T09:54:31Z</time>
      </trkpt>
      <trkpt lat="43.70544" lon="6.96678">
        <ele>731.2199707</ele>
        <time>2014-05-01T09:54:34Z</time>
      </trkpt>
      <trkpt lat="43.7053" lon="6.96749">
        <ele>722.5681152</ele>
        <time>2014-05-01T09:54:44Z</time>
      </trkpt>
      <trkpt lat="43.70528" lon="6.96771">
        <ele>719.6843262</ele>
        <time>2014-05-01T09:54:47Z</time>
      </trkpt>
      <trkpt lat="43.70526" lon="6.96799">
        <ele>715.3581543</ele>
        <time>2014-05-01T09:54:51Z</time>
      </trkpt>
      <trkpt lat="43.70527" lon="6.96816">
        <ele>714.3967285</ele>
        <time>2014-05-01T09:54:53Z</time>
      </trkpt>
      <trkpt lat="43.70522" lon="6.96842">
        <ele>711.0322266</ele>
        <time>2014-05-01T09:54:57Z</time>
      </trkpt>
      <trkpt lat="43.70524" lon="6.96864">
        <ele>709.1096191</ele>
        <time>2014-05-01T09:55:01Z</time>
      </trkpt>
      <trkpt lat="43.70523" lon="6.96885">
        <ele>706.7062988</ele>
        <time>2014-05-01T09:55:04Z</time>
      </trkpt>
      <trkpt lat="43.70527" lon="6.96913">
        <ele>703.8225098</ele>
        <time>2014-05-01T09:55:08Z</time>
      </trkpt>
      <trkpt lat="43.7053" lon="6.96939">
        <ele>700.9384766</ele>
        <time>2014-05-01T09:55:11Z</time>
      </trkpt>
      <trkpt lat="43.70544" lon="6.9698">
        <ele>696.1318359</ele>
        <time>2014-05-01T09:55:18Z</time>
      </trkpt>
      <trkpt lat="43.70558" lon="6.97012">
        <ele>693.2478027</ele>
        <time>2014-05-01T09:55:23Z</time>
      </trkpt>
      <trkpt lat="43.70569" lon="6.97039">
        <ele>689.8833008</ele>
        <time>2014-05-01T09:55:29Z</time>
      </trkpt>
      <trkpt lat="43.70575" lon="6.97057">
        <ele>685.0769043</ele>
        <time>2014-05-01T09:55:32Z</time>
      </trkpt>
      <trkpt lat="43.70578" lon="6.97061">
        <ele>683.6345215</ele>
        <time>2014-05-01T09:55:43Z</time>
      </trkpt>
      <trkpt lat="43.70579" lon="6.97061">
        <ele>683.6345215</ele>
        <time>2014-05-01T09:56:39Z</time>
      </trkpt>
      <trkpt lat="43.70579" lon="6.97062">
        <ele>683.1538086</ele>
        <time>2014-05-01T09:56:46Z</time>
      </trkpt>
      <trkpt lat="43.70604" lon="6.97065">
        <ele>683.6345215</ele>
        <time>2014-05-01T09:57:01Z</time>
      </trkpt>
      <trkpt lat="43.70637" lon="6.97067">
        <ele>684.5961914</ele>
        <time>2014-05-01T09:57:17Z</time>
      </trkpt>
      <trkpt lat="43.70664" lon="6.97069">
        <ele>686.5187988</ele>
        <time>2014-05-01T09:57:29Z</time>
      </trkpt>
      <trkpt lat="43.70703" lon="6.97071">
        <ele>686.9992676</ele>
        <time>2014-05-01T09:57:44Z</time>
      </trkpt>
      <trkpt lat="43.70705" lon="6.97071">
        <ele>686.9992676</ele>
        <time>2014-05-01T09:57:45Z</time>
      </trkpt>
      <trkpt lat="43.70739" lon="6.97066">
        <ele>689.4025879</ele>
        <time>2014-05-01T09:58:01Z</time>
      </trkpt>
      <trkpt lat="43.70743" lon="6.97064">
        <ele>688.4414063</ele>
        <time>2014-05-01T09:58:04Z</time>
      </trkpt>
      <trkpt lat="43.70754" lon="6.97067">
        <ele>689.4025879</ele>
        <time>2014-05-01T09:58:18Z</time>
      </trkpt>
      <trkpt lat="43.70769" lon="6.97072">
        <ele>688.9221191</ele>
        <time>2014-05-01T09:58:29Z</time>
      </trkpt>
      <trkpt lat="43.70798" lon="6.97079">
        <ele>691.8059082</ele>
        <time>2014-05-01T09:58:46Z</time>
      </trkpt>
      <trkpt lat="43.70827" lon="6.9708">
        <ele>695.1704102</ele>
        <time>2014-05-01T09:59:04Z</time>
      </trkpt>
      <trkpt lat="43.70855" lon="6.97077">
        <ele>696.1318359</ele>
        <time>2014-05-01T09:59:20Z</time>
      </trkpt>
      <trkpt lat="43.70882" lon="6.97074">
        <ele>700.4580078</ele>
        <time>2014-05-01T09:59:38Z</time>
      </trkpt>
      <trkpt lat="43.70884" lon="6.97073">
        <ele>700.4580078</ele>
        <time>2014-05-01T09:59:59Z</time>
      </trkpt>
      <trkpt lat="43.70886" lon="6.97073">
        <ele>700.9384766</ele>
        <time>2014-05-01T10:00:07Z</time>
      </trkpt>
      <trkpt lat="43.70895" lon="6.97079">
        <ele>698.5349121</ele>
        <time>2014-05-01T10:00:12Z</time>
      </trkpt>
      <trkpt lat="43.70895" lon="6.97096">
        <ele>697.0930176</ele>
        <time>2014-05-01T10:00:16Z</time>
      </trkpt>
      <trkpt lat="43.70894" lon="6.97118">
        <ele>692.767334</ele>
        <time>2014-05-01T10:00:22Z</time>
      </trkpt>
      <trkpt lat="43.709" lon="6.97124">
        <ele>690.8444824</ele>
        <time>2014-05-01T10:00:24Z</time>
      </trkpt>
      <trkpt lat="43.70901" lon="6.9714">
        <ele>688.4414063</ele>
        <time>2014-05-01T10:00:28Z</time>
      </trkpt>
      <trkpt lat="43.70886" lon="6.97183">
        <ele>685.0769043</ele>
        <time>2014-05-01T10:00:36Z</time>
      </trkpt>
      <trkpt lat="43.7084" lon="6.97239">
        <ele>680.2700195</ele>
        <time>2014-05-01T10:00:45Z</time>
      </trkpt>
      <trkpt lat="43.70823" lon="6.97263">
        <ele>676.9055176</ele>
        <time>2014-05-01T10:00:48Z</time>
      </trkpt>
      <trkpt lat="43.70802" lon="6.97314">
        <ele>671.6181641</ele>
        <time>2014-05-01T10:00:53Z</time>
      </trkpt>
      <trkpt lat="43.70794" lon="6.97343">
        <ele>669.2150879</ele>
        <time>2014-05-01T10:00:56Z</time>
      </trkpt>
      <trkpt lat="43.70781" lon="6.9737">
        <ele>667.2922363</ele>
        <time>2014-05-01T10:01:02Z</time>
      </trkpt>
      <trkpt lat="43.70776" lon="6.97361">
        <ele>665.8503418</ele>
        <time>2014-05-01T10:01:11Z</time>
      </trkpt>
      <trkpt lat="43.70775" lon="6.97353">
        <ele>665.3696289</ele>
        <time>2014-05-01T10:01:24Z</time>
      </trkpt>
      <trkpt lat="43.7077" lon="6.97349">
        <ele>664.888916</ele>
        <time>2014-05-01T10:01:28Z</time>
      </trkpt>
      <trkpt lat="43.70765" lon="6.97358">
        <ele>664.4082031</ele>
        <time>2014-05-01T10:01:32Z</time>
      </trkpt>
      <trkpt lat="43.70764" lon="6.97441">
        <ele>665.8503418</ele>
        <time>2014-05-01T10:01:50Z</time>
      </trkpt>
      <trkpt lat="43.70753" lon="6.97461">
        <ele>664.4082031</ele>
        <time>2014-05-01T10:01:55Z</time>
      </trkpt>
      <trkpt lat="43.7073" lon="6.97497">
        <ele>661.0437012</ele>
        <time>2014-05-01T10:02:01Z</time>
      </trkpt>
      <trkpt lat="43.70679" lon="6.9753">
        <ele>657.1984863</ele>
        <time>2014-05-01T10:02:09Z</time>
      </trkpt>
      <trkpt lat="43.7066" lon="6.97537">
        <ele>655.7565918</ele>
        <time>2014-05-01T10:02:12Z</time>
      </trkpt>
      <trkpt lat="43.70635" lon="6.97558">
        <ele>654.795166</ele>
        <time>2014-05-01T10:02:17Z</time>
      </trkpt>
      <trkpt lat="43.70617" lon="6.97563">
        <ele>654.3146973</ele>
        <time>2014-05-01T10:02:21Z</time>
      </trkpt>
      <trkpt lat="43.70601" lon="6.9756">
        <ele>653.8339844</ele>
        <time>2014-05-01T10:02:26Z</time>
      </trkpt>
      <trkpt lat="43.70597" lon="6.97553">
        <ele>652.8725586</ele>
        <time>2014-05-01T10:02:28Z</time>
      </trkpt>
      <trkpt lat="43.70592" lon="6.97545">
        <ele>651.9111328</ele>
        <time>2014-05-01T10:02:30Z</time>
      </trkpt>
      <trkpt lat="43.70594" lon="6.97517">
        <ele>649.0270996</ele>
        <time>2014-05-01T10:02:37Z</time>
      </trkpt>
      <trkpt lat="43.70586" lon="6.97507">
        <ele>645.1818848</ele>
        <time>2014-05-01T10:02:41Z</time>
      </trkpt>
      <trkpt lat="43.70583" lon="6.97498">
        <ele>642.2980957</ele>
        <time>2014-05-01T10:02:43Z</time>
      </trkpt>
      <trkpt lat="43.70573" lon="6.97471">
        <ele>635.5686035</ele>
        <time>2014-05-01T10:02:48Z</time>
      </trkpt>
      <trkpt lat="43.70544" lon="6.97472">
        <ele>632.6848145</ele>
        <time>2014-05-01T10:02:55Z</time>
      </trkpt>
      <trkpt lat="43.70533" lon="6.97466">
        <ele>629.8007813</ele>
        <time>2014-05-01T10:02:59Z</time>
      </trkpt>
      <trkpt lat="43.70529" lon="6.97462">
        <ele>628.8395996</ele>
        <time>2014-05-01T10:03:01Z</time>
      </trkpt>
      <trkpt lat="43.70502" lon="6.97462">
        <ele>625.9555664</ele>
        <time>2014-05-01T10:03:08Z</time>
      </trkpt>
      <trkpt lat="43.70485" lon="6.97455">
        <ele>621.1491699</ele>
        <time>2014-05-01T10:03:13Z</time>
      </trkpt>
      <trkpt lat="43.70473" lon="6.97461">
        <ele>619.2263184</ele>
        <time>2014-05-01T10:03:16Z</time>
      </trkpt>
      <trkpt lat="43.70457" lon="6.97452">
        <ele>618.7456055</ele>
        <time>2014-05-01T10:03:21Z</time>
      </trkpt>
      <trkpt lat="43.7045" lon="6.97449">
        <ele>618.7456055</ele>
        <time>2014-05-01T10:03:25Z</time>
      </trkpt>
      <trkpt lat="43.70459" lon="6.97438">
        <ele>614.9003906</ele>
        <time>2014-05-01T10:03:30Z</time>
      </trkpt>
      <trkpt lat="43.70448" lon="6.97429">
        <ele>610.5744629</ele>
        <time>2014-05-01T10:03:36Z</time>
      </trkpt>
      <trkpt lat="43.7045" lon="6.97422">
        <ele>611.0551758</ele>
        <time>2014-05-01T10:03:38Z</time>
      </trkpt>
      <trkpt lat="43.70444" lon="6.97401">
        <ele>609.1325684</ele>
        <time>2014-05-01T10:03:44Z</time>
      </trkpt>
      <trkpt lat="43.70445" lon="6.9739">
        <ele>609.6132813</ele>
        <time>2014-05-01T10:03:46Z</time>
      </trkpt>
      <trkpt lat="43.70432" lon="6.97377">
        <ele>610.5744629</ele>
        <time>2014-05-01T10:03:52Z</time>
      </trkpt>
      <trkpt lat="43.7043" lon="6.9739">
        <ele>607.6906738</ele>
        <time>2014-05-01T10:04:01Z</time>
      </trkpt>
      <trkpt lat="43.70424" lon="6.97399">
        <ele>608.6518555</ele>
        <time>2014-05-01T10:04:07Z</time>
      </trkpt>
      <trkpt lat="43.70422" lon="6.97399">
        <ele>608.6518555</ele>
        <time>2014-05-01T10:04:08Z</time>
      </trkpt>
      <trkpt lat="43.70414" lon="6.97399">
        <ele>608.6518555</ele>
        <time>2014-05-01T10:04:11Z</time>
      </trkpt>
      <trkpt lat="43.70408" lon="6.974">
        <ele>608.6518555</ele>
        <time>2014-05-01T10:04:14Z</time>
      </trkpt>
      <trkpt lat="43.70391" lon="6.97395">
        <ele>607.2099609</ele>
        <time>2014-05-01T10:04:20Z</time>
      </trkpt>
      <trkpt lat="43.70378" lon="6.97395">
        <ele>606.2485352</ele>
        <time>2014-05-01T10:04:28Z</time>
      </trkpt>
      <trkpt lat="43.70375" lon="6.974">
        <ele>603.8452148</ele>
        <time>2014-05-01T10:04:32Z</time>
      </trkpt>
      <trkpt lat="43.70358" lon="6.97413">
        <ele>599.5192871</ele>
        <time>2014-05-01T10:04:39Z</time>
      </trkpt>
      <trkpt lat="43.70344" lon="6.97428">
        <ele>596.1547852</ele>
        <time>2014-05-01T10:04:47Z</time>
      </trkpt>
      <trkpt lat="43.70338" lon="6.9743">
        <ele>593.7514648</ele>
        <time>2014-05-01T10:05:03Z</time>
      </trkpt>
      <trkpt lat="43.70334" lon="6.97431">
        <ele>593.270752</ele>
        <time>2014-05-01T10:05:08Z</time>
      </trkpt>
      <trkpt lat="43.70314" lon="6.97417">
        <ele>590.8674316</ele>
        <time>2014-05-01T10:05:18Z</time>
      </trkpt>
      <trkpt lat="43.70312" lon="6.97416">
        <ele>589.90625</ele>
        <time>2014-05-01T10:05:41Z</time>
      </trkpt>
      <trkpt lat="43.70307" lon="6.97414">
        <ele>588.4643555</ele>
        <time>2014-05-01T10:06:09Z</time>
      </trkpt>
      <trkpt lat="43.70294" lon="6.97411">
        <ele>587.9833984</ele>
        <time>2014-05-01T10:06:29Z</time>
      </trkpt>
      <trkpt lat="43.70292" lon="6.97412">
        <ele>587.5026855</ele>
        <time>2014-05-01T10:06:50Z</time>
      </trkpt>
      <trkpt lat="43.7028" lon="6.97406">
        <ele>586.060791</ele>
        <time>2014-05-01T10:07:20Z</time>
      </trkpt>
      <trkpt lat="43.70269" lon="6.97372">
        <ele>581.7348633</ele>
        <time>2014-05-01T10:07:25Z</time>
      </trkpt>
      <trkpt lat="43.70273" lon="6.97291">
        <ele>575.967041</ele>
        <time>2014-05-01T10:07:33Z</time>
      </trkpt>
      <trkpt lat="43.70271" lon="6.97267">
        <ele>574.0444336</ele>
        <time>2014-05-01T10:07:37Z</time>
      </trkpt>
      <trkpt lat="43.70267" lon="6.97249">
        <ele>572.1218262</ele>
        <time>2014-05-01T10:07:40Z</time>
      </trkpt>
      <trkpt lat="43.70266" lon="6.97218">
        <ele>571.1604004</ele>
        <time>2014-05-01T10:07:44Z</time>
      </trkpt>
      <trkpt lat="43.70259" lon="6.97182">
        <ele>569.237793</ele>
        <time>2014-05-01T10:07:48Z</time>
      </trkpt>
      <trkpt lat="43.70253" lon="6.97163">
        <ele>570.1989746</ele>
        <time>2014-05-01T10:07:51Z</time>
      </trkpt>
      <trkpt lat="43.70249" lon="6.97175">
        <ele>567.3151855</ele>
        <time>2014-05-01T10:07:56Z</time>
      </trkpt>
      <trkpt lat="43.70239" lon="6.97233">
        <ele>560.5859375</ele>
        <time>2014-05-01T10:08:02Z</time>
      </trkpt>
      <trkpt lat="43.70231" lon="6.97285">
        <ele>556.7407227</ele>
        <time>2014-05-01T10:08:08Z</time>
      </trkpt>
      <trkpt lat="43.70227" lon="6.97281">
        <ele>555.298584</ele>
        <time>2014-05-01T10:08:12Z</time>
      </trkpt>
      <trkpt lat="43.70226" lon="6.97215">
        <ele>548.5693359</ele>
        <time>2014-05-01T10:08:21Z</time>
      </trkpt>
      <trkpt lat="43.70222" lon="6.97195">
        <ele>545.6855469</ele>
        <time>2014-05-01T10:08:24Z</time>
      </trkpt>
      <trkpt lat="43.70219" lon="6.97176">
        <ele>542.3209229</ele>
        <time>2014-05-01T10:08:27Z</time>
      </trkpt>
      <trkpt lat="43.70213" lon="6.97172">
        <ele>540.8789063</ele>
        <time>2014-05-01T10:08:36Z</time>
      </trkpt>
      <trkpt lat="43.70213" lon="6.97172">
        <ele>540.3983154</ele>
        <time>2014-05-01T10:09:34Z</time>
      </trkpt>
      <trkpt lat="43.70213" lon="6.97185">
        <ele>538.9562988</ele>
        <time>2014-05-01T10:09:39Z</time>
      </trkpt>
      <trkpt lat="43.70214" lon="6.97209">
        <ele>538.475708</ele>
        <time>2014-05-01T10:09:50Z</time>
      </trkpt>
      <trkpt lat="43.70212" lon="6.97241">
        <ele>536.0723877</ele>
        <time>2014-05-01T10:09:58Z</time>
      </trkpt>
      <trkpt lat="43.70206" lon="6.97268">
        <ele>534.1496582</ele>
        <time>2014-05-01T10:10:02Z</time>
      </trkpt>
      <trkpt lat="43.702" lon="6.9729">
        <ele>530.7851563</ele>
        <time>2014-05-01T10:10:05Z</time>
      </trkpt>
      <trkpt lat="43.7017" lon="6.9734">
        <ele>525.0172119</ele>
        <time>2014-05-01T10:10:12Z</time>
      </trkpt>
      <trkpt lat="43.70152" lon="6.97388">
        <ele>518.2878418</ele>
        <time>2014-05-01T10:10:21Z</time>
      </trkpt>
      <trkpt lat="43.70152" lon="6.97434">
        <ele>521.6525879</ele>
        <time>2014-05-01T10:10:34Z</time>
      </trkpt>
      <trkpt lat="43.70142" lon="6.9746">
        <ele>523.5751953</ele>
        <time>2014-05-01T10:10:43Z</time>
      </trkpt>
      <trkpt lat="43.70138" lon="6.97494">
        <ele>519.7298584</ele>
        <time>2014-05-01T10:10:52Z</time>
      </trkpt>
      <trkpt lat="43.70133" lon="6.97521">
        <ele>521.6525879</ele>
        <time>2014-05-01T10:11:01Z</time>
      </trkpt>
      <trkpt lat="43.70136" lon="6.97541">
        <ele>520.2105713</ele>
        <time>2014-05-01T10:11:13Z</time>
      </trkpt>
      <trkpt lat="43.70147" lon="6.97606">
        <ele>514.442627</ele>
        <time>2014-05-01T10:11:27Z</time>
      </trkpt>
      <trkpt lat="43.7017" lon="6.97657">
        <ele>510.59729</ele>
        <time>2014-05-01T10:11:39Z</time>
      </trkpt>
      <trkpt lat="43.70176" lon="6.97689">
        <ele>511.5587158</ele>
        <time>2014-05-01T10:11:50Z</time>
      </trkpt>
      <trkpt lat="43.7018" lon="6.97717">
        <ele>509.6361084</ele>
        <time>2014-05-01T10:12:02Z</time>
      </trkpt>
      <trkpt lat="43.70182" lon="6.97725">
        <ele>509.6361084</ele>
        <time>2014-05-01T10:12:17Z</time>
      </trkpt>
      <trkpt lat="43.70185" lon="6.97738">
        <ele>509.1553955</ele>
        <time>2014-05-01T10:12:27Z</time>
      </trkpt>
      <trkpt lat="43.70198" lon="6.97759">
        <ele>507.2327881</ele>
        <time>2014-05-01T10:12:40Z</time>
      </trkpt>
      <trkpt lat="43.70201" lon="6.97797">
        <ele>506.7520752</ele>
        <time>2014-05-01T10:12:48Z</time>
      </trkpt>
      <trkpt lat="43.70206" lon="6.97839">
        <ele>505.7908936</ele>
        <time>2014-05-01T10:13:04Z</time>
      </trkpt>
      <trkpt lat="43.70205" lon="6.97856">
        <ele>504.348877</ele>
        <time>2014-05-01T10:13:15Z</time>
      </trkpt>
      <trkpt lat="43.70204" lon="6.97859">
        <ele>504.348877</ele>
        <time>2014-05-01T10:13:23Z</time>
      </trkpt>
      <trkpt lat="43.70202" lon="6.97896">
        <ele>505.3101807</ele>
        <time>2014-05-01T10:13:35Z</time>
      </trkpt>
      <trkpt lat="43.70203" lon="6.97961">
        <ele>510.59729</ele>
        <time>2014-05-01T10:13:49Z</time>
      </trkpt>
      <trkpt lat="43.70206" lon="6.97985">
        <ele>507.713501</ele>
        <time>2014-05-01T10:14:00Z</time>
      </trkpt>
      <trkpt lat="43.70226" lon="6.98016">
        <ele>506.2714844</ele>
        <time>2014-05-01T10:14:14Z</time>
      </trkpt>
      <trkpt lat="43.70235" lon="6.9806">
        <ele>506.2714844</ele>
        <time>2014-05-01T10:14:26Z</time>
      </trkpt>
      <trkpt lat="43.70237" lon="6.98086">
        <ele>508.1940918</ele>
        <time>2014-05-01T10:14:33Z</time>
      </trkpt>
      <trkpt lat="43.70248" lon="6.98151">
        <ele>508.6746826</ele>
        <time>2014-05-01T10:14:48Z</time>
      </trkpt>
      <trkpt lat="43.70249" lon="6.98234">
        <ele>510.59729</ele>
        <time>2014-05-01T10:15:03Z</time>
      </trkpt>
      <trkpt lat="43.70251" lon="6.98251">
        <ele>509.1553955</ele>
        <time>2014-05-01T10:15:13Z</time>
      </trkpt>
      <trkpt lat="43.70258" lon="6.98278">
        <ele>508.1940918</ele>
        <time>2014-05-01T10:15:24Z</time>
      </trkpt>
      <trkpt lat="43.70256" lon="6.98281">
        <ele>507.713501</ele>
        <time>2014-05-01T10:15:29Z</time>
      </trkpt>
      <trkpt lat="43.70245" lon="6.98301">
        <ele>508.1940918</ele>
        <time>2014-05-01T10:15:45Z</time>
      </trkpt>
      <trkpt lat="43.70244" lon="6.98329">
        <ele>505.7908936</ele>
        <time>2014-05-01T10:16:01Z</time>
      </trkpt>
      <trkpt lat="43.70243" lon="6.98356">
        <ele>506.2714844</ele>
        <time>2014-05-01T10:16:14Z</time>
      </trkpt>
      <trkpt lat="43.70249" lon="6.98374">
        <ele>503.8681641</ele>
        <time>2014-05-01T10:16:24Z</time>
      </trkpt>
      <trkpt lat="43.70252" lon="6.98378">
        <ele>503.3874512</ele>
        <time>2014-05-01T10:16:36Z</time>
      </trkpt>
      <trkpt lat="43.70267" lon="6.98398">
        <ele>502.9067383</ele>
        <time>2014-05-01T10:16:46Z</time>
      </trkpt>
      <trkpt lat="43.70293" lon="6.98404">
        <ele>502.9067383</ele>
        <time>2014-05-01T10:16:57Z</time>
      </trkpt>
      <trkpt lat="43.7033" lon="6.98379">
        <ele>500.50354</ele>
        <time>2014-05-01T10:17:11Z</time>
      </trkpt>
      <trkpt lat="43.70332" lon="6.98377">
        <ele>499.0615234</ele>
        <time>2014-05-01T10:17:25Z</time>
      </trkpt>
      <trkpt lat="43.70333" lon="6.98375">
        <ele>499.0615234</ele>
        <time>2014-05-01T10:17:38Z</time>
      </trkpt>
      <trkpt lat="43.7034" lon="6.98376">
        <ele>496.6583252</ele>
        <time>2014-05-01T10:17:43Z</time>
      </trkpt>
      <trkpt lat="43.70343" lon="6.98377">
        <ele>496.1777344</ele>
        <time>2014-05-01T10:17:46Z</time>
      </trkpt>
      <trkpt lat="43.70346" lon="6.98385">
        <ele>492.8129883</ele>
        <time>2014-05-01T10:17:50Z</time>
      </trkpt>
      <trkpt lat="43.70325" lon="6.98441">
        <ele>474.5479736</ele>
        <time>2014-05-01T10:18:05Z</time>
      </trkpt>
      <trkpt lat="43.70319" lon="6.98456">
        <ele>469.741333</ele>
        <time>2014-05-01T10:18:09Z</time>
      </trkpt>
      <trkpt lat="43.70309" lon="6.98485">
        <ele>463.012085</ele>
        <time>2014-05-01T10:18:17Z</time>
      </trkpt>
      <trkpt lat="43.70321" lon="6.98492">
        <ele>460.1281738</ele>
        <time>2014-05-01T10:18:24Z</time>
      </trkpt>
      <trkpt lat="43.70325" lon="6.98492">
        <ele>459.1668701</ele>
        <time>2014-05-01T10:18:26Z</time>
      </trkpt>
      <trkpt lat="43.70331" lon="6.98497">
        <ele>457.7249756</ele>
        <time>2014-05-01T10:18:29Z</time>
      </trkpt>
      <trkpt lat="43.70333" lon="6.98521">
        <ele>455.3215332</ele>
        <time>2014-05-01T10:18:35Z</time>
      </trkpt>
      <trkpt lat="43.70329" lon="6.98531">
        <ele>453.8796387</ele>
        <time>2014-05-01T10:18:37Z</time>
      </trkpt>
      <trkpt lat="43.70335" lon="6.98548">
        <ele>449.072998</ele>
        <time>2014-05-01T10:18:41Z</time>
      </trkpt>
      <trkpt lat="43.70355" lon="6.9854">
        <ele>446.1890869</ele>
        <time>2014-05-01T10:18:48Z</time>
      </trkpt>
      <trkpt lat="43.70364" lon="6.9854">
        <ele>442.3438721</ele>
        <time>2014-05-01T10:18:52Z</time>
      </trkpt>
      <trkpt lat="43.70373" lon="6.98542">
        <ele>439.9404297</ele>
        <time>2014-05-01T10:18:55Z</time>
      </trkpt>
      <trkpt lat="43.70391" lon="6.98541">
        <ele>437.0565186</ele>
        <time>2014-05-01T10:19:01Z</time>
      </trkpt>
      <trkpt lat="43.70398" lon="6.98544">
        <ele>436.0952148</ele>
        <time>2014-05-01T10:19:03Z</time>
      </trkpt>
      <trkpt lat="43.70401" lon="6.9855">
        <ele>432.25</ele>
        <time>2014-05-01T10:19:14Z</time>
      </trkpt>
      <trkpt lat="43.70416" lon="6.9857">
        <ele>427.9239502</ele>
        <time>2014-05-01T10:19:46Z</time>
      </trkpt>
      <trkpt lat="43.70447" lon="6.98618">
        <ele>421.1948242</ele>
        <time>2014-05-01T10:19:57Z</time>
      </trkpt>
      <trkpt lat="43.70478" lon="6.98664">
        <ele>415.4268799</ele>
        <time>2014-05-01T10:20:06Z</time>
      </trkpt>
      <trkpt lat="43.70484" lon="6.98666">
        <ele>413.5042725</ele>
        <time>2014-05-01T10:20:07Z</time>
      </trkpt>
      <trkpt lat="43.705" lon="6.98673">
        <ele>412.5428467</ele>
        <time>2014-05-01T10:20:11Z</time>
      </trkpt>
      <trkpt lat="43.70512" lon="6.98686">
        <ele>406.2943115</ele>
        <time>2014-05-01T10:20:15Z</time>
      </trkpt>
      <trkpt lat="43.70527" lon="6.9871">
        <ele>395.7198486</ele>
        <time>2014-05-01T10:20:21Z</time>
      </trkpt>
      <trkpt lat="43.70534" lon="6.98732">
        <ele>388.0292969</ele>
        <time>2014-05-01T10:20:26Z</time>
      </trkpt>
      <trkpt lat="43.70549" lon="6.98758">
        <ele>376.4935303</ele>
        <time>2014-05-01T10:20:33Z</time>
      </trkpt>
      <trkpt lat="43.70552" lon="6.98783">
        <ele>368.8029785</ele>
        <time>2014-05-01T10:20:38Z</time>
      </trkpt>
      <trkpt lat="43.70563" lon="6.98831">
        <ele>355.8251953</ele>
        <time>2014-05-01T10:20:49Z</time>
      </trkpt>
      <trkpt lat="43.70567" lon="6.98838">
        <ele>353.9025879</ele>
        <time>2014-05-01T10:20:51Z</time>
      </trkpt>
      <trkpt lat="43.70559" lon="6.98868">
        <ele>345.2506104</ele>
        <time>2014-05-01T10:21:00Z</time>
      </trkpt>
      <trkpt lat="43.7056" lon="6.98869">
        <ele>344.7700195</ele>
        <time>2014-05-01T10:21:44Z</time>
      </trkpt>
      <trkpt lat="43.70527" lon="6.98859">
        <ele>339.9633789</ele>
        <time>2014-05-01T10:21:52Z</time>
      </trkpt>
      <trkpt lat="43.70499" lon="6.98851">
        <ele>338.0407715</ele>
        <time>2014-05-01T10:21:56Z</time>
      </trkpt>
      <trkpt lat="43.70442" lon="6.98858">
        <ele>333.7147217</ele>
        <time>2014-05-01T10:22:05Z</time>
      </trkpt>
      <trkpt lat="43.70427" lon="6.98862">
        <ele>333.2341309</ele>
        <time>2014-05-01T10:22:07Z</time>
      </trkpt>
      <trkpt lat="43.7039" lon="6.98856">
        <ele>330.8309326</ele>
        <time>2014-05-01T10:22:12Z</time>
      </trkpt>
      <trkpt lat="43.70343" lon="6.98857">
        <ele>329.8695068</ele>
        <time>2014-05-01T10:22:19Z</time>
      </trkpt>
      <trkpt lat="43.70338" lon="6.98867">
        <ele>328.4276123</ele>
        <time>2014-05-01T10:22:25Z</time>
      </trkpt>
      <trkpt lat="43.70341" lon="6.98884">
        <ele>324.5822754</ele>
        <time>2014-05-01T10:22:29Z</time>
      </trkpt>
      <trkpt lat="43.7037" lon="6.98919">
        <ele>318.3336182</ele>
        <time>2014-05-01T10:22:37Z</time>
      </trkpt>
      <trkpt lat="43.70372" lon="6.98922">
        <ele>317.3724365</ele>
        <time>2014-05-01T10:22:38Z</time>
      </trkpt>
      <trkpt lat="43.70383" lon="6.98929">
        <ele>314.9691162</ele>
        <time>2014-05-01T10:22:41Z</time>
      </trkpt>
      <trkpt lat="43.70412" lon="6.98984">
        <ele>304.8752441</ele>
        <time>2014-05-01T10:22:48Z</time>
      </trkpt>
      <trkpt lat="43.70384" lon="6.99025">
        <ele>297.1846924</ele>
        <time>2014-05-01T10:22:53Z</time>
      </trkpt>
      <trkpt lat="43.70375" lon="6.99031">
        <ele>296.2235107</ele>
        <time>2014-05-01T10:22:55Z</time>
      </trkpt>
      <trkpt lat="43.70373" lon="6.99045">
        <ele>295.7426758</ele>
        <time>2014-05-01T10:22:59Z</time>
      </trkpt>
      <trkpt lat="43.70355" lon="6.99058">
        <ele>289.9748535</ele>
        <time>2014-05-01T10:23:07Z</time>
      </trkpt>
      <trkpt lat="43.70349" lon="6.99057">
        <ele>289.9748535</ele>
        <time>2014-05-01T10:23:09Z</time>
      </trkpt>
      <trkpt lat="43.70347" lon="6.99077">
        <ele>286.1295166</ele>
        <time>2014-05-01T10:23:15Z</time>
      </trkpt>
      <trkpt lat="43.70343" lon="6.99084">
        <ele>285.1682129</ele>
        <time>2014-05-01T10:23:25Z</time>
      </trkpt>
      <trkpt lat="43.70343" lon="6.99087">
        <ele>285.1682129</ele>
        <time>2014-05-01T10:23:30Z</time>
      </trkpt>
      <trkpt lat="43.70341" lon="6.99085">
        <ele>284.6876221</ele>
        <time>2014-05-01T10:23:34Z</time>
      </trkpt>
      <trkpt lat="43.7034" lon="6.99087">
        <ele>284.6876221</ele>
        <time>2014-05-01T10:23:36Z</time>
      </trkpt>
      <trkpt lat="43.70305" lon="6.99115">
        <ele>284.2069092</ele>
        <time>2014-05-01T10:23:50Z</time>
      </trkpt>
      <trkpt lat="43.70254" lon="6.99155">
        <ele>284.2069092</ele>
        <time>2014-05-01T10:24:08Z</time>
      </trkpt>
      <trkpt lat="43.70243" lon="6.99162">
        <ele>284.6876221</ele>
        <time>2014-05-01T10:24:19Z</time>
      </trkpt>
      <trkpt lat="43.70239" lon="6.99166">
        <ele>282.7650146</ele>
        <time>2014-05-01T10:24:35Z</time>
      </trkpt>
      <trkpt lat="43.70239" lon="6.99168">
        <ele>282.7650146</ele>
        <time>2014-05-01T10:24:58Z</time>
      </trkpt>
      <trkpt lat="43.70238" lon="6.99167">
        <ele>282.2843018</ele>
        <time>2014-05-01T10:26:51Z</time>
      </trkpt>
      <trkpt lat="43.70218" lon="6.99175">
        <ele>284.2069092</ele>
        <time>2014-05-01T10:27:03Z</time>
      </trkpt>
      <trkpt lat="43.70181" lon="6.99182">
        <ele>286.1295166</ele>
        <time>2014-05-01T10:27:21Z</time>
      </trkpt>
      <trkpt lat="43.70133" lon="6.99167">
        <ele>287.0908203</ele>
        <time>2014-05-01T10:27:42Z</time>
      </trkpt>
      <trkpt lat="43.7009" lon="6.99128">
        <ele>289.4941406</ele>
        <time>2014-05-01T10:28:03Z</time>
      </trkpt>
      <trkpt lat="43.7006" lon="6.99062">
        <ele>289.4941406</ele>
        <time>2014-05-01T10:28:24Z</time>
      </trkpt>
      <trkpt lat="43.70035" lon="6.99">
        <ele>291.416748</ele>
        <time>2014-05-01T10:28:43Z</time>
      </trkpt>
      <trkpt lat="43.70002" lon="6.98952">
        <ele>294.3007813</ele>
        <time>2014-05-01T10:29:01Z</time>
      </trkpt>
      <trkpt lat="43.69962" lon="6.98915">
        <ele>296.2235107</ele>
        <time>2014-05-01T10:29:19Z</time>
      </trkpt>
      <trkpt lat="43.69901" lon="6.98854">
        <ele>297.6654053</ele>
        <time>2014-05-01T10:29:41Z</time>
      </trkpt>
      <trkpt lat="43.6987" lon="6.98791">
        <ele>298.1461182</ele>
        <time>2014-05-01T10:29:58Z</time>
      </trkpt>
      <trkpt lat="43.69838" lon="6.98711">
        <ele>300.0687256</ele>
        <time>2014-05-01T10:30:18Z</time>
      </trkpt>
      <trkpt lat="43.69816" lon="6.98654">
        <ele>300.0687256</ele>
        <time>2014-05-01T10:30:30Z</time>
      </trkpt>
      <trkpt lat="43.69775" lon="6.98551">
        <ele>299.5880127</ele>
        <time>2014-05-01T10:30:51Z</time>
      </trkpt>
      <trkpt lat="43.69751" lon="6.98452">
        <ele>301.5106201</ele>
        <time>2014-05-01T10:31:11Z</time>
      </trkpt>
      <trkpt lat="43.69758" lon="6.98351">
        <ele>302.9525146</ele>
        <time>2014-05-01T10:31:33Z</time>
      </trkpt>
      <trkpt lat="43.69775" lon="6.98251">
        <ele>304.8752441</ele>
        <time>2014-05-01T10:31:55Z</time>
      </trkpt>
      <trkpt lat="43.69808" lon="6.98141">
        <ele>308.2398682</ele>
        <time>2014-05-01T10:32:21Z</time>
      </trkpt>
      <trkpt lat="43.69811" lon="6.98048">
        <ele>309.6818848</ele>
        <time>2014-05-01T10:32:41Z</time>
      </trkpt>
      <trkpt lat="43.69783" lon="6.97961">
        <ele>312.0852051</ele>
        <time>2014-05-01T10:33:02Z</time>
      </trkpt>
      <trkpt lat="43.69729" lon="6.97895">
        <ele>314.4884033</ele>
        <time>2014-05-01T10:33:26Z</time>
      </trkpt>
      <trkpt lat="43.69659" lon="6.97861">
        <ele>314.4884033</ele>
        <time>2014-05-01T10:33:50Z</time>
      </trkpt>
      <trkpt lat="43.69657" lon="6.97861">
        <ele>314.0078125</ele>
        <time>2014-05-01T10:33:51Z</time>
      </trkpt>
      <trkpt lat="43.69655" lon="6.97859">
        <ele>314.0078125</ele>
        <time>2014-05-01T10:33:55Z</time>
      </trkpt>
      <trkpt lat="43.69631" lon="6.97792">
        <ele>313.5272217</ele>
        <time>2014-05-01T10:34:14Z</time>
      </trkpt>
      <trkpt lat="43.69537" lon="6.97924">
        <ele>316.8917236</ele>
        <time>2014-05-01T10:34:28Z</time>
      </trkpt>
      <trkpt lat="43.69486" lon="6.97947">
        <ele>318.8143311</ele>
        <time>2014-05-01T10:34:45Z</time>
      </trkpt>
      <trkpt lat="43.69423" lon="6.97961">
        <ele>321.6983643</ele>
        <time>2014-05-01T10:35:04Z</time>
      </trkpt>
      <trkpt lat="43.69369" lon="6.98002">
        <ele>324.1015625</ele>
        <time>2014-05-01T10:35:22Z</time>
      </trkpt>
      <trkpt lat="43.69311" lon="6.98049">
        <ele>324.5822754</ele>
        <time>2014-05-01T10:35:41Z</time>
      </trkpt>
      <trkpt lat="43.69247" lon="6.981">
        <ele>326.9855957</ele>
        <time>2014-05-01T10:36:02Z</time>
      </trkpt>
      <trkpt lat="43.69183" lon="6.98121">
        <ele>328.9083252</ele>
        <time>2014-05-01T10:36:22Z</time>
      </trkpt>
      <trkpt lat="43.6912" lon="6.981">
        <ele>327.9467773</ele>
        <time>2014-05-01T10:36:42Z</time>
      </trkpt>
      <trkpt lat="43.69051" lon="6.98069">
        <ele>326.5048828</ele>
        <time>2014-05-01T10:37:04Z</time>
      </trkpt>
      <trkpt lat="43.69004" lon="6.98071">
        <ele>327.9467773</ele>
        <time>2014-05-01T10:37:19Z</time>
      </trkpt>
      <trkpt lat="43.68969" lon="6.98083">
        <ele>330.8309326</ele>
        <time>2014-05-01T10:37:31Z</time>
      </trkpt>
      <trkpt lat="43.68916" lon="6.98099">
        <ele>333.2341309</ele>
        <time>2014-05-01T10:37:48Z</time>
      </trkpt>
      <trkpt lat="43.68859" lon="6.98093">
        <ele>334.6761475</ele>
        <time>2014-05-01T10:38:05Z</time>
      </trkpt>
      <trkpt lat="43.68826" lon="6.98076">
        <ele>337.0794678</ele>
        <time>2014-05-01T10:38:17Z</time>
      </trkpt>
      <trkpt lat="43.68783" lon="6.98043">
        <ele>338.5214844</ele>
        <time>2014-05-01T10:38:33Z</time>
      </trkpt>
      <trkpt lat="43.68745" lon="6.98013">
        <ele>345.2506104</ele>
        <time>2014-05-01T10:38:47Z</time>
      </trkpt>
      <trkpt lat="43.68706" lon="6.97989">
        <ele>344.2894287</ele>
        <time>2014-05-01T10:39:00Z</time>
      </trkpt>
      <trkpt lat="43.68647" lon="6.9797">
        <ele>343.8085938</ele>
        <time>2014-05-01T10:39:19Z</time>
      </trkpt>
      <trkpt lat="43.68641" lon="6.97965">
        <ele>344.2894287</ele>
        <time>2014-05-01T10:39:22Z</time>
      </trkpt>
      <trkpt lat="43.68617" lon="6.97949">
        <ele>347.1732178</ele>
        <time>2014-05-01T10:39:36Z</time>
      </trkpt>
      <trkpt lat="43.68575" lon="6.97917">
        <ele>350.5378418</ele>
        <time>2014-05-01T10:40:00Z</time>
      </trkpt>
      <trkpt lat="43.68574" lon="6.97916">
        <ele>350.5378418</ele>
        <time>2014-05-01T10:40:01Z</time>
      </trkpt>
      <trkpt lat="43.68555" lon="6.97913">
        <ele>353.9025879</ele>
        <time>2014-05-01T10:40:14Z</time>
      </trkpt>
      <trkpt lat="43.68536" lon="6.97891">
        <ele>355.8251953</ele>
        <time>2014-05-01T10:40:29Z</time>
      </trkpt>
      <trkpt lat="43.6852" lon="6.97844">
        <ele>357.2670898</ele>
        <time>2014-05-01T10:40:52Z</time>
      </trkpt>
      <trkpt lat="43.68507" lon="6.97799">
        <ele>360.6317139</ele>
        <time>2014-05-01T10:41:13Z</time>
      </trkpt>
      <trkpt lat="43.68486" lon="6.97779">
        <ele>359.1896973</ele>
        <time>2014-05-01T10:41:30Z</time>
      </trkpt>
      <trkpt lat="43.68484" lon="6.97772">
        <ele>358.7089844</ele>
        <time>2014-05-01T10:41:35Z</time>
      </trkpt>
      <trkpt lat="43.6848" lon="6.97758">
        <ele>362.0737305</ele>
        <time>2014-05-01T10:41:43Z</time>
      </trkpt>
      <trkpt lat="43.68467" lon="6.97725">
        <ele>369.2836914</ele>
        <time>2014-05-01T10:42:05Z</time>
      </trkpt>
      <trkpt lat="43.6845" lon="6.97705">
        <ele>370.7255859</ele>
        <time>2014-05-01T10:42:25Z</time>
      </trkpt>
      <trkpt lat="43.68432" lon="6.97696">
        <ele>374.5708008</ele>
        <time>2014-05-01T10:42:42Z</time>
      </trkpt>
      <trkpt lat="43.68413" lon="6.9767">
        <ele>379.3774414</ele>
        <time>2014-05-01T10:43:02Z</time>
      </trkpt>
      <trkpt lat="43.68405" lon="6.97651">
        <ele>377.9354248</ele>
        <time>2014-05-01T10:43:14Z</time>
      </trkpt>
      <trkpt lat="43.6839" lon="6.97618">
        <ele>374.0900879</ele>
        <time>2014-05-01T10:43:32Z</time>
      </trkpt>
      <trkpt lat="43.68364" lon="6.97604">
        <ele>381.7806396</ele>
        <time>2014-05-01T10:43:54Z</time>
      </trkpt>
      <trkpt lat="43.68346" lon="6.9759">
        <ele>386.5874023</ele>
        <time>2014-05-01T10:44:10Z</time>
      </trkpt>
      <trkpt lat="43.6834" lon="6.97584">
        <ele>386.5874023</ele>
        <time>2014-05-01T10:44:16Z</time>
      </trkpt>
      <trkpt lat="43.68329" lon="6.97561">
        <ele>389.4711914</ele>
        <time>2014-05-01T10:44:31Z</time>
      </trkpt>
      <trkpt lat="43.68329" lon="6.9756">
        <ele>389.9519043</ele>
        <time>2014-05-01T10:45:03Z</time>
      </trkpt>
      <trkpt lat="43.68329" lon="6.9756">
        <ele>389.9519043</ele>
        <time>2014-05-01T10:45:23Z</time>
      </trkpt>
      <trkpt lat="43.68329" lon="6.97556">
        <ele>390.4326172</ele>
        <time>2014-05-01T10:45:25Z</time>
      </trkpt>
      <trkpt lat="43.68311" lon="6.97528">
        <ele>389.4711914</ele>
        <time>2014-05-01T10:45:37Z</time>
      </trkpt>
      <trkpt lat="43.68283" lon="6.97476">
        <ele>394.2779541</ele>
        <time>2014-05-01T10:45:52Z</time>
      </trkpt>
      <trkpt lat="43.68258" lon="6.97385">
        <ele>396.2005615</ele>
        <time>2014-05-01T10:46:15Z</time>
      </trkpt>
      <trkpt lat="43.68226" lon="6.97318">
        <ele>400.5264893</ele>
        <time>2014-05-01T10:46:34Z</time>
      </trkpt>
      <trkpt lat="43.68194" lon="6.97208">
        <ele>402.9296875</ele>
        <time>2014-05-01T10:47:02Z</time>
      </trkpt>
      <trkpt lat="43.68174" lon="6.97175">
        <ele>405.3330078</ele>
        <time>2014-05-01T10:47:13Z</time>
      </trkpt>
      <trkpt lat="43.68125" lon="6.97181">
        <ele>407.7363281</ele>
        <time>2014-05-01T10:47:29Z</time>
      </trkpt>
      <trkpt lat="43.68091" lon="6.97192">
        <ele>409.1783447</ele>
        <time>2014-05-01T10:47:41Z</time>
      </trkpt>
      <trkpt lat="43.68076" lon="6.97204">
        <ele>409.1783447</ele>
        <time>2014-05-01T10:47:50Z</time>
      </trkpt>
      <trkpt lat="43.68075" lon="6.97219">
        <ele>409.1783447</ele>
        <time>2014-05-01T10:47:56Z</time>
      </trkpt>
      <trkpt lat="43.68079" lon="6.97233">
        <ele>409.6590576</ele>
        <time>2014-05-01T10:48:01Z</time>
      </trkpt>
      <trkpt lat="43.68084" lon="6.97284">
        <ele>411.581665</ele>
        <time>2014-05-01T10:48:19Z</time>
      </trkpt>
      <trkpt lat="43.68082" lon="6.97319">
        <ele>411.1009521</ele>
        <time>2014-05-01T10:48:32Z</time>
      </trkpt>
      <trkpt lat="43.68073" lon="6.97326">
        <ele>409.6590576</ele>
        <time>2014-05-01T10:48:42Z</time>
      </trkpt>
      <trkpt lat="43.68072" lon="6.97331">
        <ele>408.217041</ele>
        <time>2014-05-01T10:49:02Z</time>
      </trkpt>
      <trkpt lat="43.68072" lon="6.97331">
        <ele>409.1783447</ele>
        <time>2014-05-01T10:53:14Z</time>
      </trkpt>
    </trkseg>
  </trk>
</gpx>